Darstellungsparameter: Aktuell verwendete Einstellungen:
Skalierung der Graphiken ... ?
xyx+y,   Skalierungsfaktor:      Skalierung: Modus: x, Faktor: 1
Darstellungszeitraum ... ?
Vom - - bis: - -   Zeitraum: 06.08.2006 - 05.09.2006
Min/Max/Avg-Anzeige ... ?
Zeige MMA aktuell
Zeige MMA Monat
Zeige MMA alles
Zeige --A aktuell
Zeige --A Monat
Zeige --A alles
Keine MMA-Anzeige
MMA:
Keine MMA-Graphiken
MMA-Basis: 06.08.2006 - 05.09.2006
Quicknavigation für Darstellung... ?
Tage:      1T, 2T, 3T, 5T -1T -2T -3T -5T +1T +2T +3T +5T
Wochen: 1W, 2W, 3W -1W -2W -3W +1W +2W +3W
Monate: 1M, 3M, 6M -1M -3M -6M +1M +3M +6M
Jahre:    1J, 3J, 5J, 10J -1J -3J -5J -10J +1J +3J +5J +10J
Nutze für die Darstellung ... ?
Originaldaten oder Mittelwerte auf ...
Stundenbasis Tagesbasis Wochenbasis
Monatsbasis Jahresbasis      Datenbasis: Original-Daten
Darstellen als:
Statistik (Auto) Statistik J:M      Darstellung:
Zur Graphik,    zurück zur Übersicht aller Sensoren.
 
Tabellarische Datenbersicht: ?
 
Sensor: Nr:Datum:Temp:Feuchte:Taupunkt:
Aussen-T/F 1 06-08-2006 00:06:02 20.6 C 64 % 13.55 C
2 06-08-2006 00:16:03 19.8 C 72 % 14.61 C
3 06-08-2006 00:26:03 19.5 C 73 % 14.53 C
4 06-08-2006 00:36:02 19.3 C 73 % 14.34 C
5 06-08-2006 00:46:02 19.5 C 72 % 14.32 C
6 06-08-2006 00:56:02 19.6 C 72 % 14.42 C
7 06-08-2006 01:06:02 19.6 C 71 % 14.2 C
8 06-08-2006 01:16:02 19.6 C 71 % 14.2 C
9 06-08-2006 01:26:02 19.7 C 71 % 14.3 C
10 06-08-2006 01:36:02 19.7 C 71 % 14.3 C
11 06-08-2006 01:46:02 19.7 C 71 % 14.3 C
12 06-08-2006 01:56:02 19.7 C 72 % 14.51 C
13 06-08-2006 02:06:02 19.8 C 71 % 14.39 C
14 06-08-2006 02:16:02 19.7 C 72 % 14.51 C
15 06-08-2006 02:26:02 19.7 C 71 % 14.3 C
16 06-08-2006 02:36:02 19.8 C 71 % 14.39 C
17 06-08-2006 02:47:04 19.8 C 71 % 14.39 C
18 06-08-2006 02:57:04 19.7 C 72 % 14.51 C
19 06-08-2006 03:07:04 19.6 C 72 % 14.42 C
20 06-08-2006 03:17:04 19.6 C 73 % 14.63 C
21 06-08-2006 03:27:04 19.4 C 73 % 14.44 C
22 06-08-2006 03:37:03 19.3 C 74 % 14.55 C
23 06-08-2006 03:47:03 19 C 74 % 14.26 C
24 06-08-2006 03:57:03 18.8 C 77 % 14.68 C
25 06-08-2006 04:07:02 18.7 C 77 % 14.59 C
Sensor: Nr:Datum:Temp:Feuchte:Taupunkt:
Aussen-T/F 26 06-08-2006 04:17:02 18.7 C 77 % 14.59 C
27 06-08-2006 04:27:02 18.8 C 77 % 14.68 C
28 06-08-2006 04:37:02 19 C 76 % 14.68 C
29 06-08-2006 04:47:02 19.1 C 75 % 14.57 C
30 06-08-2006 04:57:02 18.9 C 77 % 14.78 C
31 06-08-2006 05:07:02 18.9 C 77 % 14.78 C
32 06-08-2006 05:17:02 18.8 C 78 % 14.88 C
33 06-08-2006 05:27:02 18.8 C 78 % 14.88 C
34 06-08-2006 05:37:02 18.9 C 78 % 14.98 C
35 06-08-2006 05:47:02 18.8 C 78 % 14.88 C
36 06-08-2006 05:57:02 18.9 C 78 % 14.98 C
37 06-08-2006 06:07:01 18.8 C 78 % 14.88 C
38 06-08-2006 06:17:01 18.7 C 78 % 14.79 C
39 06-08-2006 06:27:01 18.6 C 79 % 14.89 C
40 06-08-2006 06:37:01 18.5 C 79 % 14.79 C
41 06-08-2006 06:47:02 18.6 C 79 % 14.89 C
42 06-08-2006 06:57:02 18.7 C 78 % 14.79 C
43 06-08-2006 07:07:01 18.8 C 78 % 14.88 C
44 06-08-2006 07:17:01 18.7 C 78 % 14.79 C
45 06-08-2006 07:27:01 18.7 C 77 % 14.59 C
46 06-08-2006 07:37:01 19 C 76 % 14.68 C
47 06-08-2006 07:47:02 19.3 C 74 % 14.55 C
48 06-08-2006 07:57:02 19.5 C 73 % 14.53 C
49 06-08-2006 08:07:01 19.5 C 73 % 14.53 C
50 06-08-2006 08:17:01 19.7 C 72 % 14.51 C
Sensor: Nr:Datum:Temp:Feuchte:Taupunkt:
Aussen-T/F 51 06-08-2006 08:27:01 19.5 C 72 % 14.32 C
52 06-08-2006 08:37:01 19.4 C 72 % 14.22 C
53 06-08-2006 08:47:02 19.2 C 73 % 14.25 C
54 06-08-2006 08:57:02 19.2 C 73 % 14.25 C
55 06-08-2006 09:07:02 19.3 C 72 % 14.13 C
56 06-08-2006 09:17:02 19.5 C 71 % 14.1 C
57 06-08-2006 09:27:02 19.5 C 71 % 14.1 C
58 06-08-2006 09:37:02 19.4 C 71 % 14.01 C
59 06-08-2006 09:47:02 19.5 C 71 % 14.1 C
60 06-08-2006 09:57:02 19.6 C 70 % 13.98 C
61 06-08-2006 10:07:02 19.9 C 69 % 14.05 C
62 06-08-2006 10:17:02 20.4 C 66 % 13.84 C
63 06-08-2006 10:27:02 20.5 C 64 % 13.46 C
64 06-08-2006 10:37:01 20.7 C 63 % 13.41 C
65 06-08-2006 10:47:02 20.7 C 62 % 13.16 C
66 06-08-2006 10:57:02 21.3 C 58 % 12.71 C
67 06-08-2006 11:07:02 21.5 C 57 % 12.63 C
68 06-08-2006 11:17:02 21.2 C 54 % 11.53 C
69 06-08-2006 11:27:02 21.6 C 53 % 11.62 C
70 06-08-2006 11:37:03 21.2 C 54 % 11.53 C
71 06-08-2006 11:47:02 21.7 C 54 % 11.99 C
72 06-08-2006 11:57:02 22.2 C 51 % 11.59 C
73 06-08-2006 12:07:02 22.5 C 51 % 11.86 C
74 06-08-2006 12:17:02 22.7 C 51 % 12.05 C
75 06-08-2006 12:27:02 22.8 C 49 % 11.53 C
Sensor: Nr:Datum:Temp:Feuchte:Taupunkt:
Aussen-T/F 76 06-08-2006 12:37:02 23.9 C 45 % 11.25 C
77 06-08-2006 12:47:02 23.6 C 46 % 11.31 C
78 06-08-2006 12:57:02 23.5 C 45 % 10.89 C
79 06-08-2006 13:07:02 23.5 C 45 % 10.89 C
80 06-08-2006 13:17:02 23.7 C 45 % 11.07 C
81 06-08-2006 13:27:02 24.2 C 43 % 10.84 C
82 06-08-2006 13:37:02 23.6 C 45 % 10.98 C
83 06-08-2006 13:47:02 23.7 C 46 % 11.4 C
84 06-08-2006 13:57:02 23.5 C 44 % 10.55 C
85 06-08-2006 14:07:02 23.1 C 44 % 10.19 C
86 06-08-2006 14:17:02 22.8 C 45 % 10.25 C
87 06-08-2006 14:27:02 23.1 C 45 % 10.53 C
88 06-08-2006 14:37:02 23.1 C 45 % 10.53 C
89 06-08-2006 14:47:02 23.1 C 46 % 10.86 C
90 06-08-2006 14:57:02 23.3 C 45 % 10.71 C
91 06-08-2006 15:07:02 23.4 C 45 % 10.8 C
92 06-08-2006 15:17:02 24 C 43 % 10.66 C
93 06-08-2006 15:27:02 24.7 C 42 % 10.93 C
94 06-08-2006 15:37:03 25.4 C 39 % 10.45 C
95 06-08-2006 15:47:02 24.8 C 40 % 10.29 C
96 06-08-2006 15:57:02 25.2 C 40 % 10.65 C
97 06-08-2006 16:07:02 25.7 C 35 % 9.1 C
98 06-08-2006 16:17:03 24.9 C 39 % 10 C
99 06-08-2006 16:27:03 24.3 C 38 % 9.08 C
100 06-08-2006 16:37:03 24.2 C 40 % 9.75 C
Sensor: Nr:Datum:Temp:Feuchte:Taupunkt:
Aussen-T/F 101 06-08-2006 16:47:03 24.5 C 39 % 9.65 C
102 06-08-2006 16:57:03 24.6 C 38 % 9.35 C
103 06-08-2006 17:07:02 23.9 C 40 % 9.49 C
104 06-08-2006 17:17:02 24 C 39 % 9.2 C
105 06-08-2006 17:27:03 24.1 C 40 % 9.67 C
106 06-08-2006 17:37:02 23.6 C 40 % 9.22 C
107 06-08-2006 17:47:02 23.8 C 41 % 9.76 C
108 06-08-2006 17:57:02 23.8 C 40 % 9.4 C
109 06-08-2006 18:07:01 23.7 C 40 % 9.31 C
110 06-08-2006 18:17:02 23.8 C 41 % 9.76 C
111 06-08-2006 18:27:02 23.7 C 40 % 9.31 C
112 06-08-2006 18:37:02 24.6 C 39 % 9.73 C
113 06-08-2006 18:47:02 25.2 C 36 % 9.08 C
114 06-08-2006 18:57:02 25.9 C 35 % 9.27 C
115 06-08-2006 19:07:02 25.3 C 35 % 8.75 C
116 06-08-2006 19:17:02 25.4 C 35 % 8.84 C
117 06-08-2006 19:27:02 25.9 C 34 % 8.85 C
118 06-08-2006 19:37:02 24.8 C 36 % 8.72 C
119 06-08-2006 19:47:02 24.5 C 37 % 8.86 C
120 06-08-2006 19:57:02 24.1 C 37 % 8.51 C
121 06-08-2006 20:07:02 23.7 C 38 % 8.55 C
122 06-08-2006 20:17:01 23.9 C 38 % 8.73 C
123 06-08-2006 20:27:01 23.9 C 38 % 8.73 C
124 06-08-2006 20:37:01 23.6 C 39 % 8.84 C
125 06-08-2006 20:47:02 23.2 C 40 % 8.86 C
Sensor: Nr:Datum:Temp:Feuchte:Taupunkt:
Aussen-T/F 126 06-08-2006 20:57:02 22.9 C 42 % 9.32 C
127 06-08-2006 21:07:02 22.7 C 43 % 9.49 C
128 06-08-2006 21:17:02 22.2 C 45 % 9.71 C
129 06-08-2006 21:27:03 22 C 45 % 9.53 C
130 06-08-2006 21:37:02 21.7 C 48 % 10.22 C
131 06-08-2006 21:47:02 21.6 C 50 % 10.74 C
132 06-08-2006 21:57:02 21.5 C 51 % 10.94 C
133 06-08-2006 22:07:02 21.2 C 53 % 11.25 C
134 06-08-2006 22:17:03 21.2 C 53 % 11.25 C
135 06-08-2006 22:27:03 20.9 C 55 % 11.53 C
136 06-08-2006 22:37:03 20.7 C 56 % 11.61 C
137 06-08-2006 22:47:02 20.6 C 57 % 11.79 C
138 06-08-2006 22:57:02 20.4 C 58 % 11.86 C
139 06-08-2006 23:07:02 20.3 C 58 % 11.77 C
140 06-08-2006 23:17:03 20.2 C 59 % 11.94 C
141 06-08-2006 23:27:03 20 C 60 % 12 C
142 06-08-2006 23:37:02 20 C 60 % 12 C
143 06-08-2006 23:47:02 19.9 C 61 % 12.16 C
144 06-08-2006 23:57:02 19.9 C 61 % 12.16 C
145 07-08-2006 00:07:02 19.9 C 62 % 12.41 C
146 07-08-2006 00:17:03 19.9 C 61 % 12.16 C
147 07-08-2006 00:27:03 19.8 C 61 % 12.07 C
148 07-08-2006 00:37:02 19.7 C 60 % 11.72 C
149 07-08-2006 00:47:02 19.6 C 61 % 11.88 C
150 07-08-2006 00:57:03 19.5 C 61 % 11.78 C
Sensor: Nr:Datum:Temp:Feuchte:Taupunkt:
Aussen-T/F 151 07-08-2006 01:07:02 19.3 C 62 % 11.84 C
152 07-08-2006 01:17:02 19.1 C 62 % 11.65 C
153 07-08-2006 01:27:02 18.8 C 64 % 11.85 C
154 07-08-2006 01:37:02 18.7 C 64 % 11.76 C
155 07-08-2006 01:47:02 18.6 C 65 % 11.9 C
156 07-08-2006 01:57:02 18.4 C 65 % 11.71 C
157 07-08-2006 02:07:02 18.3 C 66 % 11.84 C
158 07-08-2006 02:17:02 18.3 C 66 % 11.84 C
159 07-08-2006 02:27:02 18.2 C 66 % 11.75 C
160 07-08-2006 02:37:02 18.1 C 67 % 11.88 C
161 07-08-2006 02:48:03 17.8 C 69 % 12.04 C
162 07-08-2006 02:58:03 17.8 C 69 % 12.04 C
163 07-08-2006 03:08:03 17.6 C 69 % 11.85 C
164 07-08-2006 03:18:03 17.5 C 70 % 11.97 C
165 07-08-2006 03:28:03 17.5 C 70 % 11.97 C
166 07-08-2006 03:38:02 17.3 C 71 % 12 C
167 07-08-2006 03:48:02 17.2 C 72 % 12.11 C
168 07-08-2006 03:58:02 17 C 72 % 11.92 C
169 07-08-2006 04:08:02 17 C 73 % 12.13 C
170 07-08-2006 04:18:02 16.8 C 75 % 12.35 C
171 07-08-2006 04:28:02 16.8 C 75 % 12.35 C
172 07-08-2006 04:38:02 16.7 C 75 % 12.25 C
173 07-08-2006 04:48:02 16.6 C 76 % 12.36 C
174 07-08-2006 04:58:02 16.5 C 76 % 12.26 C
175 07-08-2006 05:08:01 16.4 C 77 % 12.36 C
Sensor: Nr:Datum:Temp:Feuchte:Taupunkt:
Aussen-T/F 176 07-08-2006 05:18:02 16.2 C 77 % 12.17 C
177 07-08-2006 05:28:02 16.1 C 78 % 12.27 C
178 07-08-2006 05:38:02 15.9 C 79 % 12.27 C
179 07-08-2006 05:48:02 15.8 C 79 % 12.17 C
180 07-08-2006 05:58:02 15.8 C 80 % 12.36 C
181 07-08-2006 06:08:02 15.6 C 80 % 12.16 C
182 07-08-2006 06:18:02 15.7 C 81 % 12.45 C
183 07-08-2006 06:28:02 15.5 C 81 % 12.26 C
184 07-08-2006 06:38:02 15.4 C 81 % 12.16 C
185 07-08-2006 06:48:03 15.3 C 82 % 12.25 C
186 07-08-2006 06:58:03 15.4 C 82 % 12.35 C
187 07-08-2006 07:08:03 15.5 C 82 % 12.44 C
188 07-08-2006 07:18:02 15.6 C 83 % 12.72 C
189 07-08-2006 07:28:02 15.6 C 83 % 12.72 C
190 07-08-2006 07:38:02 15.7 C 83 % 12.82 C
191 07-08-2006 07:48:01 16.3 C 82 % 13.22 C
192 07-08-2006 07:58:01 16.6 C 81 % 13.33 C
193 07-08-2006 08:08:02 16.9 C 80 % 13.43 C
194 07-08-2006 08:18:02 17.2 C 77 % 13.14 C
195 07-08-2006 08:28:02 17.7 C 75 % 13.22 C
196 07-08-2006 08:38:01 18.1 C 70 % 12.55 C
197 07-08-2006 08:48:02 17.9 C 71 % 12.57 C
198 07-08-2006 08:58:02 18.2 C 69 % 12.42 C
199 07-08-2006 09:08:02 18.2 C 68 % 12.2 C
200 07-08-2006 09:18:02 18.7 C 65 % 11.99 C
Sensor: Nr:Datum:Temp:Feuchte:Taupunkt:
Aussen-T/F 201 07-08-2006 09:28:02 19.4 C 62 % 11.94 C
202 07-08-2006 09:38:01 19.7 C 60 % 11.72 C
203 07-08-2006 09:48:02 19.4 C 60 % 11.44 C
204 07-08-2006 09:58:02 19.9 C 59 % 11.66 C
205 07-08-2006 10:08:02 20.3 C 57 % 11.51 C
206 07-08-2006 10:18:03 19.8 C 58 % 11.3 C
207 07-08-2006 10:28:03 20.5 C 55 % 11.16 C
208 07-08-2006 10:38:03 20.1 C 55 % 10.78 C
209 07-08-2006 10:48:02 20.1 C 53 % 10.23 C
210 07-08-2006 10:58:02 20 C 55 % 10.69 C
211 07-08-2006 11:08:02 20.7 C 54 % 11.07 C
212 07-08-2006 11:18:03 20.7 C 54 % 11.07 C
213 07-08-2006 11:28:03 20.9 C 52 % 10.68 C
214 07-08-2006 11:38:02 21.6 C 49 % 10.44 C
215 07-08-2006 11:48:02 22.2 C 46 % 10.04 C
216 07-08-2006 11:58:02 22.1 C 46 % 9.95 C
217 07-08-2006 12:08:03 22.4 C 44 % 9.56 C
218 07-08-2006 12:18:02 22.8 C 44 % 9.92 C
219 07-08-2006 12:28:02 22.7 C 42 % 9.14 C
220 07-08-2006 12:38:02 23.5 C 40 % 9.13 C
221 07-08-2006 12:48:01 23.8 C 38 % 8.64 C
222 07-08-2006 12:58:01 24.3 C 35 % 7.87 C
223 07-08-2006 13:08:03 24.1 C 35 % 7.69 C
224 07-08-2006 13:18:02 24.1 C 33 % 6.84 C
225 07-08-2006 13:28:02 25.2 C 30 % 6.41 C
Sensor: Nr:Datum:Temp:Feuchte:Taupunkt:
Aussen-T/F 226 07-08-2006 13:38:02 25.8 C 28 % 5.92 C
227 07-08-2006 13:48:02 25.6 C 27 % 5.23 C
228 07-08-2006 13:58:03 25.6 C 26 % 4.69 C
229 07-08-2006 14:08:02 25.8 C 27 % 5.4 C
230 07-08-2006 14:18:02 25.3 C 26 % 4.43 C
231 07-08-2006 14:28:02 26 C 27 % 5.57 C
232 07-08-2006 14:38:02 26.4 C 25 % 4.8 C
233 07-08-2006 14:48:02 27.1 C 21 % 2.91 C
234 07-08-2006 14:58:02 26.7 C 22 % 3.24 C
235 07-08-2006 15:08:02 27.7 C 22 % 4.07 C
236 07-08-2006 15:18:02 27.8 C 22 % 4.15 C
237 07-08-2006 15:28:02 28.8 C 20 % 3.62 C
238 07-08-2006 15:38:02 29.2 C 21 % 4.64 C
239 07-08-2006 15:48:02 29.3 C 22 % 5.39 C
240 07-08-2006 15:58:02 29.9 C 20 % 4.52 C
241 07-08-2006 16:08:01 28.1 C 23 % 5.03 C
242 07-08-2006 16:18:02 28.9 C 24 % 6.32 C
243 07-08-2006 16:28:02 30 C 21 % 5.3 C
244 07-08-2006 16:38:02 30.1 C 22 % 6.06 C
245 07-08-2006 16:48:03 29.9 C 22 % 5.89 C
246 07-08-2006 16:58:03 30.3 C 21 % 5.55 C
247 07-08-2006 17:08:03 29.2 C 22 % 5.31 C
248 07-08-2006 17:18:03 29.4 C 23 % 6.12 C
249 07-08-2006 17:28:03 29.3 C 22 % 5.39 C
250 07-08-2006 17:38:03 29.4 C 20 % 4.11 C
Sensor: Nr:Datum:Temp:Feuchte:Taupunkt:
Aussen-T/F 251 07-08-2006 17:48:02 29 C 22 % 5.15 C
252 07-08-2006 17:58:02 29.6 C 21 % 4.97 C
253 07-08-2006 18:08:02 29.8 C 22 % 5.81 C
254 07-08-2006 18:18:02 29.1 C 22 % 5.23 C
255 07-08-2006 18:28:02 29.2 C 21 % 4.64 C
256 07-08-2006 18:38:02 29.6 C 22 % 5.64 C
257 07-08-2006 18:48:02 29.6 C 21 % 4.97 C
258 07-08-2006 18:58:02 28.7 C 21 % 4.23 C
259 07-08-2006 19:08:02 27.9 C 22 % 4.23 C
260 07-08-2006 19:18:02 28 C 24 % 5.56 C
261 07-08-2006 19:28:02 27.7 C 28 % 7.55 C
262 07-08-2006 19:38:02 27 C 31 % 8.44 C
263 07-08-2006 19:48:03 25.8 C 36 % 9.61 C
264 07-08-2006 19:58:03 25.7 C 37 % 9.92 C
265 07-08-2006 20:08:02 25.4 C 38 % 10.06 C
266 07-08-2006 20:18:02 25.3 C 39 % 10.36 C
267 07-08-2006 20:28:02 24.8 C 41 % 10.66 C
268 07-08-2006 20:38:03 24.2 C 44 % 11.18 C
269 07-08-2006 20:48:02 24.1 C 44 % 11.09 C
270 07-08-2006 20:58:02 24.1 C 45 % 11.43 C
271 07-08-2006 21:08:02 23.6 C 48 % 11.95 C
272 07-08-2006 21:18:01 23.5 C 49 % 12.17 C
273 07-08-2006 21:28:01 23 C 51 % 12.32 C
274 07-08-2006 21:38:01 22.8 C 53 % 12.73 C
275 07-08-2006 21:48:02 22.6 C 54 % 12.83 C
Sensor: Nr:Datum:Temp:Feuchte:Taupunkt:
Aussen-T/F 276 07-08-2006 21:58:02 22.3 C 57 % 13.37 C
277 07-08-2006 22:08:02 22 C 58 % 13.36 C
278 07-08-2006 22:18:02 21.8 C 60 % 13.69 C
279 07-08-2006 22:28:02 21.8 C 61 % 13.95 C
280 07-08-2006 22:38:02 21.7 C 61 % 13.85 C
281 07-08-2006 22:48:02 21.8 C 62 % 14.2 C
282 07-08-2006 22:58:02 21.9 C 62 % 14.29 C
283 07-08-2006 23:08:03 21.9 C 63 % 14.54 C
284 07-08-2006 23:18:02 22 C 62 % 14.39 C
285 07-08-2006 23:28:02 22 C 62 % 14.39 C
286 07-08-2006 23:38:02 21.7 C 64 % 14.6 C
287 07-08-2006 23:48:02 21.8 C 65 % 14.93 C
288 07-08-2006 23:58:02 21.7 C 65 % 14.84 C
289 08-08-2006 00:08:02 21.4 C 66 % 14.79 C
290 08-08-2006 00:18:04 21.2 C 68 % 15.06 C
291 08-08-2006 00:28:04 21.3 C 69 % 15.38 C
292 08-08-2006 00:38:02 21.3 C 69 % 15.38 C
293 08-08-2006 00:48:02 21.3 C 69 % 15.38 C
294 08-08-2006 00:58:02 21.5 C 68 % 15.35 C
295 08-08-2006 01:08:01 21.3 C 69 % 15.38 C
296 08-08-2006 01:18:02 21.1 C 69 % 15.19 C
297 08-08-2006 01:28:02 20.9 C 71 % 15.45 C
298 08-08-2006 01:38:02 20.6 C 72 % 15.38 C
299 08-08-2006 01:48:03 20.8 C 72 % 15.57 C
300 08-08-2006 01:58:03 20.7 C 71 % 15.25 C
Sensor: Nr:Datum:Temp:Feuchte:Taupunkt:
Aussen-T/F 301 08-08-2006 02:08:02 20.4 C 73 % 15.4 C
302 08-08-2006 02:18:03 20.4 C 73 % 15.4 C
303 08-08-2006 02:28:03 20.3 C 73 % 15.3 C
304 08-08-2006 02:38:03 20.2 C 74 % 15.42 C
305 08-08-2006 02:49:04 20.2 C 74 % 15.42 C
306 08-08-2006 02:59:05 20.1 C 74 % 15.32 C
307 08-08-2006 03:09:05 20.1 C 74 % 15.32 C
308 08-08-2006 03:19:03 19.9 C 77 % 15.75 C
309 08-08-2006 03:29:03 19.6 C 80 % 16.06 C
310 08-08-2006 03:39:02 19.5 C 81 % 16.15 C
311 08-08-2006 03:49:02 19.3 C 82 % 16.15 C
312 08-08-2006 03:59:02 19.3 C 82 % 16.15 C
313 08-08-2006 04:09:02 19.3 C 80 % 15.76 C
314 08-08-2006 04:19:02 19.3 C 79 % 15.57 C
315 08-08-2006 04:29:02 19.4 C 79 % 15.66 C
316 08-08-2006 04:39:01 19.5 C 78 % 15.56 C
317 08-08-2006 04:49:02 19.4 C 77 % 15.27 C
318 08-08-2006 04:59:02 18.9 C 79 % 15.18 C
319 08-08-2006 05:09:02 18.9 C 79 % 15.18 C
320 08-08-2006 05:19:02 18.9 C 79 % 15.18 C
321 08-08-2006 05:29:02 18.4 C 81 % 15.08 C
322 08-08-2006 05:39:03 17.7 C 85 % 15.15 C
323 08-08-2006 05:49:02 17.1 C 87 % 14.92 C
324 08-08-2006 05:59:02 17 C 88 % 15 C
325 08-08-2006 06:09:03 16.9 C 90 % 15.25 C
Sensor: Nr:Datum:Temp:Feuchte:Taupunkt:
Aussen-T/F 326 08-08-2006 06:19:03 16.8 C 90 % 15.15 C
327 08-08-2006 06:29:03 17 C 89 % 15.17 C
328 08-08-2006 06:39:02 17.1 C 87 % 14.92 C
329 08-08-2006 06:49:02 16.8 C 87 % 14.62 C
330 08-08-2006 06:59:02 16.8 C 88 % 14.8 C
331 08-08-2006 07:09:03 16.5 C 89 % 14.68 C
332 08-08-2006 07:19:02 16.4 C 89 % 14.58 C
333 08-08-2006 07:29:02 16.2 C 89 % 14.39 C
334 08-08-2006 07:39:02 16.2 C 89 % 14.39 C
335 08-08-2006 07:49:02 16.1 C 90 % 14.46 C
336 08-08-2006 07:59:02 16.2 C 88 % 14.21 C
337 08-08-2006 08:09:02 16.2 C 86 % 13.86 C
338 08-08-2006 08:19:02 16.3 C 84 % 13.59 C
339 08-08-2006 08:29:02 16.4 C 80 % 12.94 C
340 08-08-2006 08:39:02 16.8 C 79 % 13.14 C
341 08-08-2006 08:49:02 16.9 C 77 % 12.84 C
342 08-08-2006 08:59:02 16.8 C 76 % 12.55 C
343 08-08-2006 09:09:02 17 C 75 % 12.54 C
344 08-08-2006 09:19:02 17.5 C 73 % 12.61 C
345 08-08-2006 09:29:02 17.4 C 70 % 11.88 C
346 08-08-2006 09:39:02 17.5 C 71 % 12.19 C
347 08-08-2006 09:49:02 17.6 C 67 % 11.4 C
348 08-08-2006 09:59:02 17.4 C 65 % 10.76 C
349 08-08-2006 10:09:02 17.7 C 63 % 10.57 C
350 08-08-2006 10:19:02 17.9 C 64 % 11 C
Sensor: Nr:Datum:Temp:Feuchte:Taupunkt:
Aussen-T/F 351 08-08-2006 10:29:02 18.1 C 59 % 9.97 C
352 08-08-2006 10:39:02 18.7 C 55 % 9.48 C
353 08-08-2006 10:49:02 19.1 C 53 % 9.3 C
354 08-08-2006 10:59:02 18.7 C 53 % 8.93 C
355 08-08-2006 11:09:02 18.7 C 53 % 8.93 C
356 08-08-2006 11:19:01 18.9 C 53 % 9.12 C
357 08-08-2006 11:29:01 19.7 C 50 % 8.99 C
358 08-08-2006 11:39:01 19.5 C 51 % 9.1 C
359 08-08-2006 11:49:01 19.7 C 49 % 8.7 C
360 08-08-2006 11:59:01 20.7 C 48 % 9.3 C
361 08-08-2006 12:09:02 21.1 C 45 % 8.71 C
362 08-08-2006 12:19:02 22.4 C 41 % 8.51 C
363 08-08-2006 12:29:02 22.1 C 40 % 7.88 C
364 08-08-2006 12:39:02 22.5 C 40 % 8.24 C
365 08-08-2006 12:49:02 21.5 C 39 % 6.97 C
366 08-08-2006 12:59:02 20.5 C 41 % 6.81 C
367 08-08-2006 13:09:02 22 C 38 % 7.04 C
368 08-08-2006 13:19:02 22.6 C 33 % 5.53 C
369 08-08-2006 13:29:02 22 C 35 % 5.85 C
370 08-08-2006 13:39:01 21.7 C 37 % 6.39 C
371 08-08-2006 13:49:02 22.5 C 33 % 5.44 C
372 08-08-2006 13:59:02 23.5 C 30 % 4.94 C
373 08-08-2006 14:09:02 23.7 C 30 % 5.11 C
374 08-08-2006 14:19:02 23.7 C 32 % 6.04 C
375 08-08-2006 14:29:02 23.9 C 31 % 5.76 C
Sensor: Nr:Datum:Temp:Feuchte:Taupunkt:
Aussen-T/F 376 08-08-2006 14:39:02 22.9 C 34 % 6.22 C
377 08-08-2006 14:49:02 22.9 C 33 % 5.79 C
378 08-08-2006 14:59:02 22.6 C 32 % 5.08 C
379 08-08-2006 15:09:03 22.8 C 32 % 5.26 C
380 08-08-2006 15:19:03 22.3 C 35 % 6.11 C
381 08-08-2006 15:29:03 22.1 C 35 % 5.94 C
382 08-08-2006 15:39:03 22.1 C 33 % 5.09 C
383 08-08-2006 15:49:03 22.9 C 33 % 5.79 C
384 08-08-2006 15:59:03 23.3 C 31 % 5.24 C
385 08-08-2006 16:09:03 24.6 C 30 % 5.89 C
386 08-08-2006 16:19:02 25.7 C 26 % 4.77 C
387 08-08-2006 16:29:02 24.9 C 29 % 5.66 C
388 08-08-2006 16:39:02 23 C 30 % 4.51 C
389 08-08-2006 16:49:02 22.7 C 34 % 6.04 C
390 08-08-2006 16:59:02 21.6 C 36 % 5.9 C
391 08-08-2006 17:09:02 21.4 C 36 % 5.73 C
392 08-08-2006 17:19:02 21.4 C 37 % 6.12 C
393 08-08-2006 17:29:02 21.6 C 37 % 6.3 C
394 08-08-2006 17:39:02 21.6 C 36 % 5.9 C
395 08-08-2006 17:49:02 22.2 C 34 % 5.61 C
396 08-08-2006 17:59:03 22.5 C 33 % 5.44 C
397 08-08-2006 18:09:02 22.3 C 34 % 5.69 C
398 08-08-2006 18:19:02 21.6 C 36 % 5.9 C
399 08-08-2006 18:29:02 21.4 C 38 % 6.51 C
400 08-08-2006 18:39:02 20.9 C 40 % 6.81 C
Sensor: Nr:Datum:Temp:Feuchte:Taupunkt:
Aussen-T/F 401 08-08-2006 18:49:02 20.4 C 39 % 5.99 C
402 08-08-2006 18:59:03 20.1 C 39 % 5.73 C
403 08-08-2006 19:09:02 20 C 41 % 6.36 C
404 08-08-2006 19:19:02 20 C 42 % 6.71 C
405 08-08-2006 19:29:02 20.3 C 43 % 7.32 C
406 08-08-2006 19:39:02 20.5 C 43 % 7.5 C
407 08-08-2006 19:49:02 20.3 C 43 % 7.32 C
408 08-08-2006 19:59:02 19.6 C 47 % 7.99 C
409 08-08-2006 20:09:03 19.3 C 52 % 9.21 C
410 08-08-2006 20:19:03 18.8 C 54 % 9.3 C
411 08-08-2006 20:29:03 19.1 C 51 % 8.73 C
412 08-08-2006 20:39:03 19.3 C 51 % 8.92 C
413 08-08-2006 20:49:04 19.1 C 52 % 9.02 C
414 08-08-2006 20:59:04 18.9 C 52 % 8.84 C
415 08-08-2006 21:09:03 18.9 C 51 % 8.55 C
416 08-08-2006 21:19:02 18.8 C 50 % 8.17 C
417 08-08-2006 21:29:02 18.6 C 50 % 7.98 C
418 08-08-2006 21:39:02 18.6 C 51 % 8.27 C
419 08-08-2006 21:49:02 18.5 C 52 % 8.47 C
420 08-08-2006 21:59:02 18.5 C 52 % 8.47 C
421 08-08-2006 22:09:02 18.5 C 54 % 9.03 C
422 08-08-2006 22:19:03 18.4 C 53 % 8.66 C
423 08-08-2006 22:29:03 18.4 C 53 % 8.66 C
424 08-08-2006 22:39:03 18.3 C 54 % 8.84 C
425 08-08-2006 22:49:03 18.2 C 54 % 8.75 C
Sensor: Nr:Datum:Temp:Feuchte:Taupunkt:
Aussen-T/F 426 08-08-2006 22:59:04 18.1 C 55 % 8.93 C
427 08-08-2006 23:09:03 18.1 C 55 % 8.93 C
428 08-08-2006 23:19:03 18 C 55 % 8.83 C
429 08-08-2006 23:29:03 17.9 C 56 % 9.01 C
430 08-08-2006 23:39:03 18 C 55 % 8.83 C
431 08-08-2006 23:49:02 17.7 C 56 % 8.82 C
432 08-08-2006 23:59:02 17.7 C 57 % 9.08 C
433 09-08-2006 00:09:03 17.7 C 57 % 9.08 C
434 09-08-2006 00:19:04 17.6 C 57 % 8.99 C
435 09-08-2006 00:29:05 17.5 C 59 % 9.41 C
436 09-08-2006 00:39:04 17.4 C 59 % 9.31 C
437 09-08-2006 00:49:02 17.3 C 60 % 9.47 C
438 09-08-2006 00:59:02 17.3 C 60 % 9.47 C
439 09-08-2006 01:09:01 17.3 C 61 % 9.71 C
440 09-08-2006 01:19:02 17.3 C 61 % 9.71 C
441 09-08-2006 01:29:02 17.2 C 62 % 9.86 C
442 09-08-2006 01:39:02 17.1 C 62 % 9.77 C
443 09-08-2006 01:49:02 17 C 63 % 9.91 C
444 09-08-2006 01:59:02 16.9 C 65 % 10.28 C
445 09-08-2006 02:09:03 16.9 C 65 % 10.28 C
446 09-08-2006 02:19:02 16.8 C 66 % 10.42 C
447 09-08-2006 02:29:02 16.8 C 65 % 10.19 C
448 09-08-2006 02:39:02 16.7 C 66 % 10.32 C
449 09-08-2006 02:50:03 16.6 C 66 % 10.23 C
450 09-08-2006 03:00:03 16.6 C 67 % 10.45 C
Sensor: Nr:Datum:Temp:Feuchte:Taupunkt:
Aussen-T/F 451 09-08-2006 03:10:03 16.6 C 66 % 10.23 C
452 09-08-2006 03:20:03 16.5 C 67 % 10.36 C
453 09-08-2006 03:30:03 16.4 C 67 % 10.26 C
454 09-08-2006 03:40:03 16.2 C 68 % 10.29 C
455 09-08-2006 03:50:03 16.1 C 68 % 10.2 C
456 09-08-2006 04:00:03 16 C 69 % 10.32 C
457 09-08-2006 04:10:03 15.9 C 71 % 10.65 C
458 09-08-2006 04:20:03 15.9 C 71 % 10.65 C
459 09-08-2006 04:30:03 15.7 C 72 % 10.67 C
460 09-08-2006 04:40:03 15.3 C 73 % 10.49 C
461 09-08-2006 04:50:02 15 C 74 % 10.41 C
462 09-08-2006 05:00:02 14.9 C 75 % 10.51 C
463 09-08-2006 05:10:02 14.8 C 77 % 10.81 C
464 09-08-2006 05:20:02 14.5 C 78 % 10.71 C
465 09-08-2006 05:30:02 14.3 C 78 % 10.52 C
466 09-08-2006 05:40:03 14.7 C 79 % 11.1 C
467 09-08-2006 05:50:03 14.7 C 79 % 11.1 C
468 09-08-2006 06:00:03 14.7 C 79 % 11.1 C
469 09-08-2006 06:10:03 14.4 C 78 % 10.62 C
470 09-08-2006 06:20:02 14.3 C 78 % 10.52 C
471 09-08-2006 06:30:02 14 C 79 % 10.42 C
472 09-08-2006 06:40:02 14 C 80 % 10.61 C
473 09-08-2006 06:50:02 14 C 81 % 10.79 C
474 09-08-2006 07:00:02 14.4 C 81 % 11.18 C
475 09-08-2006 07:10:04 14.7 C 80 % 11.29 C
Sensor: Nr:Datum:Temp:Feuchte:Taupunkt:
Aussen-T/F 476 09-08-2006 07:20:02 15 C 79 % 11.39 C
477 09-08-2006 07:30:02 15.1 C 78 % 11.3 C
478 09-08-2006 07:40:02 15.3 C 77 % 11.3 C
479 09-08-2006 07:50:02 15.6 C 77 % 11.59 C
480 09-08-2006 08:00:02 15.9 C 76 % 11.68 C
481 09-08-2006 08:10:02 16.4 C 73 % 11.55 C
482 09-08-2006 08:20:02 16.8 C 70 % 11.3 C
483 09-08-2006 08:30:02 17 C 68 % 11.06 C
484 09-08-2006 08:40:02 17.1 C 68 % 11.15 C
485 09-08-2006 08:50:02 17.4 C 67 % 11.21 C
486 09-08-2006 09:00:02 17.7 C 66 % 11.27 C
487 09-08-2006 09:10:02 17.6 C 63 % 10.48 C
488 09-08-2006 09:20:02 17.2 C 64 % 10.34 C
489 09-08-2006 09:30:02 17.5 C 65 % 10.85 C
490 09-08-2006 09:40:02 17.6 C 63 % 10.48 C
491 09-08-2006 09:50:02 17.7 C 63 % 10.57 C
492 09-08-2006 10:00:02 18.3 C 60 % 10.41 C
493 09-08-2006 10:10:02 19.1 C 56 % 10.12 C
494 09-08-2006 10:20:02 19.7 C 55 % 10.41 C
495 09-08-2006 10:30:02 18.7 C 53 % 8.93 C
496 09-08-2006 10:40:01 19.5 C 51 % 9.1 C
497 09-08-2006 10:50:02 19.8 C 50 % 9.09 C
498 09-08-2006 11:00:02 20.4 C 48 % 9.03 C
499 09-08-2006 11:10:02 20.5 C 48 % 9.12 C
500 09-08-2006 11:20:02 21.3 C 45 % 8.89 C
Sensor: Nr:Datum:Temp:Feuchte:Taupunkt:
Aussen-T/F 501 09-08-2006 11:30:02 21 C 41 % 7.26 C
502 09-08-2006 11:40:01 21.8 C 41 % 7.97 C
503 09-08-2006 11:50:02 21.4 C 40 % 7.25 C
504 09-08-2006 12:00:02 21.4 C 41 % 7.62 C
505 09-08-2006 12:10:02 22.1 C 39 % 7.51 C
506 09-08-2006 12:20:02 21.8 C 40 % 7.61 C
507 09-08-2006 12:30:02 21.8 C 40 % 7.61 C
508 09-08-2006 12:40:01 21.8 C 38 % 6.86 C
509 09-08-2006 12:50:02 22 C 39 % 7.42 C
510 09-08-2006 13:00:02 22 C 37 % 6.65 C
511 09-08-2006 13:10:02 22.1 C 37 % 6.74 C
512 09-08-2006 13:20:02 21.8 C 38 % 6.86 C
513 09-08-2006 13:30:02 22.1 C 37 % 6.74 C
514 09-08-2006 13:40:01 22.5 C 37 % 7.1 C
515 09-08-2006 13:50:02 23.6 C 33 % 6.4 C
516 09-08-2006 14:00:02 23.9 C 33 % 6.66 C
517 09-08-2006 14:10:02 24.6 C 33 % 7.27 C
518 09-08-2006 14:20:02 26.3 C 27 % 5.82 C
519 09-08-2006 14:30:02 27.4 C 25 % 5.65 C
520 09-08-2006 14:40:01 24.5 C 27 % 4.29 C
521 09-08-2006 14:50:02 23.4 C 30 % 4.85 C
522 09-08-2006 15:00:02 24.3 C 30 % 5.63 C
523 09-08-2006 15:10:02 26.4 C 27 % 5.91 C
524 09-08-2006 15:20:02 27.4 C 23 % 4.45 C
525 09-08-2006 15:30:02 25 C 25 % 3.62 C
Sensor: Nr:Datum:Temp:Feuchte:Taupunkt:
Aussen-T/F 526 09-08-2006 15:40:01 26 C 22 % 2.66 C
527 09-08-2006 15:50:02 26.9 C 22 % 3.4 C
528 09-08-2006 16:00:02 25.6 C 23 % 2.95 C
529 09-08-2006 16:10:02 25.9 C 21 % 1.92 C
530 09-08-2006 16:20:01 26 C 22 % 2.66 C
531 09-08-2006 16:30:01 27.8 C 21 % 3.49 C
532 09-08-2006 16:40:02 27.1 C 20 % 2.23 C
533 09-08-2006 16:50:02 25.1 C 21 % 1.26 C
534 09-08-2006 17:00:02 25 C 22 % 1.83 C
535 09-08-2006 17:10:02 24.5 C 22 % 1.41 C
536 09-08-2006 17:20:02 25.1 C 22 % 1.91 C
537 09-08-2006 17:30:02 24.9 C 22 % 1.74 C
538 09-08-2006 17:40:01 24.1 C 23 % 1.7 C
539 09-08-2006 17:50:02 23.8 C 25 % 2.61 C
540 09-08-2006 18:00:02 23.3 C 26 % 2.74 C
541 09-08-2006 18:10:02 23.1 C 28 % 3.61 C
542 09-08-2006 18:20:02 22.9 C 30 % 4.42 C
543 09-08-2006 18:30:02 22.5 C 31 % 4.54 C
544 09-08-2006 18:40:03 22.4 C 31 % 4.46 C
545 09-08-2006 18:50:03 22 C 33 % 5 C
546 09-08-2006 19:00:03 21.7 C 37 % 6.39 C
547 09-08-2006 19:10:03 21.2 C 41 % 7.44 C
548 09-08-2006 19:20:02 20.6 C 45 % 8.26 C
549 09-08-2006 19:30:02 20.6 C 46 % 8.58 C
550 09-08-2006 19:40:02 20.4 C 47 % 8.72 C
Sensor: Nr:Datum:Temp:Feuchte:Taupunkt:
Aussen-T/F 551 09-08-2006 19:50:02 19.4 C 55 % 10.13 C
552 09-08-2006 20:00:02 19 C 58 % 10.56 C
553 09-08-2006 20:10:02 18.8 C 63 % 11.61 C
554 09-08-2006 20:20:01 18.4 C 64 % 11.47 C
555 09-08-2006 20:30:01 17.7 C 69 % 11.95 C
556 09-08-2006 20:40:02 17.6 C 78 % 13.72 C
557 09-08-2006 20:50:02 17.2 C 81 % 13.91 C
558 09-08-2006 21:00:02 16.8 C 82 % 13.71 C
559 09-08-2006 21:10:02 17.1 C 82 % 14 C
560 09-08-2006 21:20:02 17.1 C 81 % 13.82 C
561 09-08-2006 21:30:02 16.9 C 81 % 13.62 C
562 09-08-2006 21:40:02 16.8 C 82 % 13.71 C
563 09-08-2006 21:50:02 16.5 C 83 % 13.6 C
564 09-08-2006 22:00:02 16.4 C 84 % 13.69 C
565 09-08-2006 22:10:03 16.3 C 85 % 13.77 C
566 09-08-2006 22:20:02 16 C 85 % 13.48 C
567 09-08-2006 22:30:02 16 C 86 % 13.66 C
568 09-08-2006 22:40:02 15.8 C 87 % 13.64 C
569 09-08-2006 22:50:02 15.4 C 88 % 13.42 C
570 09-08-2006 23:00:02 15.5 C 88 % 13.52 C
571 09-08-2006 23:10:02 15.4 C 89 % 13.6 C
572 09-08-2006 23:20:02 15.4 C 89 % 13.6 C
573 09-08-2006 23:30:02 15.4 C 89 % 13.6 C
574 09-08-2006 23:40:02 15.4 C 89 % 13.6 C
575 09-08-2006 23:50:02 15.5 C 90 % 13.87 C
Sensor: Nr:Datum:Temp:Feuchte:Taupunkt:
Aussen-T/F 576 10-08-2006 00:00:02 15.6 C 90 % 13.97 C
577 10-08-2006 00:10:02 15.7 C 90 % 14.06 C
578 10-08-2006 00:20:03 15.8 C 90 % 14.16 C
579 10-08-2006 00:30:03 15.6 C 90 % 13.97 C
580 10-08-2006 00:40:03 15.5 C 90 % 13.87 C
581 10-08-2006 00:50:02 15.4 C 90 % 13.77 C
582 10-08-2006 01:00:02 15.6 C 90 % 13.97 C
583 10-08-2006 01:10:03 15.7 C 90 % 14.06 C
584 10-08-2006 01:20:02 15.8 C 89 % 13.99 C
585 10-08-2006 01:30:02 15.8 C 89 % 13.99 C
586 10-08-2006 01:40:02 15.8 C 88 % 13.82 C
587 10-08-2006 01:50:02 15.6 C 88 % 13.62 C
588 10-08-2006 02:00:02 15.6 C 88 % 13.62 C
589 10-08-2006 02:10:02 15.6 C 88 % 13.62 C
590 10-08-2006 02:20:02 15.6 C 88 % 13.62 C
591 10-08-2006 02:30:02 15.5 C 88 % 13.52 C
592 10-08-2006 02:40:02 15.4 C 88 % 13.42 C
593 10-08-2006 02:51:04 15.4 C 88 % 13.42 C
594 10-08-2006 03:01:04 15.4 C 88 % 13.42 C
595 10-08-2006 03:11:04 15.5 C 88 % 13.52 C
596 10-08-2006 03:21:04 15.4 C 88 % 13.42 C
597 10-08-2006 03:31:03 15.1 C 86 % 12.78 C
598 10-08-2006 03:41:03 15 C 83 % 12.14 C
599 10-08-2006 03:51:03 14.9 C 84 % 12.22 C
600 10-08-2006 04:01:02 14.7 C 84 % 12.03 C
Sensor: Nr:Datum:Temp:Feuchte:Taupunkt:
Aussen-T/F 601 10-08-2006 04:11:02 14.4 C 84 % 11.73 C
602 10-08-2006 04:21:02 14.2 C 84 % 11.54 C
603 10-08-2006 04:31:02 13.8 C 85 % 11.32 C
604 10-08-2006 04:41:02 13.5 C 85 % 11.03 C
605 10-08-2006 04:51:02 13.4 C 85 % 10.93 C
606 10-08-2006 05:01:02 13.3 C 84 % 10.66 C
607 10-08-2006 05:11:02 13.1 C 84 % 10.46 C
608 10-08-2006 05:21:02 13 C 84 % 10.36 C
609 10-08-2006 05:31:02 12.7 C 85 % 10.25 C
610 10-08-2006 05:41:02 12.5 C 86 % 10.22 C
611 10-08-2006 05:51:02 12.3 C 86 % 10.03 C
612 10-08-2006 06:01:02 12.1 C 86 % 9.83 C
613 10-08-2006 06:11:02 12 C 86 % 9.73 C
614 10-08-2006 06:21:01 11.8 C 87 % 9.71 C
615 10-08-2006 06:31:01 11.7 C 88 % 9.78 C
616 10-08-2006 06:41:01 11.7 C 88 % 9.78 C
617 10-08-2006 06:51:02 11.7 C 88 % 9.78 C
618 10-08-2006 07:01:02 11.6 C 88 % 9.68 C
619 10-08-2006 07:11:02 11.6 C 88 % 9.68 C
620 10-08-2006 07:21:02 11.6 C 88 % 9.68 C
621 10-08-2006 07:31:01 11.7 C 88 % 9.78 C
622 10-08-2006 07:41:01 11.7 C 89 % 9.95 C
623 10-08-2006 07:51:02 11.8 C 89 % 10.05 C
624 10-08-2006 08:01:02 12 C 88 % 10.08 C
625 10-08-2006 08:11:03 12 C 88 % 10.08 C
Sensor: Nr:Datum:Temp:Feuchte:Taupunkt:
Aussen-T/F 626 10-08-2006 08:21:02 12.1 C 88 % 10.17 C
627 10-08-2006 08:31:03 12.3 C 89 % 10.54 C
628 10-08-2006 08:41:03 12.5 C 89 % 10.74 C
629 10-08-2006 08:51:03 12.6 C 88 % 10.67 C
630 10-08-2006 09:01:02 12.8 C 87 % 10.69 C
631 10-08-2006 09:11:02 13 C 86 % 10.72 C
632 10-08-2006 09:21:04 13.4 C 84 % 10.75 C
633 10-08-2006 09:31:05 13.7 C 81 % 10.5 C
634 10-08-2006 09:41:05 14.1 C 76 % 9.94 C
635 10-08-2006 09:51:08 14.8 C 72 % 9.81 C
636 10-08-2006 10:01:04 15.2 C 69 % 9.56 C
637 10-08-2006 10:11:04 15.8 C 64 % 9.01 C
638 10-08-2006 10:21:03 16 C 57 % 7.49 C
639 10-08-2006 10:31:04 16.4 C 57 % 7.87 C
640 10-08-2006 10:41:04 17.1 C 54 % 7.73 C
641 10-08-2006 10:51:02 17.5 C 54 % 8.1 C
642 10-08-2006 11:01:02 18 C 51 % 7.72 C
643 10-08-2006 11:11:02 18.6 C 48 % 7.39 C
644 10-08-2006 11:21:02 19.4 C 46 % 7.49 C
645 10-08-2006 11:31:01 18.5 C 44 % 6.03 C
646 10-08-2006 11:41:01 18.1 C 47 % 6.62 C
647 10-08-2006 11:51:02 18.2 C 45 % 6.08 C
648 10-08-2006 12:02:02 18.2 C 46 % 6.4 C
649 10-08-2006 12:12:02 18.4 C 46 % 6.58 C
650 10-08-2006 12:22:02 19.1 C 45 % 6.9 C
Sensor: Nr:Datum:Temp:Feuchte:Taupunkt:
Aussen-T/F 651 10-08-2006 12:32:02 19.2 C 43 % 6.33 C
652 10-08-2006 12:42:02 19.5 C 42 % 6.26 C
653 10-08-2006 12:52:02 19.4 C 42 % 6.17 C
654 10-08-2006 13:02:02 20.6 C 41 % 6.9 C
655 10-08-2006 13:12:02 21.2 C 38 % 6.33 C
656 10-08-2006 13:22:02 21.4 C 34 % 4.91 C
657 10-08-2006 13:32:02 20.7 C 35 % 4.7 C
658 10-08-2006 13:42:02 19.1 C 37 % 4.08 C
659 10-08-2006 13:52:02 18.9 C 39 % 4.66 C
660 10-08-2006 14:02:03 19.3 C 38 % 4.64 C
661 10-08-2006 14:12:03 19.7 C 38 % 5 C
662 10-08-2006 14:22:03 19.6 C 37 % 4.53 C
663 10-08-2006 14:32:03 19.6 C 38 % 4.91 C
664 10-08-2006 14:42:03 20 C 40 % 6 C
665 10-08-2006 14:52:03 20.5 C 38 % 5.71 C
666 10-08-2006 15:02:03 19.3 C 41 % 5.73 C
667 10-08-2006 15:12:03 19.2 C 42 % 5.99 C
668 10-08-2006 15:22:03 17.8 C 51 % 7.54 C
669 10-08-2006 15:32:03 17.4 C 53 % 7.73 C
670 10-08-2006 15:42:03 17.2 C 55 % 8.09 C
671 10-08-2006 15:52:03 15.3 C 65 % 8.77 C
672 10-08-2006 16:02:03 15.1 C 66 % 8.8 C
673 10-08-2006 16:12:03 15.4 C 64 % 8.63 C
674 10-08-2006 16:22:03 16.2 C 60 % 8.43 C
675 10-08-2006 16:32:03 17 C 55 % 7.9 C
Sensor: Nr:Datum:Temp:Feuchte:Taupunkt:
Aussen-T/F 676 10-08-2006 16:42:03 17.4 C 58 % 9.06 C
677 10-08-2006 16:52:04 16.9 C 58 % 8.59 C
678 10-08-2006 17:02:04 16.2 C 59 % 8.19 C
679 10-08-2006 17:12:04 15.9 C 61 % 8.4 C
680 10-08-2006 17:22:04 14.3 C 75 % 9.93 C
681 10-08-2006 17:32:04 13.4 C 84 % 10.75 C
682 10-08-2006 17:42:04 13.4 C 86 % 11.11 C
683 10-08-2006 17:52:04 13.7 C 88 % 11.75 C
684 10-08-2006 18:02:04 14 C 88 % 12.05 C
685 10-08-2006 18:12:04 13.9 C 89 % 12.12 C
686 10-08-2006 18:22:04 14 C 89 % 12.22 C
687 10-08-2006 18:32:04 13.9 C 89 % 12.12 C
688 10-08-2006 18:42:04 14 C 89 % 12.22 C
689 10-08-2006 18:52:04 14.1 C 89 % 12.32 C
690 10-08-2006 19:02:04 14.1 C 88 % 12.14 C
691 10-08-2006 19:12:04 13.9 C 87 % 11.77 C
692 10-08-2006 19:22:04 13.7 C 86 % 11.4 C
693 10-08-2006 19:32:04 13.6 C 87 % 11.48 C
694 10-08-2006 19:42:05 13.6 C 87 % 11.48 C
695 10-08-2006 19:52:05 13.7 C 88 % 11.75 C
696 10-08-2006 20:02:05 13.6 C 88 % 11.65 C
697 10-08-2006 20:12:05 13.6 C 88 % 11.65 C
698 10-08-2006 20:22:05 13.5 C 88 % 11.55 C
699 10-08-2006 20:32:05 13.4 C 88 % 11.45 C
700 10-08-2006 20:42:05 13.4 C 89 % 11.63 C
Sensor: Nr:Datum:Temp:Feuchte:Taupunkt:
Aussen-T/F 701 10-08-2006 20:52:05 13.4 C 89 % 11.63 C
702 10-08-2006 21:02:05 13.2 C 89 % 11.43 C
703 10-08-2006 21:12:05 13.2 C 89 % 11.43 C
704 10-08-2006 21:22:05 13.1 C 89 % 11.33 C
705 10-08-2006 21:32:05 13.1 C 89 % 11.33 C
706 10-08-2006 21:42:05 12.9 C 90 % 11.3 C
707 10-08-2006 21:52:05 13 C 89 % 11.23 C
708 10-08-2006 22:02:05 13.1 C 89 % 11.33 C
709 10-08-2006 22:12:05 13.1 C 88 % 11.16 C
710 10-08-2006 22:22:05 13.1 C 86 % 10.81 C
711 10-08-2006 22:32:06 13.1 C 86 % 10.81 C
712 10-08-2006 22:42:06 13.1 C 86 % 10.81 C
713 10-08-2006 22:52:06 13.1 C 86 % 10.81 C
714 10-08-2006 23:02:06 13.1 C 87 % 10.99 C
715 10-08-2006 23:12:06 13.1 C 87 % 10.99 C
716 10-08-2006 23:22:06 13.1 C 87 % 10.99 C
717 10-08-2006 23:32:06 13.1 C 87 % 10.99 C
718 10-08-2006 23:42:06 13.1 C 87 % 10.99 C
719 10-08-2006 23:52:06 13.1 C 87 % 10.99 C
720 11-08-2006 00:02:06 13.1 C 87 % 10.99 C
721 11-08-2006 00:12:06 13.1 C 87 % 10.99 C
722 11-08-2006 00:22:06 13.1 C 87 % 10.99 C
723 11-08-2006 00:32:06 13.1 C 86 % 10.81 C
724 11-08-2006 00:42:06 13.1 C 86 % 10.81 C
725 11-08-2006 00:52:06 13.1 C 85 % 10.64 C
Sensor: Nr:Datum:Temp:Feuchte:Taupunkt:
Aussen-T/F 726 11-08-2006 01:02:06 13.1 C 85 % 10.64 C
727 11-08-2006 01:12:06 13 C 85 % 10.54 C
728 11-08-2006 01:22:07 12.9 C 86 % 10.62 C
729 11-08-2006 01:32:07 12.9 C 86 % 10.62 C
730 11-08-2006 01:42:07 12.9 C 85 % 10.44 C
731 11-08-2006 01:52:07 12.8 C 85 % 10.34 C
732 11-08-2006 02:02:07 12.7 C 85 % 10.25 C
733 11-08-2006 02:12:07 12.6 C 85 % 10.15 C
734 11-08-2006 02:22:07 12.5 C 86 % 10.22 C
735 11-08-2006 02:32:07 12.4 C 87 % 10.3 C
736 11-08-2006 02:42:07 12.4 C 87 % 10.3 C
737 11-08-2006 02:52:07 12.3 C 87 % 10.2 C
738 11-08-2006 03:02:07 12.3 C 87 % 10.2 C
739 11-08-2006 03:12:07 12.3 C 86 % 10.03 C
740 11-08-2006 03:22:07 12.3 C 86 % 10.03 C
741 11-08-2006 03:32:07 12.3 C 86 % 10.03 C
742 11-08-2006 03:42:07 12.3 C 86 % 10.03 C
743 11-08-2006 03:52:07 12.3 C 86 % 10.03 C
744 11-08-2006 04:02:07 12.4 C 86 % 10.13 C
745 11-08-2006 04:12:08 12.4 C 86 % 10.13 C
746 11-08-2006 04:22:08 12.4 C 86 % 10.13 C
747 11-08-2006 04:32:08 12.4 C 87 % 10.3 C
748 11-08-2006 04:42:08 12.2 C 87 % 10.1 C
749 11-08-2006 04:52:08 12.1 C 88 % 10.17 C
750 11-08-2006 05:02:08 12 C 88 % 10.08 C
Sensor: Nr:Datum:Temp:Feuchte:Taupunkt:
Aussen-T/F 751 11-08-2006 05:12:08 12 C 89 % 10.25 C
752 11-08-2006 05:22:08 11.9 C 90 % 10.31 C
753 11-08-2006 05:32:08 11.9 C 91 % 10.48 C
754 11-08-2006 05:42:08 11.9 C 91 % 10.48 C
755 11-08-2006 05:52:08 11.9 C 92 % 10.64 C
756 11-08-2006 06:02:08 11.9 C 92 % 10.64 C
757 11-08-2006 06:12:08 11.8 C 92 % 10.54 C
758 11-08-2006 06:22:08 11.8 C 92 % 10.54 C
759 11-08-2006 06:32:08 11.9 C 92 % 10.64 C
760 11-08-2006 06:42:08 12 C 92 % 10.74 C
761 11-08-2006 06:52:08 12 C 92 % 10.74 C
762 11-08-2006 07:02:09 12 C 92 % 10.74 C
763 11-08-2006 07:12:09 12 C 92 % 10.74 C
764 11-08-2006 07:22:09 12.1 C 92 % 10.84 C
765 11-08-2006 07:32:09 12.4 C 92 % 11.14 C
766 11-08-2006 07:42:09 12.6 C 92 % 11.34 C
767 11-08-2006 07:52:09 13.1 C 90 % 11.5 C
768 11-08-2006 08:02:09 13.2 C 88 % 11.26 C
769 11-08-2006 08:12:09 13.3 C 87 % 11.18 C
770 11-08-2006 08:22:09 13.2 C 86 % 10.91 C
771 11-08-2006 08:32:09 13.1 C 87 % 10.99 C
772 11-08-2006 08:42:09 12.9 C 88 % 10.96 C
773 11-08-2006 08:52:09 12.8 C 88 % 10.86 C
774 11-08-2006 09:02:09 12.8 C 89 % 11.03 C
775 11-08-2006 09:12:09 12.9 C 89 % 11.13 C
Sensor: Nr:Datum:Temp:Feuchte:Taupunkt:
Aussen-T/F 776 11-08-2006 09:22:09 13.1 C 89 % 11.33 C
777 11-08-2006 09:32:09 13 C 89 % 11.23 C
778 11-08-2006 09:42:09 12.8 C 89 % 11.03 C
779 11-08-2006 09:52:10 13.1 C 89 % 11.33 C
780 11-08-2006 10:02:10 13 C 88 % 11.06 C
781 11-08-2006 10:12:10 13.2 C 87 % 11.09 C
782 11-08-2006 10:22:10 13.4 C 86 % 11.11 C
783 11-08-2006 10:32:10 14 C 81 % 10.79 C
784 11-08-2006 10:42:10 14.9 C 78 % 11.1 C
785 11-08-2006 10:52:10 15.6 C 72 % 10.57 C
786 11-08-2006 11:02:10 15.9 C 69 % 10.23 C
787 11-08-2006 11:12:10 16.1 C 67 % 9.98 C
788 11-08-2006 11:22:10 15.4 C 69 % 9.75 C
789 11-08-2006 11:32:10 15.2 C 74 % 10.6 C
790 11-08-2006 11:42:10 15 C 76 % 10.81 C
791 11-08-2006 11:52:10 15 C 74 % 10.41 C
792 11-08-2006 12:02:10 14.7 C 79 % 11.1 C
793 11-08-2006 12:12:10 14.8 C 78 % 11 C
794 11-08-2006 12:22:10 16.5 C 75 % 12.06 C
795 11-08-2006 12:32:10 17.7 C 66 % 11.27 C
796 11-08-2006 12:42:11 18.1 C 59 % 9.97 C
797 11-08-2006 12:52:11 18.4 C 59 % 10.25 C
798 11-08-2006 13:02:11 19.2 C 52 % 9.11 C
799 11-08-2006 13:12:11 19.2 C 54 % 9.67 C
800 11-08-2006 13:22:11 20.5 C 47 % 8.81 C
Sensor: Nr:Datum:Temp:Feuchte:Taupunkt:
Aussen-T/F 801 11-08-2006 13:32:11 21.2 C 39 % 6.71 C
802 11-08-2006 13:42:11 21.7 C 41 % 7.88 C
803 11-08-2006 13:52:01 21.2 C 41 % 7.44 C
804 11-08-2006 14:02:01 22.4 C 38 % 7.4 C
805 11-08-2006 14:12:01 21.7 C 37 % 6.39 C
806 11-08-2006 14:22:02 20.4 C 40 % 6.36 C
807 11-08-2006 14:32:03 20 C 43 % 7.05 C
808 11-08-2006 14:42:03 20.2 C 44 % 7.57 C
809 11-08-2006 14:52:02 21 C 42 % 7.61 C
810 11-08-2006 15:02:03 18.6 C 52 % 8.56 C
811 11-08-2006 15:12:04 18.7 C 57 % 10.02 C
812 11-08-2006 15:22:03 20.2 C 45 % 7.9 C
813 11-08-2006 15:32:03 21.9 C 40 % 7.7 C
814 11-08-2006 15:42:03 19.2 C 44 % 6.66 C
815 11-08-2006 15:52:04 17.1 C 51 % 6.89 C
816 11-08-2006 16:02:04 14.4 C 71 % 9.21 C
817 11-08-2006 16:12:04 13.5 C 77 % 9.55 C
818 11-08-2006 16:22:04 13.8 C 84 % 11.15 C
819 11-08-2006 16:32:04 14 C 86 % 11.7 C
820 11-08-2006 16:42:04 15.6 C 85 % 13.09 C
821 11-08-2006 16:52:02 15.6 C 72 % 10.57 C
822 11-08-2006 17:02:03 15.6 C 69 % 9.94 C
823 11-08-2006 17:12:03 15.8 C 67 % 9.69 C
824 11-08-2006 17:22:02 15.5 C 70 % 10.06 C
825 11-08-2006 17:32:02 14.8 C 75 % 10.42 C
Sensor: Nr:Datum:Temp:Feuchte:Taupunkt:
Aussen-T/F 826 11-08-2006 17:42:02 14.4 C 82 % 11.37 C
827 11-08-2006 17:52:01 14.2 C 84 % 11.54 C
828 11-08-2006 18:02:02 14.3 C 85 % 11.81 C
829 11-08-2006 18:12:02 14 C 86 % 11.7 C
830 11-08-2006 18:22:02 13.8 C 87 % 11.68 C
831 11-08-2006 18:32:02 13.7 C 88 % 11.75 C
832 11-08-2006 18:42:02 14.2 C 87 % 12.07 C
833 11-08-2006 18:52:02 14.5 C 86 % 12.19 C
834 11-08-2006 19:02:02 14.7 C 83 % 11.85 C
835 11-08-2006 19:12:02 14.7 C 82 % 11.66 C
836 11-08-2006 19:22:02 14.5 C 82 % 11.47 C
837 11-08-2006 19:32:02 14.1 C 83 % 11.26 C
838 11-08-2006 19:42:02 13.9 C 84 % 11.24 C
839 11-08-2006 19:52:02 13.6 C 84 % 10.95 C
840 11-08-2006 20:02:02 13.5 C 85 % 11.03 C
841 11-08-2006 20:12:02 13.5 C 85 % 11.03 C
842 11-08-2006 20:22:02 13.5 C 86 % 11.21 C
843 11-08-2006 20:32:02 13.3 C 86 % 11.01 C
844 11-08-2006 20:42:02 13.4 C 86 % 11.11 C
845 11-08-2006 20:52:02 13.2 C 86 % 10.91 C
846 11-08-2006 21:02:02 13 C 86 % 10.72 C
847 11-08-2006 21:12:02 12.8 C 87 % 10.69 C
848 11-08-2006 21:22:02 12.6 C 87 % 10.5 C
849 11-08-2006 21:32:02 12.6 C 88 % 10.67 C
850 11-08-2006 21:42:02 12.6 C 88 % 10.67 C
Sensor: Nr:Datum:Temp:Feuchte:Taupunkt:
Aussen-T/F 851 11-08-2006 21:52:02 12.6 C 88 % 10.67 C
852 11-08-2006 22:02:02 12.5 C 89 % 10.74 C
853 11-08-2006 22:12:02 12.5 C 89 % 10.74 C
854 11-08-2006 22:22:02 12.5 C 89 % 10.74 C
855 11-08-2006 22:32:02 12.5 C 89 % 10.74 C
856 11-08-2006 22:42:02 12.5 C 90 % 10.91 C
857 11-08-2006 22:52:02 12.7 C 90 % 11.1 C
858 11-08-2006 23:02:02 12.8 C 90 % 11.2 C
859 11-08-2006 23:12:02 12.8 C 89 % 11.03 C
860 11-08-2006 23:22:02 12.8 C 88 % 10.86 C
861 11-08-2006 23:32:02 12.9 C 87 % 10.79 C
862 11-08-2006 23:42:02 13.1 C 85 % 10.64 C
863 11-08-2006 23:52:02 13.1 C 84 % 10.46 C
864 12-08-2006 00:02:02 13.1 C 84 % 10.46 C
865 12-08-2006 00:12:03 12.9 C 85 % 10.44 C
866 12-08-2006 00:22:02 12.8 C 85 % 10.34 C
867 12-08-2006 00:32:02 12.8 C 85 % 10.34 C
868 12-08-2006 00:42:02 12.8 C 85 % 10.34 C
869 12-08-2006 00:52:02 12.8 C 85 % 10.34 C
870 12-08-2006 01:02:02 12.8 C 85 % 10.34 C
871 12-08-2006 01:12:03 12.8 C 85 % 10.34 C
872 12-08-2006 01:22:02 12.7 C 85 % 10.25 C
873 12-08-2006 01:32:02 12.6 C 85 % 10.15 C
874 12-08-2006 01:42:02 12.6 C 85 % 10.15 C
875 12-08-2006 01:52:03 12.6 C 85 % 10.15 C
Sensor: Nr:Datum:Temp:Feuchte:Taupunkt:
Aussen-T/F 876 12-08-2006 02:02:03 12.5 C 86 % 10.22 C
877 12-08-2006 02:12:03 12.3 C 86 % 10.03 C
878 12-08-2006 02:22:02 12.2 C 86 % 9.93 C
879 12-08-2006 02:32:02 12.1 C 87 % 10 C
880 12-08-2006 02:42:02 11.9 C 87 % 9.81 C
881 12-08-2006 02:53:03 11.8 C 88 % 9.88 C
882 12-08-2006 03:03:03 11.8 C 88 % 9.88 C
883 12-08-2006 03:13:03 11.9 C 88 % 9.98 C
884 12-08-2006 03:23:03 12 C 88 % 10.08 C
885 12-08-2006 03:33:03 11.9 C 89 % 10.15 C
886 12-08-2006 03:43:03 11.8 C 89 % 10.05 C
887 12-08-2006 03:53:03 11.8 C 88 % 9.88 C
888 12-08-2006 04:03:03 11.8 C 89 % 10.05 C
889 12-08-2006 04:13:03 11.8 C 89 % 10.05 C
890 12-08-2006 04:23:02 11.9 C 89 % 10.15 C
891 12-08-2006 04:33:03 12 C 88 % 10.08 C
892 12-08-2006 04:43:03 12 C 88 % 10.08 C
893 12-08-2006 04:53:02 12 C 88 % 10.08 C
894 12-08-2006 05:03:02 12 C 88 % 10.08 C
895 12-08-2006 05:13:02 12 C 87 % 9.91 C
896 12-08-2006 05:23:03 11.9 C 88 % 9.98 C
897 12-08-2006 05:33:03 11.9 C 88 % 9.98 C
898 12-08-2006 05:43:03 11.8 C 88 % 9.88 C
899 12-08-2006 05:53:02 11.8 C 88 % 9.88 C
900 12-08-2006 06:03:02 11.8 C 88 % 9.88 C
Sensor: Nr:Datum:Temp:Feuchte:Taupunkt:
Aussen-T/F 901 12-08-2006 06:13:02 11.8 C 87 % 9.71 C
902 12-08-2006 06:23:02 11.8 C 87 % 9.71 C
903 12-08-2006 06:33:01 11.8 C 86 % 9.54 C
904 12-08-2006 06:43:01 11.8 C 87 % 9.71 C
905 12-08-2006 06:53:02 11.8 C 87 % 9.71 C
906 12-08-2006 07:03:02 11.9 C 86 % 9.64 C
907 12-08-2006 07:13:02 12 C 85 % 9.56 C
908 12-08-2006 07:23:02 12.1 C 84 % 9.48 C
909 12-08-2006 07:33:01 12.2 C 83 % 9.4 C
910 12-08-2006 07:43:01 12.3 C 82 % 9.32 C
911 12-08-2006 07:53:02 12.4 C 82 % 9.42 C
912 12-08-2006 08:03:02 12.5 C 82 % 9.51 C
913 12-08-2006 08:13:02 12.6 C 82 % 9.61 C
914 12-08-2006 08:23:02 12.7 C 81 % 9.53 C
915 12-08-2006 08:33:01 12.8 C 81 % 9.62 C
916 12-08-2006 08:43:01 13.1 C 79 % 9.54 C
917 12-08-2006 08:53:02 13.3 C 78 % 9.55 C
918 12-08-2006 09:03:02 13.6 C 77 % 9.65 C
919 12-08-2006 09:13:02 13.8 C 74 % 9.25 C
920 12-08-2006 09:23:01 14 C 73 % 9.24 C
921 12-08-2006 09:33:02 13.9 C 73 % 9.15 C
922 12-08-2006 09:43:02 14 C 71 % 8.83 C
923 12-08-2006 09:53:02 14.1 C 70 % 8.72 C
924 12-08-2006 10:03:02 14.2 C 71 % 9.02 C
925 12-08-2006 10:13:02 14.3 C 70 % 8.91 C
Sensor: Nr:Datum:Temp:Feuchte:Taupunkt:
Aussen-T/F 926 12-08-2006 10:23:02 14.2 C 71 % 9.02 C
927 12-08-2006 10:33:01 14.4 C 69 % 8.79 C
928 12-08-2006 10:43:01 14.6 C 69 % 8.98 C
929 12-08-2006 10:53:02 14.8 C 69 % 9.17 C
930 12-08-2006 11:03:02 15.5 C 66 % 9.18 C
931 12-08-2006 11:13:02 16 C 56 % 7.24 C
932 12-08-2006 11:23:02 16.6 C 55 % 7.53 C
933 12-08-2006 11:33:02 17.2 C 52 % 7.27 C
934 12-08-2006 11:43:02 17.5 C 51 % 7.26 C
935 12-08-2006 11:53:02 16.8 C 53 % 7.18 C
936 12-08-2006 12:03:02 17 C 52 % 7.08 C
937 12-08-2006 12:13:02 16.7 C 56 % 7.89 C
938 12-08-2006 12:23:01 16.8 C 56 % 7.98 C
939 12-08-2006 12:33:01 16.8 C 54 % 7.45 C
940 12-08-2006 12:43:01 17.2 C 53 % 7.55 C
941 12-08-2006 12:53:02 17.5 C 49 % 6.68 C
942 12-08-2006 13:03:02 18 C 50 % 7.43 C
943 12-08-2006 13:13:02 18 C 49 % 7.14 C
944 12-08-2006 13:23:02 18.1 C 46 % 6.31 C
945 12-08-2006 13:33:02 18.9 C 44 % 6.39 C
946 12-08-2006 13:43:02 19.8 C 44 % 7.21 C
947 12-08-2006 13:53:01 20.5 C 41 % 6.81 C
948 12-08-2006 14:03:02 19.7 C 42 % 6.44 C
949 12-08-2006 14:13:02 20.2 C 39 % 5.82 C
950 12-08-2006 14:23:02 20.9 C 38 % 6.06 C
Sensor: Nr:Datum:Temp:Feuchte:Taupunkt:
Aussen-T/F 951 12-08-2006 14:33:02 20.1 C 40 % 6.09 C
952 12-08-2006 14:43:03 19.5 C 43 % 6.6 C
953 12-08-2006 14:53:02 18.7 C 44 % 6.21 C
954 12-08-2006 15:03:03 17.5 C 48 % 6.38 C
955 12-08-2006 15:13:03 17.3 C 48 % 6.2 C
956 12-08-2006 15:23:02 17.3 C 49 % 6.5 C
957 12-08-2006 15:33:02 17.8 C 49 % 6.95 C
958 12-08-2006 15:43:02 17.6 C 51 % 7.35 C
959 12-08-2006 15:53:02 18.4 C 52 % 8.38 C
960 12-08-2006 16:03:02 18.8 C 49 % 7.87 C
961 12-08-2006 16:13:02 19.1 C 49 % 8.15 C
962 12-08-2006 16:23:02 19.9 C 43 % 6.96 C
963 12-08-2006 16:33:02 20.8 C 40 % 6.72 C
964 12-08-2006 16:43:02 20.2 C 39 % 5.82 C
965 12-08-2006 16:53:03 20.2 C 39 % 5.82 C
966 12-08-2006 17:03:03 20.7 C 41 % 6.99 C
967 12-08-2006 17:13:03 21.2 C 38 % 6.33 C
968 12-08-2006 17:23:02 20.6 C 37 % 5.41 C
969 12-08-2006 17:33:02 20.3 C 39 % 5.9 C
970 12-08-2006 17:43:02 20 C 41 % 6.36 C
971 12-08-2006 17:53:01 19.4 C 42 % 6.17 C
972 12-08-2006 18:03:02 19 C 44 % 6.48 C
973 12-08-2006 18:13:02 18.6 C 45 % 6.45 C
974 12-08-2006 18:23:02 19 C 45 % 6.81 C
975 12-08-2006 18:33:02 19.1 C 47 % 7.53 C
Sensor: Nr:Datum:Temp:Feuchte:Taupunkt:
Aussen-T/F 976 12-08-2006 18:43:02 19.5 C 46 % 7.58 C
977 12-08-2006 18:53:02 19.3 C 46 % 7.4 C
978 12-08-2006 19:03:02 19 C 47 % 7.44 C
979 12-08-2006 19:13:02 18.4 C 50 % 7.8 C
980 12-08-2006 19:23:02 18.1 C 51 % 7.81 C
981 12-08-2006 19:33:03 18.2 C 54 % 8.75 C
982 12-08-2006 19:43:03 18.3 C 53 % 8.56 C
983 12-08-2006 19:53:02 18 C 55 % 8.83 C
984 12-08-2006 20:03:02 17.8 C 58 % 9.43 C
985 12-08-2006 20:13:03 17 C 60 % 9.19 C
986 12-08-2006 20:23:02 16.6 C 61 % 9.06 C
987 12-08-2006 20:33:02 15.7 C 57 % 7.21 C
988 12-08-2006 20:43:02 15.3 C 60 % 7.59 C
989 12-08-2006 20:53:02 15 C 62 % 7.79 C
990 12-08-2006 21:03:02 14.6 C 64 % 7.87 C
991 12-08-2006 21:13:02 14.5 C 64 % 7.78 C
992 12-08-2006 21:23:01 14.4 C 66 % 8.14 C
993 12-08-2006 21:33:01 14.2 C 67 % 8.17 C
994 12-08-2006 21:43:01 14.1 C 69 % 8.5 C
995 12-08-2006 21:53:02 13.8 C 71 % 8.64 C
996 12-08-2006 22:03:02 13.6 C 72 % 8.65 C
997 12-08-2006 22:13:02 13.4 C 74 % 8.87 C
998 12-08-2006 22:23:01 13.3 C 75 % 8.97 C
999 12-08-2006 22:33:02 13.2 C 74 % 8.67 C
1000 12-08-2006 22:43:02 13.2 C 75 % 8.87 C
Sensor: Nr:Datum:Temp:Feuchte:Taupunkt:
Aussen-T/F 1001 12-08-2006 22:53:02 13 C 76 % 8.87 C
1002 12-08-2006 23:03:02 12.8 C 77 % 8.87 C
1003 12-08-2006 23:13:02 12.5 C 78 % 8.77 C
1004 12-08-2006 23:23:01 12.3 C 78 % 8.58 C
1005 12-08-2006 23:33:02 12.2 C 77 % 8.29 C
1006 12-08-2006 23:43:02 12.1 C 77 % 8.2 C
1007 12-08-2006 23:53:02 11.9 C 78 % 8.19 C
1008 13-08-2006 00:03:02 11.7 C 78 % 8 C
1009 13-08-2006 00:13:02 11.7 C 79 % 8.18 C
1010 13-08-2006 00:23:02 11.7 C 81 % 8.55 C
1011 13-08-2006 00:33:02 11.7 C 81 % 8.55 C
1012 13-08-2006 00:43:02 11.6 C 82 % 8.64 C
1013 13-08-2006 00:53:03 11.6 C 81 % 8.45 C
1014 13-08-2006 01:03:03 11.6 C 81 % 8.45 C
1015 13-08-2006 01:13:03 11.5 C 81 % 8.36 C
1016 13-08-2006 01:23:02 11.3 C 81 % 8.16 C
1017 13-08-2006 01:33:03 11.2 C 82 % 8.25 C
1018 13-08-2006 01:43:03 11.1 C 83 % 8.33 C
1019 13-08-2006 01:53:03 11.1 C 83 % 8.33 C
1020 13-08-2006 02:03:03 11 C 84 % 8.4 C
1021 13-08-2006 02:13:03 10.8 C 85 % 8.38 C
1022 13-08-2006 02:23:02 10.8 C 85 % 8.38 C
1023 13-08-2006 02:33:02 10.7 C 86 % 8.46 C
1024 13-08-2006 02:43:02 10.6 C 86 % 8.36 C
1025 13-08-2006 02:54:03 10.5 C 86 % 8.26 C
Sensor: Nr:Datum:Temp:Feuchte:Taupunkt:
Aussen-T/F 1026 13-08-2006 03:04:03 10.4 C 86 % 8.16 C
1027 13-08-2006 03:14:03 10.4 C 87 % 8.33 C
1028 13-08-2006 03:24:03 10.3 C 87 % 8.23 C
1029 13-08-2006 03:34:03 10.3 C 88 % 8.4 C
1030 13-08-2006 03:44:03 10.2 C 88 % 8.3 C
1031 13-08-2006 03:54:03 10.2 C 88 % 8.3 C
1032 13-08-2006 04:04:02 10.3 C 88 % 8.4 C
1033 13-08-2006 04:14:02 10.8 C 90 % 9.23 C
1034 13-08-2006 04:24:03 11.1 C 89 % 9.36 C
1035 13-08-2006 04:34:02 11.3 C 89 % 9.55 C
1036 13-08-2006 04:44:02 11 C 88 % 9.09 C
1037 13-08-2006 04:54:03 10.9 C 89 % 9.16 C
1038 13-08-2006 05:04:03 10.7 C 88 % 8.8 C
1039 13-08-2006 05:14:03 10.7 C 88 % 8.8 C
1040 13-08-2006 05:24:03 10.7 C 89 % 8.96 C
1041 13-08-2006 05:34:03 10.7 C 88 % 8.8 C
1042 13-08-2006 05:44:03 10.7 C 89 % 8.96 C
1043 13-08-2006 05:54:03 10.7 C 89 % 8.96 C
1044 13-08-2006 06:04:02 10.7 C 89 % 8.96 C
1045 13-08-2006 06:14:02 10.6 C 88 % 8.7 C
1046 13-08-2006 06:24:02 10.5 C 88 % 8.6 C
1047 13-08-2006 06:34:02 10.6 C 89 % 8.86 C
1048 13-08-2006 06:44:02 10.7 C 88 % 8.8 C
1049 13-08-2006 06:54:01 10.8 C 89 % 9.06 C
1050 13-08-2006 07:04:01 11 C 88 % 9.09 C
Sensor: Nr:Datum:Temp:Feuchte:Taupunkt:
Aussen-T/F 1051 13-08-2006 07:14:01 11.3 C 89 % 9.55 C
1052 13-08-2006 07:24:01 11.5 C 89 % 9.75 C
1053 13-08-2006 07:34:02 11.7 C 89 % 9.95 C
1054 13-08-2006 07:44:02 11.9 C 88 % 9.98 C
1055 13-08-2006 07:54:03 12 C 87 % 9.91 C
1056 13-08-2006 08:04:02 12.4 C 87 % 10.3 C
1057 13-08-2006 08:14:02 12.7 C 85 % 10.25 C
1058 13-08-2006 08:24:02 13 C 84 % 10.36 C
1059 13-08-2006 08:34:02 13.2 C 83 % 10.38 C
1060 13-08-2006 08:44:02 13.3 C 82 % 10.3 C
1061 13-08-2006 08:54:02 13.5 C 79 % 9.93 C
1062 13-08-2006 09:04:01 13.6 C 78 % 9.84 C
1063 13-08-2006 09:14:01 13.8 C 77 % 9.84 C
1064 13-08-2006 09:24:01 13.8 C 77 % 9.84 C
1065 13-08-2006 09:34:01 13.7 C 76 % 9.55 C
1066 13-08-2006 09:44:01 13.8 C 76 % 9.65 C
1067 13-08-2006 09:54:02 13.8 C 76 % 9.65 C
1068 13-08-2006 10:04:01 14.1 C 75 % 9.74 C
1069 13-08-2006 10:14:01 14.4 C 74 % 9.83 C
1070 13-08-2006 10:24:01 14.8 C 73 % 10.01 C
1071 13-08-2006 10:34:02 15.4 C 69 % 9.75 C
1072 13-08-2006 10:44:02 15.7 C 69 % 10.03 C
1073 13-08-2006 10:54:02 16.4 C 66 % 10.04 C
1074 13-08-2006 11:04:03 17 C 61 % 9.43 C
1075 13-08-2006 11:14:03 17.5 C 61 % 9.9 C
Sensor: Nr:Datum:Temp:Feuchte:Taupunkt:
Aussen-T/F 1076 13-08-2006 11:24:03 17.3 C 60 % 9.47 C
1077 13-08-2006 11:34:03 17.4 C 61 % 9.81 C
1078 13-08-2006 11:44:03 17.6 C 60 % 9.75 C
1079 13-08-2006 11:54:02 18.4 C 55 % 9.2 C
1080 13-08-2006 12:04:02 18.7 C 56 % 9.75 C
1081 13-08-2006 12:14:03 18.5 C 54 % 9.03 C
1082 13-08-2006 12:24:02 18.5 C 55 % 9.3 C
1083 13-08-2006 12:34:02 18.5 C 55 % 9.3 C
1084 13-08-2006 12:44:02 18.7 C 53 % 8.93 C
1085 13-08-2006 12:54:03 19.3 C 50 % 8.63 C
1086 13-08-2006 13:04:03 20 C 47 % 8.35 C
1087 13-08-2006 13:14:03 19.7 C 46 % 7.77 C
1088 13-08-2006 13:24:02 19.4 C 48 % 8.12 C
1089 13-08-2006 13:34:02 19.6 C 48 % 8.3 C
1090 13-08-2006 13:44:02 19.6 C 49 % 8.6 C
1091 13-08-2006 13:54:02 20 C 48 % 8.67 C
1092 13-08-2006 14:04:02 19.6 C 47 % 7.99 C
1093 13-08-2006 14:14:02 18.1 C 57 % 9.46 C
1094 13-08-2006 14:24:02 16.1 C 71 % 10.84 C
1095 13-08-2006 14:34:02 15.1 C 76 % 10.9 C
1096 13-08-2006 14:44:02 15.2 C 81 % 11.96 C
1097 13-08-2006 14:54:02 15.7 C 82 % 12.64 C
1098 13-08-2006 15:04:02 16.6 C 78 % 12.75 C
1099 13-08-2006 15:14:02 17.6 C 69 % 11.85 C
1100 13-08-2006 15:24:02 18.1 C 60 % 10.22 C
Sensor: Nr:Datum:Temp:Feuchte:Taupunkt:
Aussen-T/F 1101 13-08-2006 15:34:02 19.1 C 58 % 10.65 C
1102 13-08-2006 15:44:02 18.9 C 57 % 10.2 C
1103 13-08-2006 15:54:02 19.6 C 56 % 10.59 C
1104 13-08-2006 16:04:01 19.9 C 54 % 10.32 C
1105 13-08-2006 16:14:01 19.4 C 55 % 10.13 C
1106 13-08-2006 16:24:01 19.8 C 54 % 10.23 C
1107 13-08-2006 16:34:02 21.7 C 42 % 8.24 C
1108 13-08-2006 16:44:02 22.8 C 38 % 7.75 C
1109 13-08-2006 16:54:02 24.2 C 36 % 8.2 C
1110 13-08-2006 17:04:02 24.2 C 33 % 6.92 C
1111 13-08-2006 17:14:02 23.9 C 34 % 7.1 C
1112 13-08-2006 17:24:02 24.4 C 31 % 6.19 C
1113 13-08-2006 17:34:02 23.6 C 36 % 7.67 C
1114 13-08-2006 17:44:02 22 C 39 % 7.42 C
1115 13-08-2006 17:54:01 20.1 C 47 % 8.45 C
1116 13-08-2006 18:04:01 19.3 C 52 % 9.21 C
1117 13-08-2006 18:14:01 16.4 C 68 % 10.48 C
1118 13-08-2006 18:24:02 15.5 C 74 % 10.89 C
1119 13-08-2006 18:34:02 15.7 C 76 % 11.48 C
1120 13-08-2006 18:44:02 15.8 C 73 % 10.97 C
1121 13-08-2006 18:54:02 16 C 72 % 10.96 C
1122 13-08-2006 19:04:02 16.2 C 71 % 10.94 C
1123 13-08-2006 19:14:02 16.3 C 69 % 10.61 C
1124 13-08-2006 19:24:02 16.3 C 69 % 10.61 C
1125 13-08-2006 19:34:03 16.5 C 70 % 11.01 C
Sensor: Nr:Datum:Temp:Feuchte:Taupunkt:
Aussen-T/F 1126 13-08-2006 19:44:03 16.4 C 69 % 10.7 C
1127 13-08-2006 19:54:01 16.5 C 70 % 11.01 C
1128 13-08-2006 20:04:01 16.6 C 71 % 11.32 C
1129 13-08-2006 20:14:01 16.4 C 73 % 11.55 C
1130 13-08-2006 20:24:01 15.7 C 76 % 11.48 C
1131 13-08-2006 20:34:02 15.2 C 77 % 11.2 C
1132 13-08-2006 20:44:02 14.5 C 77 % 10.52 C
1133 13-08-2006 20:54:02 14 C 77 % 10.04 C
1134 13-08-2006 21:04:02 13.9 C 79 % 10.32 C
1135 13-08-2006 21:14:02 13.6 C 78 % 9.84 C
1136 13-08-2006 21:24:02 13.5 C 78 % 9.74 C
1137 13-08-2006 21:34:03 13.4 C 78 % 9.65 C
1138 13-08-2006 21:44:03 13.2 C 78 % 9.45 C
1139 13-08-2006 21:54:02 13.1 C 79 % 9.54 C
1140 13-08-2006 22:04:02 13.1 C 81 % 9.92 C
1141 13-08-2006 22:14:02 13 C 81 % 9.82 C
1142 13-08-2006 22:24:02 12.8 C 81 % 9.62 C
1143 13-08-2006 22:34:02 12.8 C 82 % 9.81 C
1144 13-08-2006 22:44:02 12.5 C 83 % 9.69 C
1145 13-08-2006 22:54:01 12.4 C 83 % 9.6 C
1146 13-08-2006 23:04:01 12.3 C 83 % 9.5 C
1147 13-08-2006 23:14:01 12.2 C 83 % 9.4 C
1148 13-08-2006 23:24:01 12.1 C 83 % 9.3 C
1149 13-08-2006 23:34:02 12 C 84 % 9.38 C
1150 13-08-2006 23:44:02 12 C 86 % 9.73 C
Sensor: Nr:Datum:Temp:Feuchte:Taupunkt:
Aussen-T/F 1151 13-08-2006 23:54:02 12 C 88 % 10.08 C
1152 14-08-2006 00:04:02 12 C 89 % 10.25 C
1153 14-08-2006 00:14:02 11.8 C 90 % 10.21 C
1154 14-08-2006 00:24:03 11.8 C 90 % 10.21 C
1155 14-08-2006 00:34:02 11.7 C 90 % 10.12 C
1156 14-08-2006 00:44:02 11.5 C 89 % 9.75 C
1157 14-08-2006 00:54:03 11.4 C 89 % 9.65 C
1158 14-08-2006 01:04:03 11.3 C 89 % 9.55 C
1159 14-08-2006 01:14:03 11.2 C 89 % 9.46 C
1160 14-08-2006 01:24:03 11.1 C 89 % 9.36 C
1161 14-08-2006 01:34:02 11 C 88 % 9.09 C
1162 14-08-2006 01:44:02 11.1 C 89 % 9.36 C
1163 14-08-2006 01:54:02 11 C 89 % 9.26 C
1164 14-08-2006 02:04:02 10.8 C 90 % 9.23 C
1165 14-08-2006 02:14:02 10.7 C 90 % 9.13 C
1166 14-08-2006 02:24:02 10.7 C 90 % 9.13 C
1167 14-08-2006 02:34:01 10.6 C 90 % 9.03 C
1168 14-08-2006 02:44:01 10.5 C 90 % 8.93 C
1169 14-08-2006 02:55:03 10.4 C 90 % 8.83 C
1170 14-08-2006 03:05:03 10.5 C 90 % 8.93 C
1171 14-08-2006 03:15:04 10.5 C 90 % 8.93 C
1172 14-08-2006 03:25:04 10.3 C 90 % 8.73 C
1173 14-08-2006 03:35:02 10.1 C 90 % 8.54 C
1174 14-08-2006 03:45:02 10.2 C 90 % 8.64 C
1175 14-08-2006 03:55:02 10.3 C 91 % 8.9 C
Sensor: Nr:Datum:Temp:Feuchte:Taupunkt:
Aussen-T/F 1176 14-08-2006 04:05:02 10.1 C 92 % 8.86 C
1177 14-08-2006 04:15:02 10.2 C 92 % 8.96 C
1178 14-08-2006 04:25:02 10.2 C 92 % 8.96 C
1179 14-08-2006 04:35:03 10.2 C 92 % 8.96 C
1180 14-08-2006 04:45:02 10.2 C 92 % 8.96 C
1181 14-08-2006 04:55:02 10.2 C 92 % 8.96 C
1182 14-08-2006 05:05:03 10.1 C 92 % 8.86 C
1183 14-08-2006 05:15:03 10.2 C 93 % 9.12 C
1184 14-08-2006 05:25:03 10.2 C 93 % 9.12 C
1185 14-08-2006 05:35:02 10.1 C 92 % 8.86 C
1186 14-08-2006 05:45:02 10 C 92 % 8.76 C
1187 14-08-2006 05:55:02 10 C 92 % 8.76 C
1188 14-08-2006 06:05:02 10.1 C 92 % 8.86 C
1189 14-08-2006 06:15:01 10.2 C 92 % 8.96 C
1190 14-08-2006 06:25:01 10.2 C 92 % 8.96 C
1191 14-08-2006 06:35:01 10.1 C 92 % 8.86 C
1192 14-08-2006 06:45:02 10.3 C 92 % 9.06 C
1193 14-08-2006 06:55:02 10.6 C 93 % 9.52 C
1194 14-08-2006 07:05:02 10.9 C 93 % 9.81 C
1195 14-08-2006 07:15:01 11.1 C 92 % 9.85 C
1196 14-08-2006 07:25:01 11.2 C 92 % 9.95 C
1197 14-08-2006 07:35:02 11.3 C 93 % 10.21 C
1198 14-08-2006 07:45:02 11.5 C 92 % 10.25 C
1199 14-08-2006 07:55:02 11.7 C 91 % 10.28 C
1200 14-08-2006 08:05:02 11.8 C 91 % 10.38 C
Sensor: Nr:Datum:Temp:Feuchte:Taupunkt:
Aussen-T/F 1201 14-08-2006 08:15:02 12 C 89 % 10.25 C
1202 14-08-2006 08:25:02 12 C 88 % 10.08 C
1203 14-08-2006 08:35:02 11.8 C 87 % 9.71 C
1204 14-08-2006 08:45:02 12 C 86 % 9.73 C
1205 14-08-2006 08:55:02 12.3 C 86 % 10.03 C
1206 14-08-2006 09:05:02 12.6 C 84 % 9.97 C
1207 14-08-2006 09:15:02 12.4 C 84 % 9.78 C
1208 14-08-2006 09:25:02 12.7 C 85 % 10.25 C
1209 14-08-2006 09:35:02 13 C 84 % 10.36 C
1210 14-08-2006 09:45:02 13.4 C 83 % 10.57 C
1211 14-08-2006 09:55:02 13.9 C 81 % 10.7 C
1212 14-08-2006 10:05:02 14.3 C 80 % 10.9 C
1213 14-08-2006 10:15:02 14.9 C 78 % 11.1 C
1214 14-08-2006 10:25:02 15.7 C 73 % 10.88 C
1215 14-08-2006 10:35:02 16.2 C 71 % 10.94 C
1216 14-08-2006 10:45:02 16.4 C 68 % 10.48 C
1217 14-08-2006 10:55:02 16.4 C 67 % 10.26 C
1218 14-08-2006 11:05:02 16.3 C 67 % 10.17 C
1219 14-08-2006 11:15:02 16.8 C 65 % 10.19 C
1220 14-08-2006 11:25:02 17.9 C 59 % 9.78 C
1221 14-08-2006 11:35:02 17.9 C 57 % 9.27 C
1222 14-08-2006 11:45:03 18.7 C 54 % 9.21 C
1223 14-08-2006 11:55:03 19 C 52 % 8.93 C
1224 14-08-2006 12:05:02 19.9 C 50 % 9.18 C
1225 14-08-2006 12:15:02 20 C 48 % 8.67 C
Sensor: Nr:Datum:Temp:Feuchte:Taupunkt:
Aussen-T/F 1226 14-08-2006 12:25:02 19.8 C 49 % 8.79 C
1227 14-08-2006 12:35:02 19.6 C 50 % 8.9 C
1228 14-08-2006 12:45:02 19.1 C 52 % 9.02 C
1229 14-08-2006 12:55:02 19 C 52 % 8.93 C
1230 14-08-2006 13:05:01 19.4 C 52 % 9.3 C
1231 14-08-2006 13:15:01 20 C 48 % 8.67 C
1232 14-08-2006 13:25:01 21 C 45 % 8.62 C
1233 14-08-2006 13:35:01 20.2 C 46 % 8.22 C
1234 14-08-2006 13:45:02 18.4 C 57 % 9.74 C
1235 14-08-2006 13:55:02 17 C 73 % 12.13 C
1236 14-08-2006 14:05:01 16.5 C 83 % 13.6 C
1237 14-08-2006 14:15:01 15.9 C 84 % 13.2 C
1238 14-08-2006 14:25:01 16.4 C 86 % 14.05 C
1239 14-08-2006 14:35:01 16.7 C 87 % 14.53 C
1240 14-08-2006 14:45:02 16.9 C 88 % 14.9 C
1241 14-08-2006 14:55:02 16.9 C 88 % 14.9 C
1242 14-08-2006 15:05:01 17.2 C 86 % 14.84 C
1243 14-08-2006 15:15:01 17.5 C 83 % 14.58 C
1244 14-08-2006 15:25:01 18.6 C 78 % 14.69 C
1245 14-08-2006 15:35:02 18.4 C 68 % 12.39 C
1246 14-08-2006 15:45:02 18.6 C 72 % 13.46 C
1247 14-08-2006 15:55:02 18.7 C 64 % 11.76 C
1248 14-08-2006 16:05:02 18.8 C 68 % 12.77 C
1249 14-08-2006 16:15:02 19.1 C 67 % 12.83 C
1250 14-08-2006 16:25:02 20.1 C 62 % 12.6 C
Sensor: Nr:Datum:Temp:Feuchte:Taupunkt:
Aussen-T/F 1251 14-08-2006 16:35:02 20.3 C 62 % 12.79 C
1252 14-08-2006 16:45:01 19.8 C 59 % 11.56 C
1253 14-08-2006 16:55:01 19.5 C 57 % 10.76 C
1254 14-08-2006 17:05:02 18.7 C 45 % 6.54 C
1255 14-08-2006 17:15:02 18.4 C 45 % 6.26 C
1256 14-08-2006 17:25:02 17.9 C 47 % 6.44 C
1257 14-08-2006 17:35:02 17.6 C 53 % 7.92 C
1258 14-08-2006 17:45:02 17.6 C 52 % 7.64 C
1259 14-08-2006 17:55:02 17.8 C 53 % 8.1 C
1260 14-08-2006 18:05:03 18.1 C 53 % 8.38 C
1261 14-08-2006 18:15:02 17.7 C 57 % 9.08 C
1262 14-08-2006 18:25:02 17 C 66 % 10.61 C
1263 14-08-2006 18:35:02 16 C 72 % 10.96 C
1264 14-08-2006 18:45:02 15.8 C 75 % 11.38 C
1265 14-08-2006 18:55:02 15.5 C 80 % 12.07 C
1266 14-08-2006 19:05:02 15.3 C 79 % 11.68 C
1267 14-08-2006 19:15:02 15.1 C 79 % 11.49 C
1268 14-08-2006 19:25:02 14.8 C 81 % 11.57 C
1269 14-08-2006 19:35:02 14.6 C 82 % 11.56 C
1270 14-08-2006 19:45:02 14.5 C 82 % 11.47 C
1271 14-08-2006 19:55:02 14.2 C 83 % 11.36 C
1272 14-08-2006 20:05:02 14 C 83 % 11.16 C
1273 14-08-2006 20:15:02 13.7 C 84 % 11.05 C
1274 14-08-2006 20:25:02 13.4 C 85 % 10.93 C
1275 14-08-2006 20:35:02 13.3 C 87 % 11.18 C
Sensor: Nr:Datum:Temp:Feuchte:Taupunkt:
Aussen-T/F 1276 14-08-2006 20:45:02 13.2 C 87 % 11.09 C
1277 14-08-2006 20:55:02 13.2 C 88 % 11.26 C
1278 14-08-2006 21:05:02 13.2 C 88 % 11.26 C
1279 14-08-2006 21:15:02 13.1 C 88 % 11.16 C
1280 14-08-2006 21:25:02 13.1 C 87 % 10.99 C
1281 14-08-2006 21:35:02 13.1 C 87 % 10.99 C
1282 14-08-2006 21:45:01 13.1 C 87 % 10.99 C
1283 14-08-2006 21:55:01 13.1 C 88 % 11.16 C
1284 14-08-2006 22:05:02 13.1 C 88 % 11.16 C
1285 14-08-2006 22:15:02 13.1 C 89 % 11.33 C
1286 14-08-2006 22:25:02 13.2 C 88 % 11.26 C
1287 14-08-2006 22:35:02 13.3 C 87 % 11.18 C
1288 14-08-2006 22:45:02 13.3 C 87 % 11.18 C
1289 14-08-2006 22:55:02 13.4 C 87 % 11.28 C
1290 14-08-2006 23:05:02 13.4 C 87 % 11.28 C
1291 14-08-2006 23:15:02 13.4 C 87 % 11.28 C
1292 14-08-2006 23:25:02 13.5 C 86 % 11.21 C
1293 14-08-2006 23:35:02 13.5 C 86 % 11.21 C
1294 14-08-2006 23:45:02 13.5 C 86 % 11.21 C
1295 14-08-2006 23:55:02 13.6 C 86 % 11.3 C
1296 15-08-2006 00:05:02 13.6 C 86 % 11.3 C
1297 15-08-2006 00:15:02 13.7 C 85 % 11.23 C
1298 15-08-2006 00:25:02 13.9 C 85 % 11.42 C
1299 15-08-2006 00:35:02 14 C 84 % 11.34 C
1300 15-08-2006 00:45:02 13.9 C 84 % 11.24 C
Sensor: Nr:Datum:Temp:Feuchte:Taupunkt:
Aussen-T/F 1301 15-08-2006 00:55:02 14 C 84 % 11.34 C
1302 15-08-2006 01:05:02 13.9 C 85 % 11.42 C
1303 15-08-2006 01:15:02 13.9 C 86 % 11.6 C
1304 15-08-2006 01:25:02 13.9 C 87 % 11.77 C
1305 15-08-2006 01:35:02 13.9 C 87 % 11.77 C
1306 15-08-2006 01:45:03 13.9 C 88 % 11.95 C
1307 15-08-2006 01:55:03 13.9 C 88 % 11.95 C
1308 15-08-2006 02:05:03 13.8 C 89 % 12.02 C
1309 15-08-2006 02:15:02 13.8 C 90 % 12.19 C
1310 15-08-2006 02:25:02 13.8 C 91 % 12.36 C
1311 15-08-2006 02:35:02 13.8 C 92 % 12.52 C
1312 15-08-2006 02:46:03 13.8 C 92 % 12.52 C
1313 15-08-2006 02:56:03 13.8 C 93 % 12.69 C
1314 15-08-2006 03:06:03 13.9 C 93 % 12.79 C
1315 15-08-2006 03:16:04 14 C 93 % 12.89 C
1316 15-08-2006 03:26:04 14 C 93 % 12.89 C
1317 15-08-2006 03:36:02 14.1 C 93 % 12.99 C
1318 15-08-2006 03:46:03 14.2 C 94 % 13.25 C
1319 15-08-2006 03:56:03 14.2 C 94 % 13.25 C
1320 15-08-2006 04:06:02 14.2 C 94 % 13.25 C
1321 15-08-2006 04:16:03 14.3 C 94 % 13.35 C
1322 15-08-2006 04:26:03 14.3 C 94 % 13.35 C
1323 15-08-2006 04:36:03 14.3 C 95 % 13.51 C
1324 15-08-2006 04:46:02 14.4 C 95 % 13.61 C
1325 15-08-2006 04:56:02 14.5 C 95 % 13.71 C
Sensor: Nr:Datum:Temp:Feuchte:Taupunkt:
Aussen-T/F 1326 15-08-2006 05:06:02 14.5 C 95 % 13.71 C
1327 15-08-2006 05:16:02 14.6 C 95 % 13.81 C
1328 15-08-2006 05:26:02 14.6 C 95 % 13.81 C
1329 15-08-2006 05:36:02 14.7 C 94 % 13.74 C
1330 15-08-2006 05:46:02 14.7 C 94 % 13.74 C
1331 15-08-2006 05:56:02 14.7 C 94 % 13.74 C
1332 15-08-2006 06:06:02 14.7 C 94 % 13.74 C
1333 15-08-2006 06:16:02 14.7 C 93 % 13.58 C
1334 15-08-2006 06:26:02 14.7 C 93 % 13.58 C
1335 15-08-2006 06:36:02 14.7 C 92 % 13.41 C
1336 15-08-2006 06:46:02 14.7 C 91 % 13.25 C
1337 15-08-2006 06:56:02 14.7 C 90 % 13.08 C
1338 15-08-2006 07:06:02 14.8 C 89 % 13.01 C
1339 15-08-2006 07:16:02 14.9 C 88 % 12.93 C
1340 15-08-2006 07:26:02 15 C 87 % 12.86 C
1341 15-08-2006 07:36:02 15 C 85 % 12.5 C
1342 15-08-2006 07:46:02 15 C 84 % 12.32 C
1343 15-08-2006 07:56:02 15 C 84 % 12.32 C
1344 15-08-2006 08:06:02 15 C 84 % 12.32 C
1345 15-08-2006 08:16:02 14.9 C 85 % 12.4 C
1346 15-08-2006 08:26:02 15 C 84 % 12.32 C
1347 15-08-2006 08:36:02 15 C 83 % 12.14 C
1348 15-08-2006 08:46:03 15 C 83 % 12.14 C
1349 15-08-2006 08:56:03 14.9 C 84 % 12.22 C
1350 15-08-2006 09:06:03 14.8 C 84 % 12.12 C
Sensor: Nr:Datum:Temp:Feuchte:Taupunkt:
Aussen-T/F 1351 15-08-2006 09:16:02 14.9 C 84 % 12.22 C
1352 15-08-2006 09:26:02 15 C 82 % 11.95 C
1353 15-08-2006 09:36:02 15 C 82 % 11.95 C
1354 15-08-2006 09:46:02 15 C 82 % 11.95 C
1355 15-08-2006 09:56:02 15.6 C 81 % 12.35 C
1356 15-08-2006 10:06:02 15.4 C 79 % 11.78 C
1357 15-08-2006 10:16:02 15.5 C 78 % 11.68 C
1358 15-08-2006 10:26:02 15.5 C 77 % 11.49 C
1359 15-08-2006 10:36:02 15.5 C 78 % 11.68 C
1360 15-08-2006 10:46:03 15.5 C 77 % 11.49 C
1361 15-08-2006 10:56:03 16.2 C 73 % 11.36 C
1362 15-08-2006 11:06:03 16.5 C 71 % 11.23 C
1363 15-08-2006 11:16:02 16.8 C 66 % 10.42 C
1364 15-08-2006 11:26:02 17.6 C 64 % 10.72 C
1365 15-08-2006 11:36:02 18 C 59 % 9.88 C
1366 15-08-2006 11:46:02 18.7 C 58 % 10.28 C
1367 15-08-2006 11:56:03 19.2 C 55 % 9.95 C
1368 15-08-2006 12:06:01 18.9 C 54 % 9.4 C
1369 15-08-2006 12:16:02 18.7 C 53 % 8.93 C
1370 15-08-2006 12:26:02 18.5 C 53 % 8.75 C
1371 15-08-2006 12:36:02 18.7 C 53 % 8.93 C
1372 15-08-2006 12:46:03 20.1 C 50 % 9.36 C
1373 15-08-2006 12:56:03 20.3 C 48 % 8.94 C
1374 15-08-2006 13:06:03 20.2 C 46 % 8.22 C
1375 15-08-2006 13:16:02 21 C 45 % 8.62 C
Sensor: Nr:Datum:Temp:Feuchte:Taupunkt:
Aussen-T/F 1376 15-08-2006 13:26:02 21.2 C 43 % 8.13 C
1377 15-08-2006 13:36:02 21.1 C 43 % 8.04 C
1378 15-08-2006 13:46:02 21 C 45 % 8.62 C
1379 15-08-2006 13:56:03 21.1 C 44 % 8.38 C
1380 15-08-2006 14:06:01 21.6 C 44 % 8.83 C
1381 15-08-2006 14:16:01 21.9 C 43 % 8.76 C
1382 15-08-2006 14:26:01 22.4 C 41 % 8.51 C
1383 15-08-2006 14:36:01 22.2 C 40 % 7.97 C
1384 15-08-2006 14:46:02 22.4 C 39 % 7.78 C
1385 15-08-2006 14:56:02 22.7 C 38 % 7.66 C
1386 15-08-2006 15:06:02 23 C 38 % 7.93 C
1387 15-08-2006 15:16:02 23.2 C 38 % 8.11 C
1388 15-08-2006 15:26:02 23.2 C 37 % 7.71 C
1389 15-08-2006 15:36:01 22.9 C 39 % 8.22 C
1390 15-08-2006 15:46:02 23 C 38 % 7.93 C
1391 15-08-2006 15:56:02 23.7 C 38 % 8.55 C
1392 15-08-2006 16:06:02 24 C 36 % 8.02 C
1393 15-08-2006 16:16:02 23.7 C 37 % 8.16 C
1394 15-08-2006 16:26:02 23.6 C 37 % 8.07 C
1395 15-08-2006 16:36:01 23.7 C 38 % 8.55 C
1396 15-08-2006 16:46:02 23.8 C 36 % 7.84 C
1397 15-08-2006 16:56:02 24.4 C 35 % 7.96 C
1398 15-08-2006 17:06:02 24.3 C 34 % 7.45 C
1399 15-08-2006 17:16:02 24.1 C 34 % 7.27 C
1400 15-08-2006 17:26:02 24.3 C 35 % 7.87 C
Sensor: Nr:Datum:Temp:Feuchte:Taupunkt:
Aussen-T/F 1401 15-08-2006 17:36:02 24.6 C 33 % 7.27 C
1402 15-08-2006 17:46:02 24.5 C 34 % 7.62 C
1403 15-08-2006 17:56:02 23.4 C 35 % 7.08 C
1404 15-08-2006 18:06:01 22.7 C 40 % 8.42 C
1405 15-08-2006 18:16:01 22.1 C 41 % 8.24 C
1406 15-08-2006 18:26:01 22.1 C 44 % 9.29 C
1407 15-08-2006 18:36:02 22.2 C 43 % 9.04 C
1408 15-08-2006 18:46:02 21.4 C 43 % 8.31 C
1409 15-08-2006 18:56:02 21.1 C 44 % 8.38 C
1410 15-08-2006 19:06:01 21.1 C 44 % 8.38 C
1411 15-08-2006 19:16:01 20.8 C 47 % 9.08 C
1412 15-08-2006 19:26:01 20.7 C 48 % 9.3 C
1413 15-08-2006 19:36:02 20.7 C 49 % 9.61 C
1414 15-08-2006 19:46:01 20.6 C 51 % 10.12 C
1415 15-08-2006 19:56:01 20.6 C 52 % 10.41 C
1416 15-08-2006 20:06:01 20.3 C 54 % 10.69 C
1417 15-08-2006 20:16:02 20 C 54 % 10.42 C
1418 15-08-2006 20:26:02 19.6 C 56 % 10.59 C
1419 15-08-2006 20:36:02 19.3 C 58 % 10.84 C
1420 15-08-2006 20:46:02 18.8 C 60 % 10.88 C
1421 15-08-2006 20:56:02 18.3 C 63 % 11.14 C
1422 15-08-2006 21:06:02 18 C 64 % 11.09 C
1423 15-08-2006 21:16:02 17.7 C 67 % 11.5 C
1424 15-08-2006 21:26:02 17.8 C 67 % 11.6 C
1425 15-08-2006 21:36:03 17.7 C 68 % 11.72 C
Sensor: Nr:Datum:Temp:Feuchte:Taupunkt:
Aussen-T/F 1426 15-08-2006 21:46:02 17.5 C 70 % 11.97 C
1427 15-08-2006 21:56:02 17.1 C 69 % 11.37 C
1428 15-08-2006 22:06:02 17 C 72 % 11.92 C
1429 15-08-2006 22:16:02 16.7 C 73 % 11.84 C
1430 15-08-2006 22:26:02 16.5 C 74 % 11.85 C
1431 15-08-2006 22:36:03 16.4 C 74 % 11.76 C
1432 15-08-2006 22:46:02 16.4 C 74 % 11.76 C
1433 15-08-2006 22:56:02 16.2 C 73 % 11.36 C
1434 15-08-2006 23:06:02 16 C 74 % 11.37 C
1435 15-08-2006 23:16:02 16 C 75 % 11.57 C
1436 15-08-2006 23:26:02 15.8 C 77 % 11.78 C
1437 15-08-2006 23:36:03 15.6 C 77 % 11.59 C
1438 15-08-2006 23:46:02 15.6 C 78 % 11.78 C
1439 15-08-2006 23:56:02 15.5 C 78 % 11.68 C
1440 16-08-2006 00:06:02 15.4 C 79 % 11.78 C
1441 16-08-2006 00:16:02 15.1 C 80 % 11.68 C
1442 16-08-2006 00:26:02 15.2 C 80 % 11.78 C
1443 16-08-2006 00:36:03 15 C 81 % 11.77 C
1444 16-08-2006 00:46:02 14.9 C 82 % 11.86 C
1445 16-08-2006 00:56:02 14.9 C 82 % 11.86 C
1446 16-08-2006 01:06:02 15 C 81 % 11.77 C
1447 16-08-2006 01:16:02 15 C 81 % 11.77 C
1448 16-08-2006 01:26:03 14.8 C 83 % 11.94 C
1449 16-08-2006 01:36:02 14.7 C 83 % 11.85 C
1450 16-08-2006 01:46:02 14.7 C 83 % 11.85 C
Sensor: Nr:Datum:Temp:Feuchte:Taupunkt:
Aussen-T/F 1451 16-08-2006 01:56:03 14.8 C 83 % 11.94 C
1452 16-08-2006 02:06:02 14.6 C 83 % 11.75 C
1453 16-08-2006 02:16:03 14.4 C 84 % 11.73 C
1454 16-08-2006 02:26:03 14.4 C 84 % 11.73 C
1455 16-08-2006 02:36:01 14.4 C 84 % 11.73 C
1456 16-08-2006 02:47:04 14.4 C 84 % 11.73 C
1457 16-08-2006 02:57:04 14.1 C 84 % 11.44 C
1458 16-08-2006 03:07:04 14 C 84 % 11.34 C
1459 16-08-2006 03:17:04 13.9 C 86 % 11.6 C
1460 16-08-2006 03:27:04 13.9 C 85 % 11.42 C
1461 16-08-2006 03:37:02 13.8 C 86 % 11.5 C
1462 16-08-2006 03:47:02 13.7 C 86 % 11.4 C
1463 16-08-2006 03:57:02 13.6 C 86 % 11.3 C
1464 16-08-2006 04:07:02 13.4 C 86 % 11.11 C
1465 16-08-2006 04:17:03 13.4 C 86 % 11.11 C
1466 16-08-2006 04:27:03 13.3 C 87 % 11.18 C
1467 16-08-2006 04:37:02 13.2 C 87 % 11.09 C
1468 16-08-2006 04:47:01 13.2 C 87 % 11.09 C
1469 16-08-2006 04:57:01 13.2 C 87 % 11.09 C
1470 16-08-2006 05:07:01 13.2 C 87 % 11.09 C
1471 16-08-2006 05:17:02 13.2 C 88 % 11.26 C
1472 16-08-2006 05:27:02 13.2 C 88 % 11.26 C
1473 16-08-2006 05:37:02 13.1 C 88 % 11.16 C
1474 16-08-2006 05:47:02 13 C 88 % 11.06 C
1475 16-08-2006 05:57:02 12.9 C 89 % 11.13 C
Sensor: Nr:Datum:Temp:Feuchte:Taupunkt:
Aussen-T/F 1476 16-08-2006 06:07:02 12.8 C 89 % 11.03 C
1477 16-08-2006 06:17:01 12.8 C 90 % 11.2 C
1478 16-08-2006 06:27:01 12.8 C 90 % 11.2 C
1479 16-08-2006 06:37:01 12.9 C 91 % 11.47 C
1480 16-08-2006 06:47:02 13 C 90 % 11.4 C
1481 16-08-2006 06:57:02 13 C 90 % 11.4 C
1482 16-08-2006 07:07:02 13 C 89 % 11.23 C
1483 16-08-2006 07:17:02 13.1 C 89 % 11.33 C
1484 16-08-2006 07:27:02 13.2 C 89 % 11.43 C
1485 16-08-2006 07:37:02 13.3 C 88 % 11.36 C
1486 16-08-2006 07:47:02 13.3 C 88 % 11.36 C
1487 16-08-2006 07:57:02 13.6 C 88 % 11.65 C
1488 16-08-2006 08:07:03 13.8 C 87 % 11.68 C
1489 16-08-2006 08:17:03 14.1 C 85 % 11.62 C
1490 16-08-2006 08:27:03 14.2 C 84 % 11.54 C
1491 16-08-2006 08:37:02 14.3 C 83 % 11.45 C
1492 16-08-2006 08:47:02 14.6 C 83 % 11.75 C
1493 16-08-2006 08:57:02 14.6 C 83 % 11.75 C
1494 16-08-2006 09:07:02 14.9 C 82 % 11.86 C
1495 16-08-2006 09:17:02 15 C 81 % 11.77 C
1496 16-08-2006 09:27:02 15.1 C 81 % 11.87 C
1497 16-08-2006 09:37:01 15.3 C 81 % 12.06 C
1498 16-08-2006 09:47:02 15.5 C 80 % 12.07 C
1499 16-08-2006 09:57:02 16.2 C 78 % 12.36 C
1500 16-08-2006 10:07:02 16.4 C 76 % 12.16 C
Sensor: Nr:Datum:Temp:Feuchte:Taupunkt:
Aussen-T/F 1501 16-08-2006 10:17:02 16.7 C 75 % 12.25 C
1502 16-08-2006 10:27:02 17.2 C 73 % 12.32 C
1503 16-08-2006 10:37:01 17.4 C 72 % 12.3 C
1504 16-08-2006 10:47:02 17.3 C 72 % 12.21 C
1505 16-08-2006 10:57:02 17.1 C 75 % 12.64 C
1506 16-08-2006 11:07:02 16.8 C 78 % 12.94 C
1507 16-08-2006 11:17:02 16.6 C 81 % 13.33 C
1508 16-08-2006 11:27:02 16.8 C 83 % 13.9 C
1509 16-08-2006 11:37:01 17.1 C 84 % 14.38 C
1510 16-08-2006 11:47:02 17.4 C 85 % 14.85 C
1511 16-08-2006 11:57:02 17.5 C 84 % 14.77 C
1512 16-08-2006 12:07:02 18 C 83 % 15.07 C
1513 16-08-2006 12:17:02 17.9 C 82 % 14.78 C
1514 16-08-2006 12:27:02 18 C 80 % 14.5 C
1515 16-08-2006 12:37:01 18.3 C 80 % 14.79 C
1516 16-08-2006 12:47:02 18.3 C 77 % 14.2 C
1517 16-08-2006 12:57:02 18.6 C 80 % 15.08 C
1518 16-08-2006 13:07:02 19.1 C 80 % 15.57 C
1519 16-08-2006 13:17:02 19.1 C 78 % 15.18 C
1520 16-08-2006 13:27:02 19.4 C 76 % 15.06 C
1521 16-08-2006 13:37:01 19.9 C 73 % 14.92 C
1522 16-08-2006 13:47:02 20.3 C 69 % 14.43 C
1523 16-08-2006 13:57:02 20.7 C 66 % 14.12 C
1524 16-08-2006 14:07:02 21.5 C 64 % 14.41 C
1525 16-08-2006 14:17:02 21.4 C 62 % 13.82 C
Sensor: Nr:Datum:Temp:Feuchte:Taupunkt:
Aussen-T/F 1526 16-08-2006 14:27:02 21.6 C 62 % 14.01 C
1527 16-08-2006 14:37:01 21.7 C 58 % 13.08 C
1528 16-08-2006 14:47:02 22.4 C 57 % 13.47 C
1529 16-08-2006 14:57:03 21.9 C 56 % 12.73 C
1530 16-08-2006 15:07:02 22.8 C 57 % 13.84 C
1531 16-08-2006 15:17:01 23.2 C 50 % 12.21 C
1532 16-08-2006 15:27:01 23.4 C 49 % 12.08 C
1533 16-08-2006 15:37:02 24.4 C 46 % 12.04 C
1534 16-08-2006 15:47:02 23.7 C 46 % 11.4 C
1535 16-08-2006 15:57:02 23.1 C 43 % 9.85 C
1536 16-08-2006 16:07:02 24.4 C 41 % 10.3 C
1537 16-08-2006 16:17:01 25.1 C 39 % 10.18 C
1538 16-08-2006 16:27:01 25.2 C 37 % 9.48 C
1539 16-08-2006 16:37:02 24.3 C 40 % 9.84 C
1540 16-08-2006 16:47:02 23.9 C 41 % 9.85 C
1541 16-08-2006 16:57:02 22.9 C 44 % 10.01 C
1542 16-08-2006 17:08:02 23.6 C 44 % 10.64 C
1543 16-08-2006 17:18:02 23.6 C 43 % 10.3 C
1544 16-08-2006 17:28:02 23.4 C 46 % 11.13 C
1545 16-08-2006 17:38:02 24.5 C 40 % 10.02 C
1546 16-08-2006 17:48:02 25.7 C 38 % 10.32 C
1547 16-08-2006 17:58:02 25.1 C 39 % 10.18 C
1548 16-08-2006 18:08:02 23.9 C 45 % 11.25 C
1549 16-08-2006 18:18:02 23.1 C 46 % 10.86 C
1550 16-08-2006 18:28:02 22.8 C 47 % 10.91 C
Sensor: Nr:Datum:Temp:Feuchte:Taupunkt:
Aussen-T/F 1551 16-08-2006 18:38:02 22.3 C 48 % 10.77 C
1552 16-08-2006 18:48:02 21.8 C 51 % 11.22 C
1553 16-08-2006 18:58:02 21.6 C 52 % 11.33 C
1554 16-08-2006 19:08:02 21.3 C 53 % 11.34 C
1555 16-08-2006 19:18:02 21.4 C 54 % 11.71 C
1556 16-08-2006 19:28:03 22 C 51 % 11.4 C
1557 16-08-2006 19:38:03 21.6 C 53 % 11.62 C
1558 16-08-2006 19:48:03 21.4 C 55 % 11.99 C
1559 16-08-2006 19:58:03 21.6 C 54 % 11.9 C
1560 16-08-2006 20:08:03 21.3 C 55 % 11.9 C
1561 16-08-2006 20:18:03 20.9 C 57 % 12.07 C
1562 16-08-2006 20:28:03 20.3 C 59 % 12.03 C
1563 16-08-2006 20:38:03 19.9 C 62 % 12.41 C
1564 16-08-2006 20:48:03 19.4 C 64 % 12.42 C
1565 16-08-2006 20:58:03 19.2 C 65 % 12.47 C
1566 16-08-2006 21:08:03 19 C 67 % 12.74 C
1567 16-08-2006 21:18:03 18.8 C 69 % 13 C
1568 16-08-2006 21:28:03 18.6 C 70 % 13.02 C
1569 16-08-2006 21:38:03 18.5 C 70 % 12.93 C
1570 16-08-2006 21:48:03 18.4 C 70 % 12.83 C
1571 16-08-2006 21:58:03 18.2 C 71 % 12.86 C
1572 16-08-2006 22:08:03 18.1 C 72 % 12.98 C
1573 16-08-2006 22:18:03 18 C 72 % 12.88 C
1574 16-08-2006 22:28:04 18 C 73 % 13.09 C
1575 16-08-2006 22:38:04 17.8 C 74 % 13.11 C
Sensor: Nr:Datum:Temp:Feuchte:Taupunkt:
Aussen-T/F 1576 16-08-2006 22:48:04 17.7 C 75 % 13.22 C
1577 16-08-2006 22:58:04 17.8 C 75 % 13.31 C
1578 16-08-2006 23:08:04 17.5 C 77 % 13.43 C
1579 16-08-2006 23:18:04 17.1 C 77 % 13.04 C
1580 16-08-2006 23:28:04 16.9 C 79 % 13.24 C
1581 16-08-2006 23:38:04 16.6 C 79 % 12.95 C
1582 16-08-2006 23:48:04 16.4 C 80 % 12.94 C
1583 16-08-2006 23:58:04 16.3 C 81 % 13.04 C
1584 17-08-2006 00:08:04 16.1 C 81 % 12.84 C
1585 17-08-2006 00:18:04 16.2 C 82 % 13.13 C
1586 17-08-2006 00:28:04 16.2 C 82 % 13.13 C
1587 17-08-2006 00:38:04 16.3 C 82 % 13.22 C
1588 17-08-2006 00:48:04 16.2 C 81 % 12.94 C
1589 17-08-2006 00:58:04 16 C 82 % 12.93 C
1590 17-08-2006 01:08:04 15.8 C 83 % 12.92 C
1591 17-08-2006 01:18:04 15.7 C 83 % 12.82 C
1592 17-08-2006 01:28:05 15.5 C 84 % 12.81 C
1593 17-08-2006 01:38:05 15.6 C 84 % 12.91 C
1594 17-08-2006 01:48:05 15.6 C 84 % 12.91 C
1595 17-08-2006 01:58:05 15.6 C 84 % 12.91 C
1596 17-08-2006 02:08:05 15.5 C 84 % 12.81 C
1597 17-08-2006 02:18:05 15.4 C 84 % 12.71 C
1598 17-08-2006 02:28:05 15.2 C 84 % 12.52 C
1599 17-08-2006 02:38:05 15.2 C 84 % 12.52 C
1600 17-08-2006 02:48:05 15.4 C 85 % 12.89 C
Sensor: Nr:Datum:Temp:Feuchte:Taupunkt:
Aussen-T/F 1601 17-08-2006 02:58:05 15.3 C 85 % 12.79 C
1602 17-08-2006 03:08:05 15.4 C 85 % 12.89 C
1603 17-08-2006 03:18:05 15.2 C 85 % 12.7 C
1604 17-08-2006 03:28:05 15.2 C 85 % 12.7 C
1605 17-08-2006 03:38:05 14.9 C 86 % 12.58 C
1606 17-08-2006 03:48:05 14.7 C 86 % 12.38 C
1607 17-08-2006 03:58:05 14.7 C 86 % 12.38 C
1608 17-08-2006 04:08:05 14.6 C 87 % 12.46 C
1609 17-08-2006 04:18:05 14.6 C 87 % 12.46 C
1610 17-08-2006 04:28:06 14.7 C 88 % 12.73 C
1611 17-08-2006 04:38:06 15 C 87 % 12.86 C
1612 17-08-2006 04:48:06 15.1 C 87 % 12.95 C
1613 17-08-2006 04:58:06 15.1 C 86 % 12.78 C
1614 17-08-2006 05:08:06 15 C 86 % 12.68 C
1615 17-08-2006 05:18:06 15 C 86 % 12.68 C
1616 17-08-2006 05:28:06 14.9 C 87 % 12.76 C
1617 17-08-2006 05:38:06 15 C 86 % 12.68 C
1618 17-08-2006 05:48:06 15 C 86 % 12.68 C
1619 17-08-2006 05:58:06 15 C 86 % 12.68 C
1620 17-08-2006 06:08:06 15 C 86 % 12.68 C
1621 17-08-2006 06:18:06 15.2 C 87 % 13.05 C
1622 17-08-2006 06:28:06 15.2 C 87 % 13.05 C
1623 17-08-2006 06:38:06 15 C 87 % 12.86 C
1624 17-08-2006 06:48:06 14.8 C 88 % 12.83 C
1625 17-08-2006 06:58:06 14.8 C 89 % 13.01 C
Sensor: Nr:Datum:Temp:Feuchte:Taupunkt:
Aussen-T/F 1626 17-08-2006 07:08:06 14.9 C 88 % 12.93 C
1627 17-08-2006 07:18:06 15 C 88 % 13.03 C
1628 17-08-2006 07:28:07 15.1 C 88 % 13.13 C
1629 17-08-2006 07:38:02 14.8 C 89 % 13.01 C
1630 17-08-2006 07:48:02 14.9 C 89 % 13.1 C
1631 17-08-2006 07:58:02 15.4 C 89 % 13.6 C
1632 17-08-2006 08:08:02 15.5 C 89 % 13.7 C
1633 17-08-2006 08:18:02 15.6 C 88 % 13.62 C
1634 17-08-2006 08:28:02 15.8 C 88 % 13.82 C
1635 17-08-2006 08:38:02 16.1 C 87 % 13.94 C
1636 17-08-2006 08:48:02 16.4 C 86 % 14.05 C
1637 17-08-2006 08:58:02 16.6 C 84 % 13.89 C
1638 17-08-2006 09:08:02 16.9 C 83 % 14 C
1639 17-08-2006 09:18:02 17.3 C 81 % 14.01 C
1640 17-08-2006 09:28:02 18 C 80 % 14.5 C
1641 17-08-2006 09:38:03 18.5 C 77 % 14.39 C
1642 17-08-2006 09:48:02 19 C 74 % 14.26 C
1643 17-08-2006 09:58:02 19.1 C 72 % 13.94 C
1644 17-08-2006 10:08:02 19.5 C 70 % 13.89 C
1645 17-08-2006 10:18:02 19.6 C 71 % 14.2 C
1646 17-08-2006 10:28:02 19.8 C 69 % 13.95 C
1647 17-08-2006 10:38:03 20.3 C 66 % 13.74 C
1648 17-08-2006 10:48:02 20.5 C 66 % 13.93 C
1649 17-08-2006 10:58:02 21 C 63 % 13.69 C
1650 17-08-2006 11:08:02 21.4 C 59 % 13.06 C
Sensor: Nr:Datum:Temp:Feuchte:Taupunkt:
Aussen-T/F 1651 17-08-2006 11:18:02 22.3 C 56 % 13.1 C
1652 17-08-2006 11:28:02 22.7 C 55 % 13.2 C
1653 17-08-2006 11:38:02 23.3 C 51 % 12.6 C
1654 17-08-2006 11:48:02 22.8 C 52 % 12.43 C
1655 17-08-2006 11:58:03 23.1 C 52 % 12.71 C
1656 17-08-2006 12:08:02 22.7 C 52 % 12.34 C
1657 17-08-2006 12:18:01 22.6 C 51 % 11.96 C
1658 17-08-2006 12:28:01 23.2 C 50 % 12.21 C
1659 17-08-2006 12:38:02 23.5 C 50 % 12.48 C
1660 17-08-2006 12:48:02 23.7 C 49 % 12.36 C
1661 17-08-2006 12:58:02 23.6 C 46 % 11.31 C
1662 17-08-2006 13:08:02 24 C 45 % 11.34 C
1663 17-08-2006 13:18:01 25.3 C 41 % 11.11 C
1664 17-08-2006 13:28:01 25.3 C 40 % 10.74 C
1665 17-08-2006 13:38:02 25.6 C 41 % 11.38 C
1666 17-08-2006 13:48:02 26.4 C 35 % 9.71 C
1667 17-08-2006 13:58:02 27 C 35 % 10.24 C
1668 17-08-2006 14:08:02 26.5 C 35 % 9.8 C
1669 17-08-2006 14:18:01 26.9 C 35 % 10.15 C
1670 17-08-2006 14:28:01 26.7 C 35 % 9.98 C
1671 17-08-2006 14:38:01 27 C 34 % 9.81 C
1672 17-08-2006 14:48:02 27.4 C 33 % 9.71 C
1673 17-08-2006 14:58:02 27.8 C 31 % 9.13 C
1674 17-08-2006 15:08:02 27.5 C 31 % 8.87 C
1675 17-08-2006 15:18:01 28.2 C 31 % 9.48 C
Sensor: Nr:Datum:Temp:Feuchte:Taupunkt:
Aussen-T/F 1676 17-08-2006 15:28:01 27.9 C 32 % 9.69 C
1677 17-08-2006 15:38:01 28.8 C 30 % 9.51 C
1678 17-08-2006 15:48:02 29.1 C 30 % 9.76 C
1679 17-08-2006 15:58:02 29.4 C 28 % 9 C
1680 17-08-2006 16:08:02 29.1 C 28 % 8.74 C
1681 17-08-2006 16:18:01 28.9 C 30 % 9.59 C
1682 17-08-2006 16:28:01 29 C 30 % 9.68 C
1683 17-08-2006 16:38:02 29.8 C 30 % 10.37 C
1684 17-08-2006 16:48:02 30.3 C 30 % 10.79 C
1685 17-08-2006 16:58:02 29.7 C 28 % 9.25 C
1686 17-08-2006 17:08:02 29.5 C 26 % 7.99 C
1687 17-08-2006 17:18:02 29.8 C 27 % 8.8 C
1688 17-08-2006 17:28:02 30.4 C 29 % 10.37 C
1689 17-08-2006 17:38:01 30.6 C 26 % 8.92 C
1690 17-08-2006 17:48:02 31 C 26 % 9.26 C
1691 17-08-2006 17:58:02 31 C 25 % 8.67 C
1692 17-08-2006 18:08:02 30.6 C 27 % 9.48 C
1693 17-08-2006 18:18:01 29.6 C 30 % 10.19 C
1694 17-08-2006 18:28:01 28.3 C 34 % 10.94 C
1695 17-08-2006 18:38:02 28.5 C 36 % 11.98 C
1696 17-08-2006 18:48:02 27.7 C 37 % 11.69 C
1697 17-08-2006 18:58:02 27.5 C 40 % 12.7 C
1698 17-08-2006 19:08:02 27.2 C 40 % 12.43 C
1699 17-08-2006 19:18:01 26.7 C 44 % 13.44 C
1700 17-08-2006 19:28:01 26.3 C 42 % 12.37 C
Sensor: Nr:Datum:Temp:Feuchte:Taupunkt:
Aussen-T/F 1701 17-08-2006 19:38:01 25.9 C 45 % 13.06 C
1702 17-08-2006 19:48:02 25.6 C 45 % 12.79 C
1703 17-08-2006 19:58:02 25.3 C 47 % 13.18 C
1704 17-08-2006 20:08:02 25 C 47 % 12.91 C
1705 17-08-2006 20:18:02 24.7 C 48 % 12.96 C
1706 17-08-2006 20:28:02 24.5 C 48 % 12.77 C
1707 17-08-2006 20:38:02 24.1 C 54 % 14.21 C
1708 17-08-2006 20:48:02 23.1 C 62 % 15.42 C
1709 17-08-2006 20:58:02 21.6 C 72 % 16.34 C
1710 17-08-2006 21:09:03 21.3 C 73 % 16.26 C
1711 17-08-2006 21:19:03 21 C 73 % 15.98 C
1712 17-08-2006 21:29:03 20.7 C 75 % 16.11 C
1713 17-08-2006 21:39:03 20.7 C 77 % 16.52 C
1714 17-08-2006 21:49:03 20.5 C 75 % 15.92 C
1715 17-08-2006 21:59:03 20.7 C 73 % 15.69 C
1716 17-08-2006 22:09:03 20.7 C 73 % 15.69 C
1717 17-08-2006 22:19:03 20.4 C 78 % 16.44 C
1718 17-08-2006 22:29:03 20.1 C 79 % 16.34 C
1719 17-08-2006 22:39:03 19.9 C 80 % 16.35 C
1720 17-08-2006 22:49:04 19.5 C 81 % 16.15 C
1721 17-08-2006 22:59:04 19.3 C 83 % 16.34 C
1722 17-08-2006 23:09:04 19.3 C 86 % 16.9 C
1723 17-08-2006 23:19:04 19.3 C 86 % 16.9 C
1724 17-08-2006 23:29:04 19.3 C 86 % 16.9 C
1725 17-08-2006 23:39:04 19.3 C 87 % 17.08 C
Sensor: Nr:Datum:Temp:Feuchte:Taupunkt:
Aussen-T/F 1726 17-08-2006 23:49:04 18.9 C 88 % 16.87 C
1727 17-08-2006 23:59:04 18.2 C 88 % 16.18 C
1728 18-08-2006 00:09:04 17.7 C 89 % 15.86 C
1729 18-08-2006 00:19:04 17.3 C 89 % 15.47 C
1730 18-08-2006 00:29:04 17.1 C 89 % 15.27 C
1731 18-08-2006 00:39:04 17 C 89 % 15.17 C
1732 18-08-2006 00:49:04 16.8 C 90 % 15.15 C
1733 18-08-2006 00:59:04 16.8 C 90 % 15.15 C
1734 18-08-2006 01:09:04 16.8 C 90 % 15.15 C
1735 18-08-2006 01:19:04 16.8 C 91 % 15.32 C
1736 18-08-2006 01:29:05 16.8 C 92 % 15.49 C
1737 18-08-2006 01:39:05 16.9 C 92 % 15.59 C
1738 18-08-2006 01:49:05 16.6 C 92 % 15.3 C
1739 18-08-2006 01:59:05 16.4 C 92 % 15.1 C
1740 18-08-2006 02:09:05 16.4 C 93 % 15.27 C
1741 18-08-2006 02:19:05 16.5 C 93 % 15.36 C
1742 18-08-2006 02:29:05 16.3 C 93 % 15.17 C
1743 18-08-2006 02:39:05 16.4 C 93 % 15.27 C
1744 18-08-2006 02:49:05 16.4 C 93 % 15.27 C
1745 18-08-2006 02:59:05 16.1 C 93 % 14.97 C
1746 18-08-2006 03:09:05 16 C 93 % 14.87 C
1747 18-08-2006 03:19:05 16 C 94 % 15.03 C
1748 18-08-2006 03:29:05 16.2 C 94 % 15.23 C
1749 18-08-2006 03:39:05 16.1 C 94 % 15.13 C
1750 18-08-2006 03:49:05 16.3 C 94 % 15.33 C
Sensor: Nr:Datum:Temp:Feuchte:Taupunkt:
Aussen-T/F 1751 18-08-2006 03:59:05 16.1 C 94 % 15.13 C
1752 18-08-2006 04:09:05 16 C 94 % 15.03 C
1753 18-08-2006 04:19:06 16.2 C 95 % 15.4 C
1754 18-08-2006 04:29:06 16.2 C 95 % 15.4 C
1755 18-08-2006 04:39:06 16.1 C 95 % 15.3 C
1756 18-08-2006 04:49:06 16.2 C 95 % 15.4 C
1757 18-08-2006 04:59:06 16.2 C 95 % 15.4 C
1758 18-08-2006 05:09:06 16.2 C 95 % 15.4 C
1759 18-08-2006 05:19:06 16.2 C 95 % 15.4 C
1760 18-08-2006 05:29:06 16.2 C 95 % 15.4 C
1761 18-08-2006 05:39:06 16.3 C 95 % 15.5 C
1762 18-08-2006 05:49:06 16.3 C 95 % 15.5 C
1763 18-08-2006 05:59:06 16.4 C 95 % 15.6 C
1764 18-08-2006 06:09:06 16.3 C 95 % 15.5 C
1765 18-08-2006 06:19:06 16.4 C 95 % 15.6 C
1766 18-08-2006 06:29:06 16.3 C 95 % 15.5 C
1767 18-08-2006 06:39:06 16.3 C 95 % 15.5 C
1768 18-08-2006 06:49:06 16.3 C 95 % 15.5 C
1769 18-08-2006 06:59:07 16.3 C 95 % 15.5 C
1770 18-08-2006 07:09:03 16.3 C 95 % 15.5 C
1771 18-08-2006 07:19:02 16.3 C 95 % 15.5 C
1772 18-08-2006 07:29:02 16.3 C 95 % 15.5 C
1773 18-08-2006 07:39:02 16.2 C 95 % 15.4 C
1774 18-08-2006 07:49:02 16.3 C 95 % 15.5 C
1775 18-08-2006 07:59:02 16.2 C 95 % 15.4 C
Sensor: Nr:Datum:Temp:Feuchte:Taupunkt:
Aussen-T/F 1776 18-08-2006 08:09:02 16.1 C 95 % 15.3 C
1777 18-08-2006 08:19:02 16.2 C 95 % 15.4 C
1778 18-08-2006 08:29:02 16.5 C 95 % 15.7 C
1779 18-08-2006 08:39:01 16.6 C 95 % 15.8 C
1780 18-08-2006 08:49:02 17.1 C 95 % 16.29 C
1781 18-08-2006 08:59:03 17 C 95 % 16.19 C
1782 18-08-2006 09:09:02 17.1 C 95 % 16.29 C
1783 18-08-2006 09:19:03 17.3 C 95 % 16.49 C
1784 18-08-2006 09:29:03 17.2 C 95 % 16.39 C
1785 18-08-2006 09:39:02 17.3 C 95 % 16.49 C
1786 18-08-2006 09:49:02 17.1 C 95 % 16.29 C
1787 18-08-2006 09:59:02 16.7 C 95 % 15.9 C
1788 18-08-2006 10:09:02 16.7 C 95 % 15.9 C
1789 18-08-2006 10:19:02 16.5 C 94 % 15.53 C
1790 18-08-2006 10:29:02 16.5 C 93 % 15.36 C
1791 18-08-2006 10:39:02 16.6 C 93 % 15.46 C
1792 18-08-2006 10:49:03 16.7 C 92 % 15.39 C
1793 18-08-2006 10:59:03 16.6 C 91 % 15.13 C
1794 18-08-2006 11:09:02 16.8 C 91 % 15.32 C
1795 18-08-2006 11:19:02 17.1 C 88 % 15.1 C
1796 18-08-2006 11:29:02 17.2 C 87 % 15.02 C
1797 18-08-2006 11:39:03 17.3 C 86 % 14.94 C
1798 18-08-2006 11:49:02 17.1 C 85 % 14.56 C
1799 18-08-2006 11:59:03 17.3 C 84 % 14.57 C
1800 18-08-2006 12:09:01 18.2 C 80 % 14.69 C
Sensor: Nr:Datum:Temp:Feuchte:Taupunkt:
Aussen-T/F 1801 18-08-2006 12:19:01 18.7 C 75 % 14.18 C
1802 18-08-2006 12:29:01 19 C 71 % 13.63 C
1803 18-08-2006 12:39:02 19.5 C 68 % 13.44 C
1804 18-08-2006 12:49:02 19.4 C 67 % 13.12 C
1805 18-08-2006 12:59:03 19.7 C 64 % 12.7 C
1806 18-08-2006 13:09:02 20.2 C 59 % 11.94 C
1807 18-08-2006 13:19:02 21.1 C 55 % 11.71 C
1808 18-08-2006 13:29:02 21.2 C 53 % 11.25 C
1809 18-08-2006 13:39:04 21.4 C 47 % 9.63 C
1810 18-08-2006 13:49:03 21.1 C 48 % 9.67 C
1811 18-08-2006 13:59:03 21.6 C 48 % 10.13 C
1812 18-08-2006 14:09:03 22.2 C 45 % 9.71 C
1813 18-08-2006 14:19:02 23 C 42 % 9.41 C
1814 18-08-2006 14:29:03 23.1 C 41 % 9.14 C
1815 18-08-2006 14:39:02 23.3 C 40 % 8.95 C
1816 18-08-2006 14:49:02 23.7 C 37 % 8.16 C
1817 18-08-2006 14:59:02 23.7 C 35 % 7.34 C
1818 18-08-2006 15:09:02 24 C 34 % 7.18 C
1819 18-08-2006 15:19:02 23.9 C 34 % 7.1 C
1820 18-08-2006 15:29:02 23.7 C 34 % 6.92 C
1821 18-08-2006 15:39:02 24.4 C 33 % 7.1 C
1822 18-08-2006 15:49:02 24.9 C 33 % 7.53 C
1823 18-08-2006 15:59:02 24.3 C 34 % 7.45 C
1824 18-08-2006 16:09:02 24.7 C 34 % 7.8 C
1825 18-08-2006 16:19:02 25 C 33 % 7.62 C
Sensor: Nr:Datum:Temp:Feuchte:Taupunkt:
Aussen-T/F 1826 18-08-2006 16:29:02 25.2 C 32 % 7.34 C
1827 18-08-2006 16:39:01 25 C 32 % 7.17 C
1828 18-08-2006 16:49:02 24.4 C 33 % 7.1 C
1829 18-08-2006 16:59:02 23.9 C 35 % 7.52 C
1830 18-08-2006 17:09:03 24.2 C 35 % 7.78 C
1831 18-08-2006 17:19:02 23.7 C 36 % 7.75 C
1832 18-08-2006 17:29:02 23.5 C 37 % 7.98 C
1833 18-08-2006 17:39:02 23.9 C 37 % 8.33 C
1834 18-08-2006 17:49:02 24.2 C 35 % 7.78 C
1835 18-08-2006 17:59:02 24.6 C 35 % 8.13 C
1836 18-08-2006 18:09:02 24.7 C 35 % 8.22 C
1837 18-08-2006 18:19:02 24.5 C 35 % 8.05 C
1838 18-08-2006 18:29:02 24.4 C 36 % 8.37 C
1839 18-08-2006 18:39:03 24.3 C 36 % 8.28 C
1840 18-08-2006 18:49:03 23.9 C 38 % 8.73 C
1841 18-08-2006 18:59:03 23.4 C 41 % 9.41 C
1842 18-08-2006 19:09:03 22.8 C 42 % 9.23 C
1843 18-08-2006 19:19:03 23.1 C 41 % 9.14 C
1844 18-08-2006 19:29:03 23.5 C 40 % 9.13 C
1845 18-08-2006 19:39:03 23.6 C 40 % 9.22 C
1846 18-08-2006 19:49:02 23.9 C 42 % 10.21 C
1847 18-08-2006 19:59:02 24.1 C 42 % 10.39 C
1848 18-08-2006 20:09:02 23.9 C 44 % 10.91 C
1849 18-08-2006 20:19:02 22.8 C 48 % 11.22 C
1850 18-08-2006 20:29:02 21.7 C 50 % 10.83 C
Sensor: Nr:Datum:Temp:Feuchte:Taupunkt:
Aussen-T/F 1851 18-08-2006 20:39:01 20.9 C 54 % 11.25 C
1852 18-08-2006 20:49:02 20.2 C 56 % 11.15 C
1853 18-08-2006 20:59:02 19.9 C 58 % 11.4 C
1854 18-08-2006 21:09:02 19.5 C 60 % 11.53 C
1855 18-08-2006 21:19:02 19.3 C 61 % 11.6 C
1856 18-08-2006 21:29:02 19 C 62 % 11.56 C
1857 18-08-2006 21:39:02 18.5 C 65 % 11.8 C
1858 18-08-2006 21:49:02 18.4 C 66 % 11.94 C
1859 18-08-2006 21:59:02 18.3 C 67 % 12.07 C
1860 18-08-2006 22:09:03 18.1 C 67 % 11.88 C
1861 18-08-2006 22:19:02 18.1 C 69 % 12.33 C
1862 18-08-2006 22:29:02 18 C 70 % 12.45 C
1863 18-08-2006 22:39:02 17.9 C 71 % 12.57 C
1864 18-08-2006 22:49:02 17.9 C 72 % 12.78 C
1865 18-08-2006 22:59:02 17.9 C 72 % 12.78 C
1866 18-08-2006 23:09:02 17.7 C 72 % 12.59 C
1867 18-08-2006 23:19:02 17.5 C 72 % 12.4 C
1868 18-08-2006 23:29:02 17.3 C 73 % 12.42 C
1869 18-08-2006 23:39:01 17.3 C 73 % 12.42 C
1870 18-08-2006 23:49:02 17.2 C 73 % 12.32 C
1871 18-08-2006 23:59:02 17.2 C 73 % 12.32 C
1872 19-08-2006 00:09:02 17.1 C 73 % 12.23 C
1873 19-08-2006 00:19:03 16.8 C 75 % 12.35 C
1874 19-08-2006 00:29:03 16.8 C 75 % 12.35 C
1875 19-08-2006 00:39:02 16.6 C 75 % 12.15 C
Sensor: Nr:Datum:Temp:Feuchte:Taupunkt:
Aussen-T/F 1876 19-08-2006 00:49:02 16.6 C 76 % 12.36 C
1877 19-08-2006 00:59:02 16.6 C 76 % 12.36 C
1878 19-08-2006 01:09:03 16.4 C 76 % 12.16 C
1879 19-08-2006 01:19:03 16.3 C 77 % 12.26 C
1880 19-08-2006 01:29:03 16.3 C 78 % 12.46 C
1881 19-08-2006 01:39:03 16.4 C 77 % 12.36 C
1882 19-08-2006 01:49:02 16.4 C 77 % 12.36 C
1883 19-08-2006 01:59:02 16.2 C 77 % 12.17 C
1884 19-08-2006 02:09:02 16.2 C 78 % 12.36 C
1885 19-08-2006 02:19:02 16 C 79 % 12.36 C
1886 19-08-2006 02:29:02 16 C 79 % 12.36 C
1887 19-08-2006 02:39:03 16 C 79 % 12.36 C
1888 19-08-2006 02:50:04 15.8 C 82 % 12.74 C
1889 19-08-2006 03:00:04 15.7 C 82 % 12.64 C
1890 19-08-2006 03:10:05 15.3 C 83 % 12.43 C
1891 19-08-2006 03:20:05 15.3 C 83 % 12.43 C
1892 19-08-2006 03:30:05 15.4 C 84 % 12.71 C
1893 19-08-2006 03:40:02 15.3 C 84 % 12.61 C
1894 19-08-2006 03:50:02 15.2 C 83 % 12.33 C
1895 19-08-2006 04:00:02 14.9 C 82 % 11.86 C
1896 19-08-2006 04:10:03 15 C 82 % 11.95 C
1897 19-08-2006 04:20:02 15.5 C 83 % 12.63 C
1898 19-08-2006 04:30:02 14.7 C 83 % 11.85 C
1899 19-08-2006 04:40:02 14.6 C 83 % 11.75 C
1900 19-08-2006 04:50:02 14.5 C 84 % 11.83 C
Sensor: Nr:Datum:Temp:Feuchte:Taupunkt:
Aussen-T/F 1901 19-08-2006 05:00:02 14.4 C 85 % 11.91 C
1902 19-08-2006 05:10:02 14.3 C 85 % 11.81 C
1903 19-08-2006 05:20:02 14.2 C 85 % 11.72 C
1904 19-08-2006 05:30:02 14.1 C 85 % 11.62 C
1905 19-08-2006 05:40:02 14 C 86 % 11.7 C
1906 19-08-2006 05:50:01 13.9 C 86 % 11.6 C
1907 19-08-2006 06:00:01 13.8 C 86 % 11.5 C
1908 19-08-2006 06:10:02 13.7 C 87 % 11.58 C
1909 19-08-2006 06:20:02 13.7 C 88 % 11.75 C
1910 19-08-2006 06:30:02 13.6 C 88 % 11.65 C
1911 19-08-2006 06:40:02 13.6 C 88 % 11.65 C
1912 19-08-2006 06:50:03 13.7 C 89 % 11.92 C
1913 19-08-2006 07:00:03 14 C 88 % 12.05 C
1914 19-08-2006 07:10:03 13.9 C 88 % 11.95 C
1915 19-08-2006 07:20:03 14.1 C 88 % 12.14 C
1916 19-08-2006 07:30:03 14.2 C 87 % 12.07 C
1917 19-08-2006 07:40:02 14.4 C 87 % 12.27 C
1918 19-08-2006 07:50:02 14.7 C 87 % 12.56 C
1919 19-08-2006 08:00:02 14.9 C 86 % 12.58 C
1920 19-08-2006 08:10:02 14.9 C 85 % 12.4 C
1921 19-08-2006 08:20:02 14.9 C 86 % 12.58 C
1922 19-08-2006 08:30:02 14.9 C 86 % 12.58 C
1923 19-08-2006 08:40:02 15.3 C 85 % 12.79 C
1924 19-08-2006 08:50:02 15.5 C 85 % 12.99 C
1925 19-08-2006 09:00:02 16.1 C 82 % 13.03 C
Sensor: Nr:Datum:Temp:Feuchte:Taupunkt:
Aussen-T/F 1926 19-08-2006 09:10:03 16.3 C 80 % 12.85 C
1927 19-08-2006 09:20:02 16.4 C 78 % 12.56 C
1928 19-08-2006 09:30:02 16.8 C 77 % 12.75 C
1929 19-08-2006 09:40:02 17.5 C 73 % 12.61 C
1930 19-08-2006 09:50:03 18.1 C 68 % 12.11 C
1931 19-08-2006 10:00:03 18.5 C 66 % 12.03 C
1932 19-08-2006 10:10:03 18.8 C 64 % 11.85 C
1933 19-08-2006 10:20:02 19.2 C 64 % 12.23 C
1934 19-08-2006 10:30:02 19.8 C 60 % 11.82 C
1935 19-08-2006 10:40:02 20.6 C 59 % 12.31 C
1936 19-08-2006 10:50:02 21.6 C 57 % 12.72 C
1937 19-08-2006 11:00:02 21.5 C 58 % 12.89 C
1938 19-08-2006 11:10:02 21.6 C 60 % 13.51 C
1939 19-08-2006 11:20:01 22.5 C 57 % 13.56 C
1940 19-08-2006 11:30:01 23.1 C 55 % 13.57 C
1941 19-08-2006 11:40:01 23.6 C 55 % 14.03 C
1942 19-08-2006 11:50:02 24 C 45 % 11.34 C
1943 19-08-2006 12:00:02 24.7 C 43 % 11.29 C
1944 19-08-2006 12:10:02 25.3 C 39 % 10.36 C
1945 19-08-2006 12:20:02 24.9 C 38 % 9.61 C
1946 19-08-2006 12:30:02 25.4 C 38 % 10.06 C
1947 19-08-2006 12:40:01 25.8 C 38 % 10.41 C
1948 19-08-2006 12:50:02 25.5 C 32 % 7.6 C
1949 19-08-2006 13:00:02 25.7 C 31 % 7.31 C
1950 19-08-2006 13:10:02 25.9 C 31 % 7.49 C
Sensor: Nr:Datum:Temp:Feuchte:Taupunkt:
Aussen-T/F 1951 19-08-2006 13:20:02 26.3 C 29 % 6.86 C
1952 19-08-2006 13:30:02 27.3 C 27 % 6.67 C
1953 19-08-2006 13:40:01 26.8 C 28 % 6.78 C
1954 19-08-2006 13:50:02 26.4 C 32 % 8.39 C
1955 19-08-2006 14:00:02 26.3 C 32 % 8.3 C
1956 19-08-2006 14:10:02 27.4 C 29 % 7.8 C
1957 19-08-2006 14:20:02 27.7 C 34 % 10.42 C
1958 19-08-2006 14:30:02 27.7 C 27 % 7.01 C
1959 19-08-2006 14:40:02 26.5 C 28 % 6.52 C
1960 19-08-2006 14:50:02 27.2 C 34 % 9.98 C
1961 19-08-2006 15:00:03 27.8 C 30 % 8.64 C
1962 19-08-2006 15:10:02 28.5 C 26 % 7.14 C
1963 19-08-2006 15:20:02 28.4 C 25 % 6.49 C
1964 19-08-2006 15:30:02 28.4 C 25 % 6.49 C
1965 19-08-2006 15:40:02 28.9 C 25 % 6.91 C
1966 19-08-2006 15:50:01 28.8 C 25 % 6.82 C
1967 19-08-2006 16:00:01 28.8 C 25 % 6.82 C
1968 19-08-2006 16:10:02 28.5 C 25 % 6.57 C
1969 19-08-2006 16:20:03 29.3 C 24 % 6.65 C
1970 19-08-2006 16:30:03 29.5 C 26 % 7.99 C
1971 19-08-2006 16:40:01 27.7 C 26 % 6.47 C
1972 19-08-2006 16:50:01 21.6 C 27 % 1.82 C
1973 19-08-2006 17:00:01 17.8 C 78 % 13.91 C
1974 19-08-2006 17:10:02 16.9 C 83 % 14 C
1975 19-08-2006 17:20:40 16.9 C 88 % 14.9 C
Sensor: Nr:Datum:Temp:Feuchte:Taupunkt:
Aussen-T/F 1976 19-08-2006 17:30:02 16.9 C 89 % 15.08 C
1977 19-08-2006 17:40:02 17.1 C 90 % 15.45 C
1978 19-08-2006 17:50:07 17.4 C 89 % 15.57 C
1979 19-08-2006 18:00:03 17.1 C 89 % 15.27 C
1980 19-08-2006 18:10:03 16.9 C 90 % 15.25 C
1981 19-08-2006 18:20:02 16.9 C 91 % 15.42 C
1982 19-08-2006 18:30:02 17 C 91 % 15.52 C
1983 19-08-2006 18:40:02 17.4 C 91 % 15.92 C
1984 19-08-2006 18:50:02 18 C 91 % 16.51 C
1985 19-08-2006 19:00:02 18.6 C 91 % 17.1 C
1986 19-08-2006 19:10:02 18.7 C 91 % 17.2 C
1987 19-08-2006 19:20:02 18.1 C 89 % 16.26 C
1988 19-08-2006 19:30:02 18.1 C 89 % 16.26 C
1989 19-08-2006 19:40:02 18 C 88 % 15.98 C
1990 19-08-2006 19:50:02 17.9 C 89 % 16.06 C
1991 19-08-2006 20:00:03 18.4 C 89 % 16.55 C
1992 19-08-2006 20:10:02 18.8 C 88 % 16.77 C
1993 19-08-2006 20:20:02 18.6 C 87 % 16.39 C
1994 19-08-2006 20:30:02 18.3 C 87 % 16.1 C
1995 19-08-2006 20:40:03 17.8 C 86 % 15.43 C
1996 19-08-2006 20:50:02 17.5 C 85 % 14.95 C
1997 19-08-2006 21:00:02 17.1 C 86 % 14.74 C
1998 19-08-2006 21:10:02 16.9 C 87 % 14.72 C
1999 19-08-2006 21:20:02 16.7 C 88 % 14.7 C
2000 19-08-2006 21:30:02 16.6 C 89 % 14.78 C
Sensor: Nr:Datum:Temp:Feuchte:Taupunkt:
Aussen-T/F 2001 19-08-2006 21:40:03 16.4 C 89 % 14.58 C
2002 19-08-2006 21:50:02 16.2 C 89 % 14.39 C
2003 19-08-2006 22:00:02 16.1 C 89 % 14.29 C
2004 19-08-2006 22:10:02 15.9 C 90 % 14.26 C
2005 19-08-2006 22:20:02 16 C 90 % 14.36 C
2006 19-08-2006 22:30:02 16 C 91 % 14.53 C
2007 19-08-2006 22:40:02 16 C 91 % 14.53 C
2008 19-08-2006 22:50:02 16.1 C 91 % 14.63 C
2009 19-08-2006 23:00:02 16 C 91 % 14.53 C
2010 19-08-2006 23:10:02 16 C 91 % 14.53 C
2011 19-08-2006 23:20:02 16 C 91 % 14.53 C
2012 19-08-2006 23:30:02 16.1 C 91 % 14.63 C
2013 19-08-2006 23:40:02 15.9 C 92 % 14.6 C
2014 19-08-2006 23:51:02 15.9 C 92 % 14.6 C
2015 20-08-2006 00:01:02 15.8 C 92 % 14.5 C
2016 20-08-2006 00:11:02 15.7 C 92 % 14.4 C
2017 20-08-2006 00:21:02 15.5 C 92 % 14.21 C
2018 20-08-2006 00:31:02 15.5 C 92 % 14.21 C
2019 20-08-2006 00:41:03 15.4 C 92 % 14.11 C
2020 20-08-2006 00:51:03 15.5 C 92 % 14.21 C
2021 20-08-2006 01:01:03 15.3 C 92 % 14.01 C
2022 20-08-2006 01:11:03 15.5 C 92 % 14.21 C
2023 20-08-2006 01:21:03 15.4 C 92 % 14.11 C
2024 20-08-2006 01:31:03 15.5 C 92 % 14.21 C
2025 20-08-2006 01:41:03 15.1 C 92 % 13.81 C
Sensor: Nr:Datum:Temp:Feuchte:Taupunkt:
Aussen-T/F 2026 20-08-2006 01:51:03 15.2 C 92 % 13.91 C
2027 20-08-2006 02:01:03 15.1 C 92 % 13.81 C
2028 20-08-2006 02:11:03 15.2 C 93 % 14.08 C
2029 20-08-2006 02:21:03 15.2 C 93 % 14.08 C
2030 20-08-2006 02:31:03 14.8 C 94 % 13.84 C
2031 20-08-2006 02:41:03 15.7 C 93 % 14.57 C
2032 20-08-2006 02:51:03 15.2 C 93 % 14.08 C
2033 20-08-2006 03:01:03 15.1 C 93 % 13.98 C
2034 20-08-2006 03:11:03 15 C 93 % 13.88 C
2035 20-08-2006 03:21:03 15 C 93 % 13.88 C
2036 20-08-2006 03:31:04 15 C 93 % 13.88 C
2037 20-08-2006 03:41:04 15 C 93 % 13.88 C
2038 20-08-2006 03:51:04 15 C 93 % 13.88 C
2039 20-08-2006 04:01:04 15 C 93 % 13.88 C
2040 20-08-2006 04:11:04 15 C 93 % 13.88 C
2041 20-08-2006 04:21:04 15 C 93 % 13.88 C
2042 20-08-2006 04:31:04 15 C 93 % 13.88 C
2043 20-08-2006 04:41:04 14.7 C 94 % 13.74 C
2044 20-08-2006 04:51:04 14.8 C 94 % 13.84 C
2045 20-08-2006 05:01:04 14.6 C 94 % 13.65 C
2046 20-08-2006 05:11:04 14.6 C 94 % 13.65 C
2047 20-08-2006 05:21:04 14.8 C 94 % 13.84 C
2048 20-08-2006 05:31:04 15 C 93 % 13.88 C
2049 20-08-2006 05:41:04 15 C 93 % 13.88 C
2050 20-08-2006 05:51:04 15.1 C 93 % 13.98 C
Sensor: Nr:Datum:Temp:Feuchte:Taupunkt:
Aussen-T/F 2051 20-08-2006 06:01:04 15.4 C 92 % 14.11 C
2052 20-08-2006 06:11:04 15.3 C 91 % 13.84 C
2053 20-08-2006 06:21:04 15.3 C 90 % 13.67 C
2054 20-08-2006 06:31:05 15.6 C 89 % 13.79 C
2055 20-08-2006 06:41:05 15.8 C 86 % 13.46 C
2056 20-08-2006 06:51:05 15.8 C 84 % 13.1 C
2057 20-08-2006 07:01:05 15.7 C 83 % 12.82 C
2058 20-08-2006 07:11:05 15.9 C 82 % 12.83 C
2059 20-08-2006 07:21:05 16.2 C 80 % 12.75 C
2060 20-08-2006 07:31:05 16.4 C 79 % 12.75 C
2061 20-08-2006 07:41:05 16.3 C 80 % 12.85 C
2062 20-08-2006 07:51:05 16.2 C 80 % 12.75 C
2063 20-08-2006 08:01:05 16.5 C 78 % 12.65 C
2064 20-08-2006 08:11:05 16.5 C 77 % 12.46 C
2065 20-08-2006 08:21:02 16.6 C 76 % 12.36 C
2066 20-08-2006 08:31:02 16.7 C 76 % 12.45 C
2067 20-08-2006 08:41:03 16.8 C 76 % 12.55 C
2068 20-08-2006 08:51:02 16.9 C 76 % 12.65 C
2069 20-08-2006 09:01:02 17 C 74 % 12.34 C
2070 20-08-2006 09:11:02 17.2 C 73 % 12.32 C
2071 20-08-2006 09:21:02 17.9 C 72 % 12.78 C
2072 20-08-2006 09:31:01 18.1 C 70 % 12.55 C
2073 20-08-2006 09:41:01 18.4 C 68 % 12.39 C
2074 20-08-2006 09:51:02 18.8 C 68 % 12.77 C
2075 20-08-2006 10:01:02 18.8 C 66 % 12.32 C
Sensor: Nr:Datum:Temp:Feuchte:Taupunkt:
Aussen-T/F 2076 20-08-2006 10:11:02 18.9 C 66 % 12.41 C
2077 20-08-2006 10:21:02 19.5 C 64 % 12.51 C
2078 20-08-2006 10:31:02 19.3 C 62 % 11.84 C
2079 20-08-2006 10:41:02 19.5 C 61 % 11.78 C
2080 20-08-2006 10:51:02 19.7 C 61 % 11.97 C
2081 20-08-2006 11:01:02 19.6 C 60 % 11.63 C
2082 20-08-2006 11:11:02 19.5 C 60 % 11.53 C
2083 20-08-2006 11:21:02 19.5 C 60 % 11.53 C
2084 20-08-2006 11:31:01 19.1 C 61 % 11.41 C
2085 20-08-2006 11:41:01 19.1 C 61 % 11.41 C
2086 20-08-2006 11:51:02 19.3 C 59 % 11.09 C
2087 20-08-2006 12:01:02 19.3 C 59 % 11.09 C
2088 20-08-2006 12:11:02 19.3 C 59 % 11.09 C
2089 20-08-2006 12:21:02 19.3 C 59 % 11.09 C
2090 20-08-2006 12:31:02 19.3 C 59 % 11.09 C
2091 20-08-2006 12:41:02 19.3 C 59 % 11.09 C
2092 20-08-2006 12:51:03 20 C 54 % 10.42 C
2093 20-08-2006 13:01:02 20.4 C 53 % 10.51 C
2094 20-08-2006 13:11:02 20.3 C 53 % 10.41 C
2095 20-08-2006 13:21:02 20.1 C 53 % 10.23 C
2096 20-08-2006 13:31:03 20.5 C 54 % 10.88 C
2097 20-08-2006 13:41:03 20.8 C 53 % 10.88 C
2098 20-08-2006 13:51:02 20.6 C 52 % 10.41 C
2099 20-08-2006 14:01:03 20.4 C 53 % 10.51 C
2100 20-08-2006 14:11:03 19.8 C 55 % 10.51 C
Sensor: Nr:Datum:Temp:Feuchte:Taupunkt:
Aussen-T/F 2101 20-08-2006 14:21:03 19.8 C 57 % 11.04 C
2102 20-08-2006 14:31:02 20.5 C 56 % 11.43 C
2103 20-08-2006 14:41:02 20.4 C 55 % 11.06 C
2104 20-08-2006 14:51:03 20.8 C 54 % 11.16 C
2105 20-08-2006 15:01:03 21.1 C 49 % 9.98 C
2106 20-08-2006 15:11:03 21.2 C 49 % 10.07 C
2107 20-08-2006 15:21:03 21.9 C 48 % 10.4 C
2108 20-08-2006 15:31:02 22.2 C 46 % 10.04 C
2109 20-08-2006 15:41:03 22.6 C 46 % 10.4 C
2110 20-08-2006 15:51:02 22.3 C 45 % 9.8 C
2111 20-08-2006 16:01:02 22.3 C 45 % 9.8 C
2112 20-08-2006 16:11:02 22.9 C 42 % 9.32 C
2113 20-08-2006 16:21:01 22.7 C 41 % 8.78 C
2114 20-08-2006 16:31:02 22.1 C 42 % 8.6 C
2115 20-08-2006 16:41:02 23.4 C 40 % 9.04 C
2116 20-08-2006 16:51:03 22.6 C 41 % 8.69 C
2117 20-08-2006 17:01:02 22.6 C 42 % 9.05 C
2118 20-08-2006 17:11:02 22.4 C 41 % 8.51 C
2119 20-08-2006 17:21:03 22 C 43 % 8.85 C
2120 20-08-2006 17:31:03 21.9 C 44 % 9.1 C
2121 20-08-2006 17:41:03 21.5 C 46 % 9.4 C
2122 20-08-2006 17:51:02 21.3 C 46 % 9.22 C
2123 20-08-2006 18:01:02 21.2 C 47 % 9.45 C
2124 20-08-2006 18:11:02 20.8 C 50 % 10 C
2125 20-08-2006 18:21:01 20.9 C 49 % 9.79 C
Sensor: Nr:Datum:Temp:Feuchte:Taupunkt:
Aussen-T/F 2126 20-08-2006 18:31:02 19.5 C 61 % 11.78 C
2127 20-08-2006 18:41:02 19.4 C 64 % 12.42 C
2128 20-08-2006 18:51:02 20.3 C 60 % 12.29 C
2129 20-08-2006 19:01:02 19.7 C 61 % 11.97 C
2130 20-08-2006 19:11:02 20 C 60 % 12 C
2131 20-08-2006 19:21:02 20.4 C 58 % 11.86 C
2132 20-08-2006 19:31:02 20.6 C 57 % 11.79 C
2133 20-08-2006 19:41:02 20.3 C 57 % 11.51 C
2134 20-08-2006 19:51:02 20 C 57 % 11.23 C
2135 20-08-2006 20:01:01 19.6 C 60 % 11.63 C
2136 20-08-2006 20:11:01 19.5 C 61 % 11.78 C
2137 20-08-2006 20:21:01 18.8 C 64 % 11.85 C
2138 20-08-2006 20:31:01 18.6 C 65 % 11.9 C
2139 20-08-2006 20:41:01 18.3 C 66 % 11.84 C
2140 20-08-2006 20:51:02 18.2 C 66 % 11.75 C
2141 20-08-2006 21:01:01 18.1 C 66 % 11.65 C
2142 20-08-2006 21:11:01 18.1 C 66 % 11.65 C
2143 20-08-2006 21:21:01 18 C 66 % 11.56 C
2144 20-08-2006 21:31:02 18.1 C 66 % 11.65 C
2145 20-08-2006 21:41:02 18 C 66 % 11.56 C
2146 20-08-2006 21:51:02 18 C 66 % 11.56 C
2147 20-08-2006 22:01:01 18 C 66 % 11.56 C
2148 20-08-2006 22:11:01 17.9 C 68 % 11.91 C
2149 20-08-2006 22:21:01 17.9 C 69 % 12.14 C
2150 20-08-2006 22:31:02 17.7 C 70 % 12.16 C
Sensor: Nr:Datum:Temp:Feuchte:Taupunkt:
Aussen-T/F 2151 20-08-2006 22:41:02 17.6 C 70 % 12.07 C
2152 20-08-2006 22:51:02 17.5 C 71 % 12.19 C
2153 20-08-2006 23:01:03 17.3 C 72 % 12.21 C
2154 20-08-2006 23:11:03 17.2 C 73 % 12.32 C
2155 20-08-2006 23:21:02 17.1 C 73 % 12.23 C
2156 20-08-2006 23:31:03 17 C 74 % 12.34 C
2157 20-08-2006 23:41:03 16.9 C 74 % 12.24 C
2158 20-08-2006 23:51:03 17 C 73 % 12.13 C
2159 21-08-2006 00:01:02 17 C 73 % 12.13 C
2160 21-08-2006 00:11:02 17.1 C 72 % 12.02 C
2161 21-08-2006 00:21:02 17 C 72 % 11.92 C
2162 21-08-2006 00:31:03 16.9 C 73 % 12.03 C
2163 21-08-2006 00:41:03 16.9 C 72 % 11.82 C
2164 21-08-2006 00:51:02 16.9 C 69 % 11.18 C
2165 21-08-2006 01:01:02 16.8 C 69 % 11.09 C
2166 21-08-2006 01:11:02 16.6 C 71 % 11.32 C
2167 21-08-2006 01:21:02 16.5 C 71 % 11.23 C
2168 21-08-2006 01:31:01 16.4 C 71 % 11.13 C
2169 21-08-2006 01:41:01 16.4 C 70 % 10.92 C
2170 21-08-2006 01:51:02 16.3 C 69 % 10.61 C
2171 21-08-2006 02:01:03 16.4 C 68 % 10.48 C
2172 21-08-2006 02:11:03 16.3 C 69 % 10.61 C
2173 21-08-2006 02:21:02 16.2 C 68 % 10.29 C
2174 21-08-2006 02:31:02 16 C 68 % 10.1 C
2175 21-08-2006 02:41:02 15.9 C 70 % 10.44 C
Sensor: Nr:Datum:Temp:Feuchte:Taupunkt:
Aussen-T/F 2176 21-08-2006 02:52:04 15.7 C 72 % 10.67 C
2177 21-08-2006 03:02:04 15.5 C 73 % 10.69 C
2178 21-08-2006 03:12:03 15.2 C 74 % 10.6 C
2179 21-08-2006 03:22:03 15.2 C 73 % 10.4 C
2180 21-08-2006 03:32:01 15.2 C 75 % 10.8 C
2181 21-08-2006 03:42:01 14.9 C 76 % 10.71 C
2182 21-08-2006 03:52:02 14.8 C 78 % 11 C
2183 21-08-2006 04:02:02 14.8 C 78 % 11 C
2184 21-08-2006 04:12:02 14.7 C 79 % 11.1 C
2185 21-08-2006 04:22:02 14.5 C 81 % 11.28 C
2186 21-08-2006 04:32:02 14.4 C 81 % 11.18 C
2187 21-08-2006 04:42:02 14.2 C 82 % 11.17 C
2188 21-08-2006 04:52:02 14 C 83 % 11.16 C
2189 21-08-2006 05:02:02 13.8 C 84 % 11.15 C
2190 21-08-2006 05:12:02 13.8 C 85 % 11.32 C
2191 21-08-2006 05:22:02 13.7 C 85 % 11.23 C
2192 21-08-2006 05:32:02 13.6 C 85 % 11.13 C
2193 21-08-2006 05:42:02 13.5 C 86 % 11.21 C
2194 21-08-2006 05:52:02 13.7 C 87 % 11.58 C
2195 21-08-2006 06:02:02 13.7 C 87 % 11.58 C
2196 21-08-2006 06:12:02 13.8 C 86 % 11.5 C
2197 21-08-2006 06:22:02 13.8 C 86 % 11.5 C
2198 21-08-2006 06:32:02 13.7 C 86 % 11.4 C
2199 21-08-2006 06:42:02 13.6 C 87 % 11.48 C
2200 21-08-2006 06:52:01 13.6 C 87 % 11.48 C
Sensor: Nr:Datum:Temp:Feuchte:Taupunkt:
Aussen-T/F 2201 21-08-2006 07:02:02 13.6 C 87 % 11.48 C
2202 21-08-2006 07:12:02 13.6 C 87 % 11.48 C
2203 21-08-2006 07:22:02 13.7 C 88 % 11.75 C
2204 21-08-2006 07:32:02 13.8 C 88 % 11.85 C
2205 21-08-2006 07:42:02 14 C 86 % 11.7 C
2206 21-08-2006 07:52:02 14.4 C 85 % 11.91 C
2207 21-08-2006 08:02:02 14.8 C 83 % 11.94 C
2208 21-08-2006 08:12:02 15 C 81 % 11.77 C
2209 21-08-2006 08:22:02 15.4 C 79 % 11.78 C
2210 21-08-2006 08:32:02 16 C 75 % 11.57 C
2211 21-08-2006 08:42:02 16.4 C 73 % 11.55 C
2212 21-08-2006 08:52:02 16.4 C 72 % 11.34 C
2213 21-08-2006 09:02:02 16.6 C 71 % 11.32 C
2214 21-08-2006 09:12:02 16.6 C 72 % 11.54 C
2215 21-08-2006 09:22:02 16.5 C 70 % 11.01 C
2216 21-08-2006 09:32:02 17 C 67 % 10.83 C
2217 21-08-2006 09:42:02 17.1 C 68 % 11.15 C
2218 21-08-2006 09:52:02 17.3 C 67 % 11.12 C
2219 21-08-2006 10:02:02 17.5 C 67 % 11.31 C
2220 21-08-2006 10:12:02 18.1 C 65 % 11.42 C
2221 21-08-2006 10:22:02 18 C 64 % 11.09 C
2222 21-08-2006 10:32:02 17.9 C 64 % 11 C
2223 21-08-2006 10:42:02 17.9 C 65 % 11.23 C
2224 21-08-2006 10:52:02 18.1 C 63 % 10.95 C
2225 21-08-2006 11:02:02 17.8 C 65 % 11.14 C
Sensor: Nr:Datum:Temp:Feuchte:Taupunkt:
Aussen-T/F 2226 21-08-2006 11:12:02 18.1 C 63 % 10.95 C
2227 21-08-2006 11:22:02 18.4 C 62 % 10.99 C
2228 21-08-2006 11:32:02 18.3 C 61 % 10.66 C
2229 21-08-2006 11:42:02 18.6 C 61 % 10.94 C
2230 21-08-2006 11:52:02 17.8 C 62 % 10.43 C
2231 21-08-2006 12:02:03 17.8 C 62 % 10.43 C
2232 21-08-2006 12:12:03 18 C 61 % 10.37 C
2233 21-08-2006 12:22:03 18.5 C 58 % 10.09 C
2234 21-08-2006 12:32:02 20.3 C 54 % 10.69 C
2235 21-08-2006 12:42:02 20.3 C 53 % 10.41 C
2236 21-08-2006 12:52:02 19.3 C 56 % 10.31 C
2237 21-08-2006 13:02:03 18.8 C 58 % 10.37 C
2238 21-08-2006 13:12:03 18.8 C 56 % 9.84 C
2239 21-08-2006 13:22:02 20.4 C 50 % 9.64 C
2240 21-08-2006 13:32:02 20.5 C 48 % 9.12 C
2241 21-08-2006 13:42:02 20.2 C 49 % 9.15 C
2242 21-08-2006 13:52:02 19.8 C 51 % 9.38 C
2243 21-08-2006 14:02:02 19.9 C 52 % 9.76 C
2244 21-08-2006 14:12:02 20.5 C 49 % 9.43 C
2245 21-08-2006 14:22:02 20.2 C 49 % 9.15 C
2246 21-08-2006 14:32:02 20.5 C 48 % 9.12 C
2247 21-08-2006 14:42:02 20.4 C 48 % 9.03 C
2248 21-08-2006 14:52:02 20.6 C 48 % 9.21 C
2249 21-08-2006 15:02:02 20.6 C 48 % 9.21 C
2250 21-08-2006 15:12:02 20.5 C 48 % 9.12 C
Sensor: Nr:Datum:Temp:Feuchte:Taupunkt:
Aussen-T/F 2251 21-08-2006 15:22:02 20.4 C 49 % 9.34 C
2252 21-08-2006 15:32:02 19.9 C 50 % 9.18 C
2253 21-08-2006 15:42:02 20.1 C 50 % 9.36 C
2254 21-08-2006 15:52:02 20.1 C 49 % 9.06 C
2255 21-08-2006 16:02:02 18.3 C 65 % 11.61 C
2256 21-08-2006 16:12:02 17.9 C 74 % 13.2 C
2257 21-08-2006 16:22:02 18.7 C 73 % 13.76 C
2258 21-08-2006 16:32:02 18.6 C 73 % 13.67 C
2259 21-08-2006 16:42:02 18.1 C 72 % 12.98 C
2260 21-08-2006 16:52:02 18 C 71 % 12.67 C
2261 21-08-2006 17:02:02 18.5 C 70 % 12.93 C
2262 21-08-2006 17:12:02 19.3 C 65 % 12.56 C
2263 21-08-2006 17:22:02 19.7 C 63 % 12.46 C
2264 21-08-2006 17:32:03 19.8 C 58 % 11.3 C
2265 21-08-2006 17:42:03 20.3 C 55 % 10.97 C
2266 21-08-2006 17:52:01 19.5 C 56 % 10.5 C
2267 21-08-2006 18:02:02 19.7 C 57 % 10.95 C
2268 21-08-2006 18:12:02 19.6 C 56 % 10.59 C
2269 21-08-2006 18:22:02 19.5 C 56 % 10.5 C
2270 21-08-2006 18:32:01 19.6 C 56 % 10.59 C
2271 21-08-2006 18:42:01 19.5 C 56 % 10.5 C
2272 21-08-2006 18:52:02 19.6 C 56 % 10.59 C
2273 21-08-2006 19:02:02 19.2 C 56 % 10.22 C
2274 21-08-2006 19:12:02 19 C 57 % 10.3 C
2275 21-08-2006 19:22:02 18.8 C 60 % 10.88 C
Sensor: Nr:Datum:Temp:Feuchte:Taupunkt:
Aussen-T/F 2276 21-08-2006 19:32:03 18 C 66 % 11.56 C
2277 21-08-2006 19:42:03 18 C 67 % 11.79 C
2278 21-08-2006 19:52:02 18.1 C 65 % 11.42 C
2279 21-08-2006 20:02:02 18.1 C 67 % 11.88 C
2280 21-08-2006 20:12:02 16.8 C 80 % 13.33 C
2281 21-08-2006 20:22:02 16.3 C 84 % 13.59 C
2282 21-08-2006 20:32:02 16 C 86 % 13.66 C
2283 21-08-2006 20:42:02 16 C 87 % 13.84 C
2284 21-08-2006 20:52:02 16 C 88 % 14.01 C
2285 21-08-2006 21:02:02 16 C 88 % 14.01 C
2286 21-08-2006 21:12:02 15.9 C 88 % 13.92 C
2287 21-08-2006 21:22:02 15.8 C 88 % 13.82 C
2288 21-08-2006 21:32:01 15.7 C 87 % 13.54 C
2289 21-08-2006 21:42:01 15.8 C 87 % 13.64 C
2290 21-08-2006 21:52:02 15.6 C 86 % 13.27 C
2291 21-08-2006 22:02:02 15.5 C 87 % 13.35 C
2292 21-08-2006 22:12:02 15.5 C 89 % 13.7 C
2293 21-08-2006 22:22:02 15.3 C 90 % 13.67 C
2294 21-08-2006 22:32:02 15 C 90 % 13.37 C
2295 21-08-2006 22:42:02 15.4 C 91 % 13.94 C
2296 21-08-2006 22:52:02 15.5 C 91 % 14.04 C
2297 21-08-2006 23:02:02 15.2 C 91 % 13.74 C
2298 21-08-2006 23:12:02 15.3 C 92 % 14.01 C
2299 21-08-2006 23:22:02 15.4 C 92 % 14.11 C
2300 21-08-2006 23:32:02 15.5 C 92 % 14.21 C
Sensor: Nr:Datum:Temp:Feuchte:Taupunkt:
Aussen-T/F 2301 21-08-2006 23:42:02 15.6 C 90 % 13.97 C
2302 21-08-2006 23:52:02 15.5 C 89 % 13.7 C
2303 22-08-2006 00:02:02 15.5 C 89 % 13.7 C
2304 22-08-2006 00:12:02 15.5 C 89 % 13.7 C
2305 22-08-2006 00:22:02 15.4 C 89 % 13.6 C
2306 22-08-2006 00:32:02 15.4 C 89 % 13.6 C
2307 22-08-2006 00:42:02 15.3 C 89 % 13.5 C
2308 22-08-2006 00:52:03 15.4 C 89 % 13.6 C
2309 22-08-2006 01:02:03 15.1 C 89 % 13.3 C
2310 22-08-2006 01:12:03 14.9 C 90 % 13.28 C
2311 22-08-2006 01:22:03 14.8 C 91 % 13.35 C
2312 22-08-2006 01:32:02 14.7 C 91 % 13.25 C
2313 22-08-2006 01:42:02 14.8 C 91 % 13.35 C
2314 22-08-2006 01:52:03 14.8 C 92 % 13.51 C
2315 22-08-2006 02:02:03 14.9 C 92 % 13.61 C
2316 22-08-2006 02:12:03 14.9 C 92 % 13.61 C
2317 22-08-2006 02:22:02 14.8 C 92 % 13.51 C
2318 22-08-2006 02:32:02 14.9 C 93 % 13.78 C
2319 22-08-2006 02:42:02 14.7 C 92 % 13.41 C
2320 22-08-2006 02:53:04 14.8 C 92 % 13.51 C
2321 22-08-2006 03:03:04 14.7 C 91 % 13.25 C
2322 22-08-2006 03:13:04 14.6 C 89 % 12.81 C
2323 22-08-2006 03:23:04 14.6 C 88 % 12.64 C
2324 22-08-2006 03:33:02 14.4 C 88 % 12.44 C
2325 22-08-2006 03:43:02 14.4 C 86 % 12.09 C
Sensor: Nr:Datum:Temp:Feuchte:Taupunkt:
Aussen-T/F 2326 22-08-2006 03:53:02 14.4 C 86 % 12.09 C
2327 22-08-2006 04:03:02 14.4 C 86 % 12.09 C
2328 22-08-2006 04:13:02 14.4 C 86 % 12.09 C
2329 22-08-2006 04:23:03 14.2 C 85 % 11.72 C
2330 22-08-2006 04:33:03 14 C 86 % 11.7 C
2331 22-08-2006 04:43:03 14 C 86 % 11.7 C
2332 22-08-2006 04:53:02 13.9 C 87 % 11.77 C
2333 22-08-2006 05:03:03 13.8 C 86 % 11.5 C
2334 22-08-2006 05:13:03 13.9 C 87 % 11.77 C
2335 22-08-2006 05:23:03 14 C 85 % 11.52 C
2336 22-08-2006 05:33:03 14.1 C 84 % 11.44 C
2337 22-08-2006 05:43:03 14.1 C 84 % 11.44 C
2338 22-08-2006 05:53:01 14.2 C 84 % 11.54 C
2339 22-08-2006 06:03:02 14 C 84 % 11.34 C
2340 22-08-2006 06:13:02 13.7 C 85 % 11.23 C
2341 22-08-2006 06:23:02 13.8 C 86 % 11.5 C
2342 22-08-2006 06:33:02 14 C 85 % 11.52 C
2343 22-08-2006 06:43:02 14 C 84 % 11.34 C
2344 22-08-2006 06:53:02 14 C 84 % 11.34 C
2345 22-08-2006 07:03:02 14 C 84 % 11.34 C
2346 22-08-2006 07:13:02 13.8 C 86 % 11.5 C
2347 22-08-2006 07:23:02 13.8 C 87 % 11.68 C
2348 22-08-2006 07:33:02 13.8 C 87 % 11.68 C
2349 22-08-2006 07:43:03 13.9 C 87 % 11.77 C
2350 22-08-2006 07:53:02 13.9 C 87 % 11.77 C
Sensor: Nr:Datum:Temp:Feuchte:Taupunkt:
Aussen-T/F 2351 22-08-2006 08:03:02 14 C 86 % 11.7 C
2352 22-08-2006 08:13:02 14.2 C 86 % 11.89 C
2353 22-08-2006 08:23:02 14.3 C 84 % 11.64 C
2354 22-08-2006 08:33:02 14.7 C 83 % 11.85 C
2355 22-08-2006 08:43:02 14.9 C 82 % 11.86 C
2356 22-08-2006 08:53:02 15.1 C 81 % 11.87 C
2357 22-08-2006 09:03:02 15.1 C 81 % 11.87 C
2358 22-08-2006 09:13:02 15.5 C 80 % 12.07 C
2359 22-08-2006 09:23:01 15.4 C 79 % 11.78 C
2360 22-08-2006 09:33:01 15.5 C 79 % 11.88 C
2361 22-08-2006 09:43:01 15.6 C 78 % 11.78 C
2362 22-08-2006 09:53:02 16.1 C 74 % 11.47 C
2363 22-08-2006 10:03:02 16.3 C 73 % 11.46 C
2364 22-08-2006 10:13:02 16.1 C 73 % 11.26 C
2365 22-08-2006 10:23:02 16.3 C 74 % 11.66 C
2366 22-08-2006 10:33:02 16.7 C 73 % 11.84 C
2367 22-08-2006 10:43:02 16.8 C 73 % 11.94 C
2368 22-08-2006 10:53:02 17.2 C 71 % 11.9 C
2369 22-08-2006 11:03:02 17.9 C 67 % 11.69 C
2370 22-08-2006 11:13:02 17.5 C 68 % 11.53 C
2371 22-08-2006 11:23:02 17.2 C 69 % 11.47 C
2372 22-08-2006 11:33:02 17.7 C 70 % 12.16 C
2373 22-08-2006 11:43:02 18 C 67 % 11.79 C
2374 22-08-2006 11:53:02 17.8 C 65 % 11.14 C
2375 22-08-2006 12:03:02 17.7 C 66 % 11.27 C
Sensor: Nr:Datum:Temp:Feuchte:Taupunkt:
Aussen-T/F 2376 22-08-2006 12:13:02 17.5 C 68 % 11.53 C
2377 22-08-2006 12:23:02 17.6 C 69 % 11.85 C
2378 22-08-2006 12:33:03 17.9 C 67 % 11.69 C
2379 22-08-2006 12:43:03 18.5 C 64 % 11.57 C
2380 22-08-2006 12:53:02 18.5 C 64 % 11.57 C
2381 22-08-2006 13:03:02 18.5 C 63 % 11.33 C
2382 22-08-2006 13:13:02 18.6 C 63 % 11.42 C
2383 22-08-2006 13:23:02 18.6 C 61 % 10.94 C
2384 22-08-2006 13:33:03 18.7 C 58 % 10.28 C
2385 22-08-2006 13:43:03 18.8 C 57 % 10.11 C
2386 22-08-2006 13:53:02 19.3 C 56 % 10.31 C
2387 22-08-2006 14:03:02 19.9 C 52 % 9.76 C
2388 22-08-2006 14:13:02 19.6 C 55 % 10.32 C
2389 22-08-2006 14:23:02 19.5 C 51 % 9.1 C
2390 22-08-2006 14:33:03 19.7 C 51 % 9.29 C
2391 22-08-2006 14:43:03 20 C 52 % 9.85 C
2392 22-08-2006 14:53:02 20 C 51 % 9.56 C
2393 22-08-2006 15:03:02 20 C 50 % 9.27 C
2394 22-08-2006 15:13:02 20.2 C 52 % 10.04 C
2395 22-08-2006 15:23:02 20.5 C 51 % 10.02 C
2396 22-08-2006 15:33:03 20.4 C 50 % 9.64 C
2397 22-08-2006 15:43:03 20.2 C 50 % 9.45 C
2398 22-08-2006 15:53:02 20.4 C 50 % 9.64 C
2399 22-08-2006 16:03:02 20.4 C 49 % 9.34 C
2400 22-08-2006 16:13:02 20.6 C 48 % 9.21 C
Sensor: Nr:Datum:Temp:Feuchte:Taupunkt:
Aussen-T/F 2401 22-08-2006 16:23:02 20.8 C 49 % 9.7 C
2402 22-08-2006 16:33:03 20.9 C 49 % 9.79 C
2403 22-08-2006 16:43:03 21 C 48 % 9.58 C
2404 22-08-2006 16:53:02 21.4 C 48 % 9.94 C
2405 22-08-2006 17:03:02 21 C 47 % 9.27 C
2406 22-08-2006 17:13:02 21 C 47 % 9.27 C
2407 22-08-2006 17:23:02 21.2 C 47 % 9.45 C
2408 22-08-2006 17:33:03 20.9 C 49 % 9.79 C
2409 22-08-2006 17:43:03 21 C 49 % 9.89 C
2410 22-08-2006 17:53:02 20.8 C 48 % 9.4 C
2411 22-08-2006 18:03:02 21 C 47 % 9.27 C
2412 22-08-2006 18:13:02 21 C 47 % 9.27 C
2413 22-08-2006 18:23:02 21.2 C 46 % 9.13 C
2414 22-08-2006 18:33:03 21.1 C 47 % 9.36 C
2415 22-08-2006 18:43:03 19.9 C 54 % 10.32 C
2416 22-08-2006 18:53:02 19.2 C 58 % 10.74 C
2417 22-08-2006 19:03:01 19.5 C 58 % 11.02 C
2418 22-08-2006 19:13:01 19.7 C 54 % 10.14 C
2419 22-08-2006 19:23:01 19.7 C 55 % 10.41 C
2420 22-08-2006 19:33:01 19.7 C 57 % 10.95 C
2421 22-08-2006 19:43:01 19.5 C 54 % 9.95 C
2422 22-08-2006 19:53:02 19.4 C 56 % 10.4 C
2423 22-08-2006 20:03:02 19.2 C 56 % 10.22 C
2424 22-08-2006 20:13:02 19.1 C 61 % 11.41 C
2425 22-08-2006 20:23:02 18.8 C 62 % 11.37 C
Sensor: Nr:Datum:Temp:Feuchte:Taupunkt:
Aussen-T/F 2426 22-08-2006 20:33:02 18.5 C 63 % 11.33 C
2427 22-08-2006 20:43:02 18.3 C 65 % 11.61 C
2428 22-08-2006 20:53:01 18 C 65 % 11.33 C
2429 22-08-2006 21:03:02 17.9 C 67 % 11.69 C
2430 22-08-2006 21:13:02 17.8 C 67 % 11.6 C
2431 22-08-2006 21:23:02 17.5 C 67 % 11.31 C
2432 22-08-2006 21:33:02 17.4 C 67 % 11.21 C
2433 22-08-2006 21:43:02 17.1 C 68 % 11.15 C
2434 22-08-2006 21:53:02 17 C 69 % 11.28 C
2435 22-08-2006 22:03:02 17 C 68 % 11.06 C
2436 22-08-2006 22:13:02 16.8 C 70 % 11.3 C
2437 22-08-2006 22:23:02 16.7 C 70 % 11.21 C
2438 22-08-2006 22:33:02 16.4 C 71 % 11.13 C
2439 22-08-2006 22:43:02 16.4 C 72 % 11.34 C
2440 22-08-2006 22:53:02 16.2 C 72 % 11.15 C
2441 22-08-2006 23:03:01 16.2 C 73 % 11.36 C
2442 22-08-2006 23:13:01 16 C 73 % 11.17 C
2443 22-08-2006 23:23:01 15.9 C 74 % 11.28 C
2444 22-08-2006 23:33:02 15.8 C 75 % 11.38 C
2445 22-08-2006 23:43:02 15.6 C 75 % 11.19 C
2446 22-08-2006 23:53:02 15.4 C 75 % 11 C
2447 23-08-2006 00:03:02 15.3 C 75 % 10.9 C
2448 23-08-2006 00:13:02 15.2 C 76 % 11 C
2449 23-08-2006 00:23:02 15 C 77 % 11 C
2450 23-08-2006 00:33:01 14.7 C 79 % 11.1 C
Sensor: Nr:Datum:Temp:Feuchte:Taupunkt:
Aussen-T/F 2451 23-08-2006 00:43:01 14.5 C 80 % 11.09 C
2452 23-08-2006 00:53:03 14.4 C 81 % 11.18 C
2453 23-08-2006 01:03:01 14.2 C 82 % 11.17 C
2454 23-08-2006 01:13:01 14 C 82 % 10.98 C
2455 23-08-2006 01:23:02 13.9 C 83 % 11.06 C
2456 23-08-2006 01:33:02 13.8 C 84 % 11.15 C
2457 23-08-2006 01:43:02 13.7 C 85 % 11.23 C
2458 23-08-2006 01:53:03 13.6 C 86 % 11.3 C
2459 23-08-2006 02:03:02 13.5 C 86 % 11.21 C
2460 23-08-2006 02:13:02 13.4 C 86 % 11.11 C
2461 23-08-2006 02:23:02 13.3 C 87 % 11.18 C
2462 23-08-2006 02:33:02 13.2 C 87 % 11.09 C
2463 23-08-2006 02:43:02 13.1 C 88 % 11.16 C
2464 23-08-2006 02:54:03 13 C 88 % 11.06 C
2465 23-08-2006 03:04:03 12.9 C 89 % 11.13 C
2466 23-08-2006 03:14:04 12.6 C 88 % 10.67 C
2467 23-08-2006 03:24:04 12.5 C 89 % 10.74 C
2468 23-08-2006 03:34:02 12.5 C 89 % 10.74 C
2469 23-08-2006 03:44:02 12.4 C 90 % 10.81 C
2470 23-08-2006 03:54:02 12.3 C 90 % 10.71 C
2471 23-08-2006 04:04:02 12.2 C 90 % 10.61 C
2472 23-08-2006 04:14:02 12.1 C 90 % 10.51 C
2473 23-08-2006 04:24:03 12 C 90 % 10.41 C
2474 23-08-2006 04:34:02 11.9 C 90 % 10.31 C
2475 23-08-2006 04:44:02 11.8 C 90 % 10.21 C
Sensor: Nr:Datum:Temp:Feuchte:Taupunkt:
Aussen-T/F 2476 23-08-2006 04:54:02 11.8 C 91 % 10.38 C
2477 23-08-2006 05:04:02 11.6 C 90 % 10.02 C
2478 23-08-2006 05:14:02 11.5 C 90 % 9.92 C
2479 23-08-2006 05:24:03 11.7 C 91 % 10.28 C
2480 23-08-2006 05:34:01 11.8 C 91 % 10.38 C
2481 23-08-2006 05:44:01 11.9 C 92 % 10.64 C
2482 23-08-2006 05:54:02 11.9 C 92 % 10.64 C
2483 23-08-2006 06:04:03 12 C 92 % 10.74 C
2484 23-08-2006 06:14:03 11.9 C 92 % 10.64 C
2485 23-08-2006 06:24:03 11.9 C 92 % 10.64 C
2486 23-08-2006 06:34:02 12 C 92 % 10.74 C
2487 23-08-2006 06:44:02 12 C 92 % 10.74 C
2488 23-08-2006 06:54:02 12.1 C 92 % 10.84 C
2489 23-08-2006 07:04:02 12.2 C 92 % 10.94 C
2490 23-08-2006 07:14:02 12.3 C 92 % 11.04 C
2491 23-08-2006 07:24:02 12.4 C 92 % 11.14 C
2492 23-08-2006 07:34:02 12.5 C 91 % 11.07 C
2493 23-08-2006 07:44:02 12.5 C 91 % 11.07 C
2494 23-08-2006 07:54:02 12.5 C 91 % 11.07 C
2495 23-08-2006 08:04:02 12.5 C 90 % 10.91 C
2496 23-08-2006 08:14:02 12.7 C 90 % 11.1 C
2497 23-08-2006 08:24:02 13.1 C 89 % 11.33 C
2498 23-08-2006 08:34:02 13.1 C 88 % 11.16 C
2499 23-08-2006 08:44:02 13.4 C 87 % 11.28 C
2500 23-08-2006 08:54:03 13.5 C 86 % 11.21 C
Sensor: Nr:Datum:Temp:Feuchte:Taupunkt:
Aussen-T/F 2501 23-08-2006 09:04:02 13.5 C 85 % 11.03 C
2502 23-08-2006 09:14:02 13.3 C 85 % 10.83 C
2503 23-08-2006 09:24:02 13.3 C 85 % 10.83 C
2504 23-08-2006 09:34:02 13.5 C 86 % 11.21 C
2505 23-08-2006 09:44:02 13.8 C 85 % 11.32 C
2506 23-08-2006 09:54:02 14.3 C 84 % 11.64 C
2507 23-08-2006 10:04:01 14.7 C 82 % 11.66 C
2508 23-08-2006 10:14:02 15 C 80 % 11.58 C
2509 23-08-2006 10:24:01 15.6 C 78 % 11.78 C
2510 23-08-2006 10:34:01 15.7 C 77 % 11.68 C
2511 23-08-2006 10:44:01 16.1 C 77 % 12.07 C
2512 23-08-2006 10:54:02 16.9 C 76 % 12.65 C
2513 23-08-2006 11:04:01 17.1 C 71 % 11.8 C
2514 23-08-2006 11:14:01 17.7 C 71 % 12.38 C
2515 23-08-2006 11:24:01 18.3 C 67 % 12.07 C
2516 23-08-2006 11:34:02 19.4 C 64 % 12.42 C
2517 23-08-2006 11:44:02 20.3 C 59 % 12.03 C
2518 23-08-2006 11:54:02 20.8 C 57 % 11.97 C
2519 23-08-2006 12:04:01 21.1 C 49 % 9.98 C
2520 23-08-2006 12:14:01 21.6 C 46 % 9.49 C
2521 23-08-2006 12:24:01 21.6 C 42 % 8.15 C
2522 23-08-2006 12:34:01 21.8 C 44 % 9.01 C
2523 23-08-2006 12:44:01 21.7 C 45 % 9.26 C
2524 23-08-2006 12:54:02 22.4 C 43 % 9.22 C
2525 23-08-2006 13:04:01 21.4 C 45 % 8.99 C
Sensor: Nr:Datum:Temp:Feuchte:Taupunkt:
Aussen-T/F 2526 23-08-2006 13:14:01 21.9 C 44 % 9.1 C
2527 23-08-2006 13:24:01 22.7 C 42 % 9.14 C
2528 23-08-2006 13:34:02 23.5 C 41 % 9.5 C
2529 23-08-2006 13:44:02 24.4 C 38 % 9.17 C
2530 23-08-2006 13:54:02 25.2 C 36 % 9.08 C
2531 23-08-2006 14:04:01 24.4 C 37 % 8.78 C
2532 23-08-2006 14:14:01 23.7 C 41 % 9.68 C
2533 23-08-2006 14:24:01 23.5 C 41 % 9.5 C
2534 23-08-2006 14:34:01 23.6 C 43 % 10.3 C
2535 23-08-2006 14:44:01 24.1 C 43 % 10.75 C
2536 23-08-2006 14:54:02 24.7 C 38 % 9.44 C
2537 23-08-2006 15:04:01 24.9 C 36 % 8.81 C
2538 23-08-2006 15:14:01 25.6 C 33 % 8.14 C
2539 23-08-2006 15:24:01 25.1 C 34 % 8.15 C
2540 23-08-2006 15:34:02 25.1 C 34 % 8.15 C
2541 23-08-2006 15:44:02 25.3 C 35 % 8.75 C
2542 23-08-2006 15:54:02 24.9 C 39 % 10 C
2543 23-08-2006 16:04:01 24.7 C 36 % 8.64 C
2544 23-08-2006 16:14:01 25.8 C 36 % 9.61 C
2545 23-08-2006 16:24:01 25 C 35 % 8.48 C
2546 23-08-2006 16:34:02 25.1 C 35 % 8.57 C
2547 23-08-2006 16:44:02 25.2 C 35 % 8.66 C
2548 23-08-2006 16:54:02 24.6 C 42 % 10.84 C
2549 23-08-2006 17:04:02 24.4 C 40 % 9.93 C
2550 23-08-2006 17:14:02 24.5 C 43 % 11.11 C
Sensor: Nr:Datum:Temp:Feuchte:Taupunkt:
Aussen-T/F 2551 23-08-2006 17:24:01 24.5 C 41 % 10.39 C
2552 23-08-2006 17:34:02 24.7 C 42 % 10.93 C
2553 23-08-2006 17:44:02 24 C 41 % 9.94 C
2554 23-08-2006 17:54:02 23.9 C 44 % 10.91 C
2555 23-08-2006 18:04:02 23.4 C 45 % 10.8 C
2556 23-08-2006 18:14:02 22.9 C 51 % 12.23 C
2557 23-08-2006 18:24:02 22.9 C 50 % 11.93 C
2558 23-08-2006 18:34:02 23.1 C 50 % 12.11 C
2559 23-08-2006 18:44:02 22.9 C 52 % 12.53 C
2560 23-08-2006 18:54:02 22.6 C 51 % 11.96 C
2561 23-08-2006 19:04:02 22.4 C 51 % 11.77 C
2562 23-08-2006 19:14:02 22.4 C 54 % 12.64 C
2563 23-08-2006 19:24:02 22.7 C 52 % 12.34 C
2564 23-08-2006 19:34:02 22.3 C 53 % 12.26 C
2565 23-08-2006 19:44:02 21.7 C 55 % 12.27 C
2566 23-08-2006 19:54:02 20.8 C 56 % 11.71 C
2567 23-08-2006 20:04:02 20.3 C 58 % 11.77 C
2568 23-08-2006 20:14:02 19.8 C 61 % 12.07 C
2569 23-08-2006 20:24:01 19.5 C 60 % 11.53 C
2570 23-08-2006 20:34:02 19.3 C 61 % 11.6 C
2571 23-08-2006 20:44:02 19.1 C 63 % 11.9 C
2572 23-08-2006 20:54:02 18.9 C 65 % 12.18 C
2573 23-08-2006 21:04:02 18.8 C 64 % 11.85 C
2574 23-08-2006 21:14:02 18.9 C 65 % 12.18 C
2575 23-08-2006 21:24:02 18.9 C 65 % 12.18 C
Sensor: Nr:Datum:Temp:Feuchte:Taupunkt:
Aussen-T/F 2576 23-08-2006 21:34:02 18.5 C 66 % 12.03 C
2577 23-08-2006 21:44:02 18.3 C 65 % 11.61 C
2578 23-08-2006 21:54:02 18.2 C 67 % 11.98 C
2579 23-08-2006 22:04:02 18 C 66 % 11.56 C
2580 23-08-2006 22:14:02 18 C 66 % 11.56 C
2581 23-08-2006 22:24:02 17.8 C 68 % 11.82 C
2582 23-08-2006 22:34:02 17.6 C 69 % 11.85 C
2583 23-08-2006 22:44:02 17.6 C 69 % 11.85 C
2584 23-08-2006 22:54:02 17.4 C 71 % 12.09 C
2585 23-08-2006 23:04:02 17.2 C 71 % 11.9 C
2586 23-08-2006 23:14:02 17.2 C 73 % 12.32 C
2587 23-08-2006 23:24:02 17.1 C 72 % 12.02 C
2588 23-08-2006 23:34:03 16.9 C 73 % 12.03 C
2589 23-08-2006 23:44:03 16.8 C 74 % 12.14 C
2590 23-08-2006 23:54:02 16.8 C 74 % 12.14 C
2591 24-08-2006 00:04:02 16.8 C 73 % 11.94 C
2592 24-08-2006 00:14:02 16.7 C 74 % 12.05 C
2593 24-08-2006 00:24:03 16.6 C 75 % 12.15 C
2594 24-08-2006 00:34:02 16.6 C 76 % 12.36 C
2595 24-08-2006 00:44:02 16.6 C 76 % 12.36 C
2596 24-08-2006 00:54:03 16.6 C 76 % 12.36 C
2597 24-08-2006 01:04:03 16.5 C 78 % 12.65 C
2598 24-08-2006 01:14:03 16.4 C 78 % 12.56 C
2599 24-08-2006 01:24:02 16.4 C 78 % 12.56 C
2600 24-08-2006 01:34:02 16.2 C 78 % 12.36 C
Sensor: Nr:Datum:Temp:Feuchte:Taupunkt:
Aussen-T/F 2601 24-08-2006 01:44:02 16.2 C 78 % 12.36 C
2602 24-08-2006 01:54:02 16.1 C 79 % 12.46 C
2603 24-08-2006 02:04:02 16 C 79 % 12.36 C
2604 24-08-2006 02:14:02 16 C 79 % 12.36 C
2605 24-08-2006 02:24:02 16 C 79 % 12.36 C
2606 24-08-2006 02:34:02 16 C 79 % 12.36 C
2607 24-08-2006 02:44:02 16 C 80 % 12.55 C
2608 24-08-2006 02:55:03 16 C 80 % 12.55 C
2609 24-08-2006 03:05:03 16 C 80 % 12.55 C
2610 24-08-2006 03:15:03 16 C 80 % 12.55 C
2611 24-08-2006 03:25:03 16 C 80 % 12.55 C
2612 24-08-2006 03:35:02 15.9 C 81 % 12.65 C
2613 24-08-2006 03:45:02 15.9 C 81 % 12.65 C
2614 24-08-2006 03:55:02 15.7 C 81 % 12.45 C
2615 24-08-2006 04:05:02 15.7 C 81 % 12.45 C
2616 24-08-2006 04:15:02 15.7 C 82 % 12.64 C
2617 24-08-2006 04:25:02 15.7 C 82 % 12.64 C
2618 24-08-2006 04:35:02 15.7 C 83 % 12.82 C
2619 24-08-2006 04:45:02 15.4 C 83 % 12.53 C
2620 24-08-2006 04:55:02 15.2 C 83 % 12.33 C
2621 24-08-2006 05:05:02 15 C 83 % 12.14 C
2622 24-08-2006 05:15:02 14.8 C 84 % 12.12 C
2623 24-08-2006 05:25:02 14.7 C 84 % 12.03 C
2624 24-08-2006 05:35:02 14.8 C 84 % 12.12 C
2625 24-08-2006 05:45:02 14.6 C 83 % 11.75 C
Sensor: Nr:Datum:Temp:Feuchte:Taupunkt:
Aussen-T/F 2626 24-08-2006 05:55:02 14.5 C 83 % 11.65 C
2627 24-08-2006 06:05:02 14.4 C 83 % 11.55 C
2628 24-08-2006 06:15:02 14.3 C 83 % 11.45 C
2629 24-08-2006 06:25:02 14.3 C 83 % 11.45 C
2630 24-08-2006 06:35:01 14.2 C 83 % 11.36 C
2631 24-08-2006 06:45:02 14.4 C 84 % 11.73 C
2632 24-08-2006 06:55:02 14.3 C 84 % 11.64 C
2633 24-08-2006 07:05:02 14.2 C 84 % 11.54 C
2634 24-08-2006 07:15:02 14.2 C 85 % 11.72 C
2635 24-08-2006 07:25:02 14.1 C 85 % 11.62 C
2636 24-08-2006 07:35:02 14.2 C 86 % 11.89 C
2637 24-08-2006 07:45:02 14.2 C 86 % 11.89 C
2638 24-08-2006 07:55:02 14.5 C 87 % 12.36 C
2639 24-08-2006 08:05:02 15 C 86 % 12.68 C
2640 24-08-2006 08:15:02 15.2 C 85 % 12.7 C
2641 24-08-2006 08:25:02 15.1 C 84 % 12.42 C
2642 24-08-2006 08:35:02 15.4 C 84 % 12.71 C
2643 24-08-2006 08:45:02 15.9 C 83 % 13.02 C
2644 24-08-2006 08:55:02 16.3 C 80 % 12.85 C
2645 24-08-2006 09:05:02 17 C 78 % 13.14 C
2646 24-08-2006 09:15:02 17.6 C 75 % 13.12 C
2647 24-08-2006 09:25:02 17.7 C 73 % 12.8 C
2648 24-08-2006 09:35:02 18.3 C 71 % 12.95 C
2649 24-08-2006 09:45:02 18.5 C 70 % 12.93 C
2650 24-08-2006 09:55:02 18.1 C 70 % 12.55 C
Sensor: Nr:Datum:Temp:Feuchte:Taupunkt:
Aussen-T/F 2651 24-08-2006 10:05:02 17.8 C 74 % 13.11 C
2652 24-08-2006 10:15:02 17.1 C 76 % 12.84 C
2653 24-08-2006 10:25:02 16.8 C 78 % 12.94 C
2654 24-08-2006 10:35:03 16.5 C 79 % 12.85 C
2655 24-08-2006 10:45:02 16.4 C 80 % 12.94 C
2656 24-08-2006 10:55:02 16.1 C 83 % 13.21 C
2657 24-08-2006 11:05:02 15.9 C 87 % 13.74 C
2658 24-08-2006 11:15:02 16.1 C 88 % 14.11 C
2659 24-08-2006 11:25:02 16.3 C 89 % 14.48 C
2660 24-08-2006 11:35:03 16.7 C 89 % 14.88 C
2661 24-08-2006 11:45:03 16.8 C 84 % 14.08 C
2662 24-08-2006 11:55:03 17.7 C 79 % 14.01 C
2663 24-08-2006 12:05:02 17.5 C 73 % 12.61 C
2664 24-08-2006 12:15:02 17 C 76 % 12.74 C
2665 24-08-2006 12:25:02 16.7 C 84 % 13.98 C
2666 24-08-2006 12:35:02 16.6 C 85 % 14.07 C
2667 24-08-2006 12:45:02 16.7 C 87 % 14.53 C
2668 24-08-2006 12:55:02 16.9 C 86 % 14.54 C
2669 24-08-2006 13:05:01 16.8 C 81 % 13.52 C
2670 24-08-2006 13:15:01 17.8 C 79 % 14.11 C
2671 24-08-2006 13:25:01 18.2 C 75 % 13.7 C
2672 24-08-2006 13:35:02 18.5 C 71 % 13.15 C
2673 24-08-2006 13:45:02 19 C 65 % 12.28 C
2674 24-08-2006 13:55:02 19.1 C 64 % 12.14 C
2675 24-08-2006 14:05:01 19.5 C 62 % 12.03 C
Sensor: Nr:Datum:Temp:Feuchte:Taupunkt:
Aussen-T/F 2676 24-08-2006 14:15:01 19.5 C 62 % 12.03 C
2677 24-08-2006 14:25:01 20 C 58 % 11.49 C
2678 24-08-2006 14:35:01 21.2 C 56 % 12.08 C
2679 24-08-2006 14:45:02 21.7 C 50 % 10.83 C
2680 24-08-2006 14:55:02 21.9 C 50 % 11.01 C
2681 24-08-2006 15:05:01 22.1 C 47 % 10.27 C
2682 24-08-2006 15:15:01 21.8 C 47 % 9.99 C
2683 24-08-2006 15:25:01 21.2 C 49 % 10.07 C
2684 24-08-2006 15:35:02 21 C 54 % 11.34 C
2685 24-08-2006 15:45:02 19.1 C 51 % 8.73 C
2686 24-08-2006 15:55:02 16.6 C 55 % 7.53 C
2687 24-08-2006 16:05:01 15.7 C 82 % 12.64 C
2688 24-08-2006 16:15:01 18.2 C 81 % 14.89 C
2689 24-08-2006 16:25:01 20 C 71 % 14.58 C
2690 24-08-2006 16:35:01 19.8 C 62 % 12.31 C
2691 24-08-2006 16:45:01 18.7 C 67 % 12.45 C
2692 24-08-2006 16:55:01 18.4 C 70 % 12.83 C
2693 24-08-2006 17:05:02 18.1 C 67 % 11.88 C
2694 24-08-2006 17:15:03 18.9 C 69 % 13.09 C
2695 24-08-2006 17:25:03 18.2 C 68 % 12.2 C
2696 24-08-2006 17:35:02 17.8 C 67 % 11.6 C
2697 24-08-2006 17:45:02 18.5 C 66 % 12.03 C
2698 24-08-2006 17:55:02 20.1 C 58 % 11.58 C
2699 24-08-2006 18:05:01 20 C 54 % 10.42 C
2700 24-08-2006 18:15:02 20.4 C 54 % 10.79 C
Sensor: Nr:Datum:Temp:Feuchte:Taupunkt:
Aussen-T/F 2701 24-08-2006 18:25:02 19.5 C 52 % 9.39 C
2702 24-08-2006 18:35:02 19 C 54 % 9.49 C
2703 24-08-2006 18:45:02 19 C 55 % 9.76 C
2704 24-08-2006 18:55:02 19.5 C 53 % 9.67 C
2705 24-08-2006 19:05:02 19.5 C 54 % 9.95 C
2706 24-08-2006 19:15:02 18.7 C 54 % 9.21 C
2707 24-08-2006 19:25:02 19 C 52 % 8.93 C
2708 24-08-2006 19:35:03 19.4 C 52 % 9.3 C
2709 24-08-2006 19:45:02 18.8 C 56 % 9.84 C
2710 24-08-2006 19:55:02 18.7 C 58 % 10.28 C
2711 24-08-2006 20:05:02 18.1 C 58 % 9.71 C
2712 24-08-2006 20:15:02 17.8 C 61 % 10.18 C
2713 24-08-2006 20:25:02 17.7 C 63 % 10.57 C
2714 24-08-2006 20:35:02 17.4 C 65 % 10.76 C
2715 24-08-2006 20:45:03 17 C 63 % 9.91 C
2716 24-08-2006 20:55:03 16.9 C 65 % 10.28 C
2717 24-08-2006 21:05:02 16.8 C 66 % 10.42 C
2718 24-08-2006 21:15:02 16.6 C 63 % 9.53 C
2719 24-08-2006 21:25:02 16.5 C 64 % 9.67 C
2720 24-08-2006 21:35:02 16.5 C 65 % 9.9 C
2721 24-08-2006 21:45:02 16.4 C 65 % 9.81 C
2722 24-08-2006 21:55:02 16.4 C 66 % 10.04 C
2723 24-08-2006 22:05:02 16.3 C 66 % 9.94 C
2724 24-08-2006 22:15:01 16.3 C 67 % 10.17 C
2725 24-08-2006 22:25:01 16.3 C 66 % 9.94 C
Sensor: Nr:Datum:Temp:Feuchte:Taupunkt:
Aussen-T/F 2726 24-08-2006 22:35:01 16.2 C 67 % 10.07 C
2727 24-08-2006 22:45:02 15.7 C 72 % 10.67 C
2728 24-08-2006 22:55:02 15.4 C 74 % 10.79 C
2729 24-08-2006 23:05:02 15 C 80 % 11.58 C
2730 24-08-2006 23:15:02 14.8 C 82 % 11.76 C
2731 24-08-2006 23:25:02 14.7 C 83 % 11.85 C
2732 24-08-2006 23:35:01 14.6 C 84 % 11.93 C
2733 24-08-2006 23:45:02 14.4 C 85 % 11.91 C
2734 24-08-2006 23:55:02 14.3 C 87 % 12.17 C
2735 25-08-2006 00:05:02 14.3 C 88 % 12.34 C
2736 25-08-2006 00:15:02 14.1 C 88 % 12.14 C
2737 25-08-2006 00:25:02 14 C 89 % 12.22 C
2738 25-08-2006 00:35:02 14 C 89 % 12.22 C
2739 25-08-2006 00:45:02 14 C 89 % 12.22 C
2740 25-08-2006 00:55:02 14 C 89 % 12.22 C
2741 25-08-2006 01:05:02 13.9 C 89 % 12.12 C
2742 25-08-2006 01:15:03 13.9 C 89 % 12.12 C
2743 25-08-2006 01:25:04 13.9 C 90 % 12.29 C
2744 25-08-2006 01:35:03 13.8 C 90 % 12.19 C
2745 25-08-2006 01:45:03 13.8 C 91 % 12.36 C
2746 25-08-2006 01:55:03 13.8 C 91 % 12.36 C
2747 25-08-2006 02:05:03 13.9 C 92 % 12.62 C
2748 25-08-2006 02:15:03 13.9 C 92 % 12.62 C
2749 25-08-2006 02:25:03 13.7 C 92 % 12.42 C
2750 25-08-2006 02:35:03 13.5 C 92 % 12.23 C
Sensor: Nr:Datum:Temp:Feuchte:Taupunkt:
Aussen-T/F 2751 25-08-2006 02:46:03 13.8 C 92 % 12.52 C
2752 25-08-2006 02:56:03 13.7 C 91 % 12.26 C
2753 25-08-2006 03:06:03 13.7 C 90 % 12.09 C
2754 25-08-2006 03:16:03 13.8 C 89 % 12.02 C
2755 25-08-2006 03:26:03 13.8 C 88 % 11.85 C
2756 25-08-2006 03:36:02 13.9 C 88 % 11.95 C
2757 25-08-2006 03:46:02 13.9 C 88 % 11.95 C
2758 25-08-2006 03:56:02 13.9 C 89 % 12.12 C
2759 25-08-2006 04:06:02 13.9 C 89 % 12.12 C
2760 25-08-2006 04:16:02 13.9 C 90 % 12.29 C
2761 25-08-2006 04:26:03 13.9 C 90 % 12.29 C
2762 25-08-2006 04:36:02 13.9 C 90 % 12.29 C
2763 25-08-2006 04:46:03 13.9 C 90 % 12.29 C
2764 25-08-2006 04:56:03 13.9 C 90 % 12.29 C
2765 25-08-2006 05:06:02 13.9 C 89 % 12.12 C
2766 25-08-2006 05:16:03 13.9 C 90 % 12.29 C
2767 25-08-2006 05:26:03 13.8 C 90 % 12.19 C
2768 25-08-2006 05:36:03 13.7 C 90 % 12.09 C
2769 25-08-2006 05:46:01 13.7 C 91 % 12.26 C
2770 25-08-2006 05:56:01 13.6 C 91 % 12.16 C
2771 25-08-2006 06:06:02 13.6 C 91 % 12.16 C
2772 25-08-2006 06:16:02 13.5 C 91 % 12.06 C
2773 25-08-2006 06:26:02 13.5 C 91 % 12.06 C
2774 25-08-2006 06:36:02 13.5 C 92 % 12.23 C
2775 25-08-2006 06:46:02 13.5 C 92 % 12.23 C
Sensor: Nr:Datum:Temp:Feuchte:Taupunkt:
Aussen-T/F 2776 25-08-2006 06:56:02 13.5 C 92 % 12.23 C
2777 25-08-2006 07:06:02 13.5 C 92 % 12.23 C
2778 25-08-2006 07:16:02 13.4 C 92 % 12.13 C
2779 25-08-2006 07:26:02 13.4 C 92 % 12.13 C
2780 25-08-2006 07:36:03 13.4 C 92 % 12.13 C
2781 25-08-2006 07:46:03 13.3 C 92 % 12.03 C
2782 25-08-2006 07:56:03 13.4 C 92 % 12.13 C
2783 25-08-2006 08:06:02 13.8 C 92 % 12.52 C
2784 25-08-2006 08:16:02 14 C 92 % 12.72 C
2785 25-08-2006 08:26:02 14.2 C 90 % 12.58 C
2786 25-08-2006 08:36:03 14.3 C 89 % 12.51 C
2787 25-08-2006 08:46:01 14.4 C 88 % 12.44 C
2788 25-08-2006 08:56:01 14.5 C 87 % 12.36 C
2789 25-08-2006 09:06:02 14.6 C 86 % 12.29 C
2790 25-08-2006 09:16:02 14.5 C 86 % 12.19 C
2791 25-08-2006 09:26:02 14.9 C 87 % 12.76 C
2792 25-08-2006 09:36:02 15.3 C 85 % 12.79 C
2793 25-08-2006 09:46:02 16.1 C 80 % 12.65 C
2794 25-08-2006 09:56:02 15.8 C 79 % 12.17 C
2795 25-08-2006 10:06:01 15.9 C 80 % 12.46 C
2796 25-08-2006 10:16:01 16.1 C 79 % 12.46 C
2797 25-08-2006 10:26:01 16.4 C 78 % 12.56 C
2798 25-08-2006 10:36:01 17 C 74 % 12.34 C
2799 25-08-2006 10:46:02 17.2 C 71 % 11.9 C
2800 25-08-2006 10:56:02 18.1 C 66 % 11.65 C
Sensor: Nr:Datum:Temp:Feuchte:Taupunkt:
Aussen-T/F 2801 25-08-2006 11:06:02 18.6 C 66 % 12.13 C
2802 25-08-2006 11:16:01 18.3 C 63 % 11.14 C
2803 25-08-2006 11:26:01 18.5 C 68 % 12.49 C
2804 25-08-2006 11:36:01 18.3 C 69 % 12.52 C
2805 25-08-2006 11:46:02 18.2 C 68 % 12.2 C
2806 25-08-2006 11:56:02 19.1 C 68 % 13.06 C
2807 25-08-2006 12:06:02 19.6 C 63 % 12.37 C
2808 25-08-2006 12:16:01 19.6 C 62 % 12.13 C
2809 25-08-2006 12:26:01 19.8 C 62 % 12.31 C
2810 25-08-2006 12:36:01 20.9 C 56 % 11.8 C
2811 25-08-2006 12:46:02 21.2 C 52 % 10.96 C
2812 25-08-2006 12:56:02 21.3 C 49 % 10.16 C
2813 25-08-2006 13:06:02 21.4 C 50 % 10.55 C
2814 25-08-2006 13:16:02 21.6 C 48 % 10.13 C
2815 25-08-2006 13:26:03 21.9 C 48 % 10.4 C
2816 25-08-2006 13:36:01 21.9 C 47 % 10.09 C
2817 25-08-2006 13:46:02 21.7 C 47 % 9.9 C
2818 25-08-2006 13:56:02 21.7 C 48 % 10.22 C
2819 25-08-2006 14:06:02 21.7 C 50 % 10.83 C
2820 25-08-2006 14:16:02 22 C 46 % 9.86 C
2821 25-08-2006 14:26:02 21.9 C 50 % 11.01 C
2822 25-08-2006 14:36:01 22.7 C 43 % 9.49 C
2823 25-08-2006 14:46:02 21.3 C 48 % 9.85 C
2824 25-08-2006 14:56:02 20.7 C 54 % 11.07 C
2825 25-08-2006 15:06:02 20.4 C 55 % 11.06 C
Sensor: Nr:Datum:Temp:Feuchte:Taupunkt:
Aussen-T/F 2826 25-08-2006 15:16:02 20.6 C 54 % 10.97 C
2827 25-08-2006 15:26:02 20.5 C 54 % 10.88 C
2828 25-08-2006 15:36:02 19.8 C 56 % 10.78 C
2829 25-08-2006 15:46:02 19.3 C 58 % 10.84 C
2830 25-08-2006 15:56:02 19 C 59 % 10.81 C
2831 25-08-2006 16:06:03 19.2 C 62 % 11.75 C
2832 25-08-2006 16:16:03 19.3 C 62 % 11.84 C
2833 25-08-2006 16:26:03 19.1 C 63 % 11.9 C
2834 25-08-2006 16:36:02 19.1 C 64 % 12.14 C
2835 25-08-2006 16:46:02 19 C 64 % 12.04 C
2836 25-08-2006 16:56:02 19.1 C 64 % 12.14 C
2837 25-08-2006 17:06:02 19.2 C 63 % 11.99 C
2838 25-08-2006 17:16:02 19.8 C 60 % 11.82 C
2839 25-08-2006 17:26:02 20.1 C 59 % 11.84 C
2840 25-08-2006 17:36:02 20.5 C 59 % 12.22 C
2841 25-08-2006 17:46:02 20.6 C 57 % 11.79 C
2842 25-08-2006 17:56:02 20 C 59 % 11.75 C
2843 25-08-2006 18:06:02 20.1 C 59 % 11.84 C
2844 25-08-2006 18:16:02 19.8 C 61 % 12.07 C
2845 25-08-2006 18:26:02 20 C 60 % 12 C
2846 25-08-2006 18:36:02 19.4 C 63 % 12.18 C
2847 25-08-2006 18:46:03 19.3 C 64 % 12.32 C
2848 25-08-2006 18:56:03 19.1 C 64 % 12.14 C
2849 25-08-2006 19:06:03 18.6 C 63 % 11.42 C
2850 25-08-2006 19:16:02 18.4 C 64 % 11.47 C
Sensor: Nr:Datum:Temp:Feuchte:Taupunkt:
Aussen-T/F 2851 25-08-2006 19:26:02 18.4 C 65 % 11.71 C
2852 25-08-2006 19:36:03 17.4 C 76 % 13.13 C
2853 25-08-2006 19:46:02 17 C 81 % 13.72 C
2854 25-08-2006 19:56:02 16.6 C 84 % 13.89 C
2855 25-08-2006 20:06:03 16.8 C 86 % 14.45 C
2856 25-08-2006 20:16:02 16.6 C 87 % 14.43 C
2857 25-08-2006 20:26:02 16.5 C 89 % 14.68 C
2858 25-08-2006 20:36:02 16.4 C 89 % 14.58 C
2859 25-08-2006 20:46:02 16.4 C 90 % 14.76 C
2860 25-08-2006 20:56:02 16.5 C 91 % 15.03 C
2861 25-08-2006 21:06:02 16.5 C 91 % 15.03 C
2862 25-08-2006 21:16:01 15.9 C 91 % 14.43 C
2863 25-08-2006 21:26:01 15.3 C 91 % 13.84 C
2864 25-08-2006 21:37:20 15.2 C 91 % 13.74 C
2865 25-08-2006 21:47:20 15.4 C 92 % 14.11 C
2866 25-08-2006 21:57:20 15.4 C 92 % 14.11 C
2867 25-08-2006 22:07:20 15.2 C 92 % 13.91 C
2868 25-08-2006 22:17:20 15.2 C 93 % 14.08 C
2869 25-08-2006 22:27:20 15.2 C 93 % 14.08 C
2870 25-08-2006 22:37:20 15.3 C 93 % 14.18 C
2871 25-08-2006 22:47:20 15.4 C 93 % 14.27 C
2872 25-08-2006 22:57:20 15.2 C 93 % 14.08 C
2873 25-08-2006 23:07:20 15.4 C 93 % 14.27 C
2874 25-08-2006 23:17:20 15.4 C 94 % 14.44 C
2875 25-08-2006 23:27:20 15.4 C 94 % 14.44 C
Sensor: Nr:Datum:Temp:Feuchte:Taupunkt:
Aussen-T/F 2876 25-08-2006 23:37:20 15.4 C 94 % 14.44 C
2877 25-08-2006 23:47:20 15.5 C 94 % 14.54 C
2878 25-08-2006 23:57:20 15.5 C 94 % 14.54 C
2879 26-08-2006 00:07:20 15.5 C 94 % 14.54 C
2880 26-08-2006 00:17:21 15.4 C 94 % 14.44 C
2881 26-08-2006 00:27:21 15.3 C 94 % 14.34 C
2882 26-08-2006 00:37:21 15.3 C 94 % 14.34 C
2883 26-08-2006 00:47:21 15.3 C 94 % 14.34 C
2884 26-08-2006 00:57:21 15.3 C 94 % 14.34 C
2885 26-08-2006 01:07:21 15.2 C 94 % 14.24 C
2886 26-08-2006 01:17:21 15.1 C 93 % 13.98 C
2887 26-08-2006 01:27:21 15.1 C 93 % 13.98 C
2888 26-08-2006 01:37:21 15 C 93 % 13.88 C
2889 26-08-2006 01:47:21 14.9 C 94 % 13.94 C
2890 26-08-2006 01:57:21 14.8 C 94 % 13.84 C
2891 26-08-2006 02:07:21 14.7 C 94 % 13.74 C
2892 26-08-2006 02:17:21 14.6 C 94 % 13.65 C
2893 26-08-2006 02:27:21 14.5 C 94 % 13.55 C
2894 26-08-2006 02:37:21 14.4 C 94 % 13.45 C
2895 26-08-2006 02:47:21 14.3 C 93 % 13.18 C
2896 26-08-2006 02:57:21 14.2 C 93 % 13.08 C
2897 26-08-2006 03:07:21 14.2 C 93 % 13.08 C
2898 26-08-2006 03:17:22 14.1 C 93 % 12.99 C
2899 26-08-2006 03:27:22 13.9 C 93 % 12.79 C
2900 26-08-2006 03:37:22 13.8 C 93 % 12.69 C
Sensor: Nr:Datum:Temp:Feuchte:Taupunkt:
Aussen-T/F 2901 26-08-2006 03:47:22 13.7 C 93 % 12.59 C
2902 26-08-2006 03:57:22 13.6 C 93 % 12.49 C
2903 26-08-2006 04:07:22 13.5 C 93 % 12.39 C
2904 26-08-2006 04:17:22 13.4 C 93 % 12.29 C
2905 26-08-2006 04:27:22 13.4 C 94 % 12.45 C
2906 26-08-2006 04:37:22 13.5 C 94 % 12.55 C
2907 26-08-2006 04:47:22 13.4 C 94 % 12.45 C
2908 26-08-2006 04:57:22 13.4 C 94 % 12.45 C
2909 26-08-2006 05:07:22 13.4 C 94 % 12.45 C
2910 26-08-2006 05:17:22 13.5 C 94 % 12.55 C
2911 26-08-2006 05:27:22 13.4 C 94 % 12.45 C
2912 26-08-2006 05:37:22 13.4 C 94 % 12.45 C
2913 26-08-2006 05:47:22 13.4 C 94 % 12.45 C
2914 26-08-2006 05:57:22 13.3 C 94 % 12.36 C
2915 26-08-2006 06:07:22 13.3 C 94 % 12.36 C
2916 26-08-2006 06:17:23 13.3 C 94 % 12.36 C
2917 26-08-2006 06:27:23 13.2 C 94 % 12.26 C
2918 26-08-2006 06:37:23 13.2 C 94 % 12.26 C
2919 26-08-2006 06:47:23 13.2 C 94 % 12.26 C
2920 26-08-2006 06:57:23 13.1 C 94 % 12.16 C
2921 26-08-2006 07:07:23 13.1 C 94 % 12.16 C
2922 26-08-2006 07:17:23 13.2 C 94 % 12.26 C
2923 26-08-2006 07:27:23 13.3 C 94 % 12.36 C
2924 26-08-2006 07:37:23 13.4 C 94 % 12.45 C
2925 26-08-2006 07:47:23 13.5 C 95 % 12.72 C
Sensor: Nr:Datum:Temp:Feuchte:Taupunkt:
Aussen-T/F 2926 26-08-2006 07:57:23 13.6 C 95 % 12.81 C
2927 26-08-2006 08:07:23 13.7 C 95 % 12.91 C
2928 26-08-2006 08:17:23 13.6 C 94 % 12.65 C
2929 26-08-2006 08:27:23 13.8 C 94 % 12.85 C
2930 26-08-2006 08:37:23 14 C 94 % 13.05 C
2931 26-08-2006 08:47:23 14.1 C 93 % 12.99 C
2932 26-08-2006 08:57:23 14.2 C 93 % 13.08 C
2933 26-08-2006 09:07:23 14.4 C 93 % 13.28 C
2934 26-08-2006 09:17:24 14.7 C 92 % 13.41 C
2935 26-08-2006 09:27:24 14.9 C 91 % 13.44 C
2936 26-08-2006 09:37:24 15.1 C 88 % 13.13 C
2937 26-08-2006 09:47:24 15.5 C 84 % 12.81 C
2938 26-08-2006 09:57:24 15.7 C 82 % 12.64 C
2939 26-08-2006 10:07:24 16.4 C 79 % 12.75 C
2940 26-08-2006 10:17:24 16.7 C 77 % 12.65 C
2941 26-08-2006 10:27:02 16.8 C 78 % 12.94 C
2942 26-08-2006 10:37:02 17.4 C 74 % 12.72 C
2943 26-08-2006 10:47:02 18.2 C 70 % 12.64 C
2944 26-08-2006 10:57:02 18.6 C 68 % 12.58 C
2945 26-08-2006 11:07:01 18.4 C 67 % 12.17 C
2946 26-08-2006 11:17:02 18.4 C 68 % 12.39 C
2947 26-08-2006 11:27:02 18.2 C 68 % 12.2 C
2948 26-08-2006 11:37:02 18.8 C 69 % 13 C
2949 26-08-2006 11:47:02 19.2 C 65 % 12.47 C
2950 26-08-2006 11:57:02 19.5 C 61 % 11.78 C
Sensor: Nr:Datum:Temp:Feuchte:Taupunkt:
Aussen-T/F 2951 26-08-2006 12:07:03 19.8 C 58 % 11.3 C
2952 26-08-2006 12:17:03 19.8 C 58 % 11.3 C
2953 26-08-2006 12:27:03 20 C 55 % 10.69 C
2954 26-08-2006 12:37:02 20.5 C 52 % 10.31 C
2955 26-08-2006 12:47:02 20.9 C 53 % 10.97 C
2956 26-08-2006 12:57:03 20.8 C 52 % 10.59 C
2957 26-08-2006 13:07:01 20.8 C 50 % 10 C
2958 26-08-2006 13:17:02 21.5 C 49 % 10.34 C
2959 26-08-2006 13:27:02 22 C 46 % 9.86 C
2960 26-08-2006 13:37:02 22.5 C 47 % 10.63 C
2961 26-08-2006 13:47:02 22 C 44 % 9.2 C
2962 26-08-2006 13:57:02 21.7 C 46 % 9.58 C
2963 26-08-2006 14:07:02 21.7 C 50 % 10.83 C
2964 26-08-2006 14:17:02 21.4 C 48 % 9.94 C
2965 26-08-2006 14:27:02 21.4 C 46 % 9.31 C
2966 26-08-2006 14:37:03 21.6 C 48 % 10.13 C
2967 26-08-2006 14:47:02 21.9 C 47 % 10.09 C
2968 26-08-2006 14:57:02 22.3 C 44 % 9.47 C
2969 26-08-2006 15:07:03 22.5 C 43 % 9.31 C
2970 26-08-2006 15:17:02 22.7 C 47 % 10.81 C
2971 26-08-2006 15:27:02 23 C 42 % 9.41 C
2972 26-08-2006 15:37:02 22.9 C 39 % 8.22 C
2973 26-08-2006 15:47:02 22.6 C 40 % 8.33 C
2974 26-08-2006 15:57:02 22.3 C 40 % 8.06 C
2975 26-08-2006 16:07:03 22.3 C 39 % 7.69 C
Sensor: Nr:Datum:Temp:Feuchte:Taupunkt:
Aussen-T/F 2976 26-08-2006 16:17:02 22.5 C 40 % 8.24 C
2977 26-08-2006 16:27:02 21.9 C 39 % 7.33 C
2978 26-08-2006 16:37:02 21.8 C 38 % 6.86 C
2979 26-08-2006 16:47:02 22.3 C 45 % 9.8 C
2980 26-08-2006 16:57:02 22.7 C 45 % 10.16 C
2981 26-08-2006 17:07:03 22.6 C 46 % 10.4 C
2982 26-08-2006 17:17:02 22.2 C 51 % 11.59 C
2983 26-08-2006 17:27:02 21.5 C 46 % 9.4 C
2984 26-08-2006 17:37:02 20.6 C 47 % 8.9 C
2985 26-08-2006 17:47:01 20 C 48 % 8.67 C
2986 26-08-2006 17:57:01 19.2 C 50 % 8.53 C
2987 26-08-2006 18:07:01 19 C 52 % 8.93 C
2988 26-08-2006 18:17:02 18.4 C 55 % 9.2 C
2989 26-08-2006 18:27:02 17.8 C 58 % 9.43 C
2990 26-08-2006 18:37:02 17.9 C 60 % 10.03 C
2991 26-08-2006 18:47:02 17.9 C 60 % 10.03 C
2992 26-08-2006 18:57:02 17.9 C 59 % 9.78 C
2993 26-08-2006 19:07:03 17.7 C 60 % 9.84 C
2994 26-08-2006 19:17:02 17.6 C 62 % 10.24 C
2995 26-08-2006 19:27:03 17.8 C 62 % 10.43 C
2996 26-08-2006 19:37:02 17.2 C 63 % 10.1 C
2997 26-08-2006 19:47:01 17.2 C 63 % 10.1 C
2998 26-08-2006 19:57:01 17 C 63 % 9.91 C
2999 26-08-2006 20:07:02 17 C 62 % 9.67 C
3000 26-08-2006 20:17:01 16.8 C 63 % 9.72 C
Sensor: Nr:Datum:Temp:Feuchte:Taupunkt:
Aussen-T/F 3001 26-08-2006 20:27:01 16.6 C 63 % 9.53 C
3002 26-08-2006 20:37:02 16.3 C 66 % 9.94 C
3003 26-08-2006 20:47:02 16.1 C 68 % 10.2 C
3004 26-08-2006 20:57:03 15.8 C 70 % 10.34 C
3005 26-08-2006 21:07:02 15.8 C 72 % 10.77 C
3006 26-08-2006 21:17:03 15.9 C 72 % 10.86 C
3007 26-08-2006 21:27:03 15.9 C 71 % 10.65 C
3008 26-08-2006 21:37:02 15.8 C 71 % 10.56 C
3009 26-08-2006 21:47:01 15.8 C 71 % 10.56 C
3010 26-08-2006 21:57:01 15.8 C 72 % 10.77 C
3011 26-08-2006 22:07:02 15.6 C 72 % 10.57 C
3012 26-08-2006 22:17:02 15.4 C 73 % 10.59 C
3013 26-08-2006 22:27:02 15.2 C 74 % 10.6 C
3014 26-08-2006 22:37:01 15.2 C 75 % 10.8 C
3015 26-08-2006 22:47:02 14.9 C 78 % 11.1 C
3016 26-08-2006 22:57:02 14.8 C 78 % 11 C
3017 26-08-2006 23:07:02 14.9 C 79 % 11.29 C
3018 26-08-2006 23:17:02 14.8 C 79 % 11.2 C
3019 26-08-2006 23:27:02 14.8 C 81 % 11.57 C
3020 26-08-2006 23:37:02 14.9 C 82 % 11.86 C
3021 26-08-2006 23:47:01 15 C 82 % 11.95 C
3022 26-08-2006 23:57:01 15 C 81 % 11.77 C
3023 27-08-2006 00:07:02 15 C 82 % 11.95 C
3024 27-08-2006 00:17:02 15.3 C 83 % 12.43 C
3025 27-08-2006 00:27:02 15.1 C 83 % 12.24 C
Sensor: Nr:Datum:Temp:Feuchte:Taupunkt:
Aussen-T/F 3026 27-08-2006 00:37:02 15.3 C 83 % 12.43 C
3027 27-08-2006 00:47:03 15.2 C 83 % 12.33 C
3028 27-08-2006 00:57:03 15.3 C 83 % 12.43 C
3029 27-08-2006 01:07:03 15.3 C 83 % 12.43 C
3030 27-08-2006 01:17:02 15.3 C 82 % 12.25 C
3031 27-08-2006 01:27:02 15 C 82 % 11.95 C
3032 27-08-2006 01:37:03 15 C 82 % 11.95 C
3033 27-08-2006 01:47:01 14.9 C 83 % 12.04 C
3034 27-08-2006 01:57:01 14.9 C 82 % 11.86 C
3035 27-08-2006 02:07:01 14.8 C 82 % 11.76 C
3036 27-08-2006 02:17:02 14.8 C 82 % 11.76 C
3037 27-08-2006 02:27:02 14.9 C 82 % 11.86 C
3038 27-08-2006 02:37:02 14.8 C 83 % 11.94 C
3039 27-08-2006 02:48:03 14.7 C 83 % 11.85 C
3040 27-08-2006 02:58:03 14.7 C 83 % 11.85 C
3041 27-08-2006 03:08:03 14.7 C 83 % 11.85 C
3042 27-08-2006 03:18:04 14.6 C 83 % 11.75 C
3043 27-08-2006 03:28:04 14.5 C 83 % 11.65 C
3044 27-08-2006 03:38:03 14.5 C 83 % 11.65 C
3045 27-08-2006 03:48:03 14.4 C 84 % 11.73 C
3046 27-08-2006 03:58:03 14.4 C 84 % 11.73 C
3047 27-08-2006 04:08:02 14.3 C 84 % 11.64 C
3048 27-08-2006 04:18:02 14.2 C 84 % 11.54 C
3049 27-08-2006 04:28:02 14.1 C 84 % 11.44 C
3050 27-08-2006 04:38:02 14.1 C 85 % 11.62 C
Sensor: Nr:Datum:Temp:Feuchte:Taupunkt:
Aussen-T/F 3051 27-08-2006 04:48:02 14 C 85 % 11.52 C
3052 27-08-2006 04:58:02 14.1 C 85 % 11.62 C
3053 27-08-2006 05:08:02 14.1 C 85 % 11.62 C
3054 27-08-2006 05:18:03 14.2 C 85 % 11.72 C
3055 27-08-2006 05:28:03 14.1 C 85 % 11.62 C
3056 27-08-2006 05:38:03 14.1 C 85 % 11.62 C
3057 27-08-2006 05:48:01 14.2 C 84 % 11.54 C
3058 27-08-2006 05:58:01 14.2 C 84 % 11.54 C
3059 27-08-2006 06:08:02 14.2 C 84 % 11.54 C
3060 27-08-2006 06:18:02 14.2 C 84 % 11.54 C
3061 27-08-2006 06:28:02 14.1 C 85 % 11.62 C
3062 27-08-2006 06:38:02 13.9 C 88 % 11.95 C
3063 27-08-2006 06:48:02 13.8 C 89 % 12.02 C
3064 27-08-2006 06:58:02 13.7 C 90 % 12.09 C
3065 27-08-2006 07:08:01 13.8 C 91 % 12.36 C
3066 27-08-2006 07:18:02 13.8 C 91 % 12.36 C
3067 27-08-2006 07:28:02 13.9 C 91 % 12.46 C
3068 27-08-2006 07:38:02 14 C 90 % 12.39 C
3069 27-08-2006 07:48:02 14.1 C 89 % 12.32 C
3070 27-08-2006 07:58:02 14.4 C 88 % 12.44 C
3071 27-08-2006 08:08:03 14.5 C 88 % 12.54 C
3072 27-08-2006 08:18:02 14.5 C 87 % 12.36 C
3073 27-08-2006 08:28:02 14.7 C 86 % 12.38 C
3074 27-08-2006 08:38:02 14.7 C 86 % 12.38 C
3075 27-08-2006 08:48:02 14.7 C 87 % 12.56 C
Sensor: Nr:Datum:Temp:Feuchte:Taupunkt:
Aussen-T/F 3076 27-08-2006 08:58:02 14.6 C 87 % 12.46 C
3077 27-08-2006 09:08:02 14.5 C 88 % 12.54 C
3078 27-08-2006 09:18:01 14.7 C 88 % 12.73 C
3079 27-08-2006 09:28:01 14.8 C 89 % 13.01 C
3080 27-08-2006 09:38:02 14.9 C 89 % 13.1 C
3081 27-08-2006 09:48:02 14.9 C 88 % 12.93 C
3082 27-08-2006 09:58:02 14.8 C 89 % 13.01 C
3083 27-08-2006 10:08:02 14.9 C 90 % 13.28 C
3084 27-08-2006 10:18:01 14.8 C 90 % 13.18 C
3085 27-08-2006 10:28:01 15 C 89 % 13.2 C
3086 27-08-2006 10:38:01 15.2 C 89 % 13.4 C
3087 27-08-2006 10:48:02 15.5 C 89 % 13.7 C
3088 27-08-2006 10:58:02 15.7 C 88 % 13.72 C
3089 27-08-2006 11:08:01 16.4 C 87 % 14.23 C
3090 27-08-2006 11:18:02 16.8 C 83 % 13.9 C
3091 27-08-2006 11:28:02 17.1 C 81 % 13.82 C
3092 27-08-2006 11:38:01 17.5 C 80 % 14.01 C
3093 27-08-2006 11:48:02 18.2 C 78 % 14.3 C
3094 27-08-2006 11:58:03 18 C 76 % 13.71 C
3095 27-08-2006 12:08:02 17.6 C 75 % 13.12 C
3096 27-08-2006 12:18:02 18.4 C 73 % 13.48 C
3097 27-08-2006 12:28:02 18.7 C 70 % 13.12 C
3098 27-08-2006 12:38:03 18.2 C 71 % 12.86 C
3099 27-08-2006 12:48:01 16.3 C 83 % 13.41 C
3100 27-08-2006 12:58:01 15.8 C 87 % 13.64 C
Sensor: Nr:Datum:Temp:Feuchte:Taupunkt:
Aussen-T/F 3101 27-08-2006 13:08:02 16.6 C 89 % 14.78 C
3102 27-08-2006 13:18:02 16.8 C 88 % 14.8 C
3103 27-08-2006 13:28:02 16.8 C 87 % 14.62 C
3104 27-08-2006 13:38:01 16.3 C 87 % 14.13 C
3105 27-08-2006 13:48:02 16.4 C 87 % 14.23 C
3106 27-08-2006 13:58:02 17.5 C 87 % 15.31 C
3107 27-08-2006 14:08:02 18.9 C 86 % 16.51 C
3108 27-08-2006 14:18:03 19.3 C 81 % 15.96 C
3109 27-08-2006 14:28:03 19.3 C 76 % 14.97 C
3110 27-08-2006 14:38:02 19.6 C 79 % 15.86 C
3111 27-08-2006 14:48:01 19.7 C 73 % 14.73 C
3112 27-08-2006 14:58:01 20 C 77 % 15.85 C
3113 27-08-2006 15:08:02 19.7 C 76 % 15.35 C
3114 27-08-2006 15:18:02 19.6 C 70 % 13.98 C
3115 27-08-2006 15:28:02 19.8 C 67 % 13.5 C
3116 27-08-2006 15:38:02 19.5 C 65 % 12.75 C
3117 27-08-2006 15:48:02 19.6 C 64 % 12.61 C
3118 27-08-2006 15:58:02 20.4 C 61 % 12.63 C
3119 27-08-2006 16:08:02 20.5 C 58 % 11.96 C
3120 27-08-2006 16:18:03 20.1 C 55 % 10.78 C
3121 27-08-2006 16:28:03 20.2 C 55 % 10.88 C
3122 27-08-2006 16:38:03 20.8 C 55 % 11.43 C
3123 27-08-2006 16:48:02 20 C 55 % 10.69 C
3124 27-08-2006 16:58:02 18 C 62 % 10.62 C
3125 27-08-2006 17:08:03 17.2 C 73 % 12.32 C
Sensor: Nr:Datum:Temp:Feuchte:Taupunkt:
Aussen-T/F 3126 27-08-2006 17:18:03 17.5 C 75 % 13.02 C
3127 27-08-2006 17:28:03 17.7 C 74 % 13.01 C
3128 27-08-2006 17:38:02 17.7 C 76 % 13.42 C
3129 27-08-2006 17:48:02 17.2 C 77 % 13.14 C
3130 27-08-2006 17:58:02 17.1 C 79 % 13.43 C
3131 27-08-2006 18:08:02 16.8 C 80 % 13.33 C
3132 27-08-2006 18:18:02 16.7 C 81 % 13.43 C
3133 27-08-2006 18:28:02 17.1 C 78 % 13.24 C
3134 27-08-2006 18:38:02 17.7 C 77 % 13.62 C
3135 27-08-2006 18:48:02 17.8 C 74 % 13.11 C
3136 27-08-2006 18:58:02 17.7 C 73 % 12.8 C
3137 27-08-2006 19:08:03 17.7 C 75 % 13.22 C
3138 27-08-2006 19:18:02 16.8 C 64 % 9.96 C
3139 27-08-2006 19:28:02 16.5 C 65 % 9.9 C
3140 27-08-2006 19:38:02 16.2 C 69 % 10.51 C
3141 27-08-2006 19:48:02 15.7 C 77 % 11.68 C
3142 27-08-2006 19:58:02 15.7 C 78 % 11.88 C
3143 27-08-2006 20:08:02 15.8 C 76 % 11.58 C
3144 27-08-2006 20:18:02 16 C 74 % 11.37 C
3145 27-08-2006 20:28:02 15.8 C 75 % 11.38 C
3146 27-08-2006 20:38:02 15.6 C 76 % 11.39 C
3147 27-08-2006 20:48:02 15.2 C 78 % 11.39 C
3148 27-08-2006 20:58:02 14.9 C 80 % 11.48 C
3149 27-08-2006 21:08:02 14.8 C 81 % 11.57 C
3150 27-08-2006 21:18:02 14.4 C 83 % 11.55 C
Sensor: Nr:Datum:Temp:Feuchte:Taupunkt:
Aussen-T/F 3151 27-08-2006 21:28:02 14.3 C 83 % 11.45 C
3152 27-08-2006 21:38:03 14.1 C 84 % 11.44 C
3153 27-08-2006 21:48:02 13.9 C 85 % 11.42 C
3154 27-08-2006 21:58:02 13.8 C 86 % 11.5 C
3155 27-08-2006 22:08:02 13.8 C 87 % 11.68 C
3156 27-08-2006 22:18:02 14 C 87 % 11.87 C
3157 27-08-2006 22:28:02 13.9 C 88 % 11.95 C
3158 27-08-2006 22:38:02 13.9 C 87 % 11.77 C
3159 27-08-2006 22:48:03 13.9 C 87 % 11.77 C
3160 27-08-2006 22:58:03 14 C 86 % 11.7 C
3161 27-08-2006 23:08:02 14.1 C 86 % 11.8 C
3162 27-08-2006 23:18:02 14.2 C 85 % 11.72 C
3163 27-08-2006 23:28:02 14.2 C 86 % 11.89 C
3164 27-08-2006 23:38:02 14.1 C 86 % 11.8 C
3165 27-08-2006 23:48:02 14.1 C 87 % 11.97 C
3166 27-08-2006 23:58:02 14.1 C 87 % 11.97 C
3167 28-08-2006 00:08:01 14 C 88 % 12.05 C
3168 28-08-2006 00:18:02 13.9 C 89 % 12.12 C
3169 28-08-2006 00:28:02 13.9 C 90 % 12.29 C
3170 28-08-2006 00:38:01 13.8 C 90 % 12.19 C
3171 28-08-2006 00:48:03 13.8 C 91 % 12.36 C
3172 28-08-2006 00:58:03 13.8 C 91 % 12.36 C
3173 28-08-2006 01:08:03 13.7 C 92 % 12.42 C
3174 28-08-2006 01:18:02 13.6 C 92 % 12.33 C
3175 28-08-2006 01:28:02 13.4 C 92 % 12.13 C
Sensor: Nr:Datum:Temp:Feuchte:Taupunkt:
Aussen-T/F 3176 28-08-2006 01:38:02 13.3 C 92 % 12.03 C
3177 28-08-2006 01:48:02 13.3 C 93 % 12.19 C
3178 28-08-2006 01:58:02 13.1 C 92 % 11.83 C
3179 28-08-2006 02:08:02 13 C 93 % 11.9 C
3180 28-08-2006 02:18:02 13.1 C 93 % 11.99 C
3181 28-08-2006 02:28:03 13.1 C 93 % 11.99 C
3182 28-08-2006 02:38:02 13.2 C 94 % 12.26 C
3183 28-08-2006 02:49:03 13.3 C 94 % 12.36 C
3184 28-08-2006 02:59:03 13.4 C 94 % 12.45 C
3185 28-08-2006 03:09:03 13.4 C 94 % 12.45 C
3186 28-08-2006 03:19:03 13.4 C 94 % 12.45 C
3187 28-08-2006 03:29:03 13.4 C 94 % 12.45 C
3188 28-08-2006 03:39:02 13.5 C 95 % 12.72 C
3189 28-08-2006 03:49:02 13.5 C 95 % 12.72 C
3190 28-08-2006 03:59:02 13.6 C 95 % 12.81 C
3191 28-08-2006 04:09:02 13.6 C 95 % 12.81 C
3192 28-08-2006 04:19:02 13.7 C 95 % 12.91 C
3193 28-08-2006 04:29:02 13.7 C 95 % 12.91 C
3194 28-08-2006 04:39:02 13.7 C 94 % 12.75 C
3195 28-08-2006 04:49:02 13.7 C 94 % 12.75 C
3196 28-08-2006 04:59:02 13.7 C 93 % 12.59 C
3197 28-08-2006 05:09:02 13.7 C 92 % 12.42 C
3198 28-08-2006 05:19:02 13.7 C 92 % 12.42 C
3199 28-08-2006 05:29:02 13.8 C 91 % 12.36 C
3200 28-08-2006 05:39:01 13.8 C 91 % 12.36 C
Sensor: Nr:Datum:Temp:Feuchte:Taupunkt:
Aussen-T/F 3201 28-08-2006 05:49:03 13.9 C 89 % 12.12 C
3202 28-08-2006 05:59:03 13.9 C 88 % 11.95 C
3203 28-08-2006 06:09:03 13.8 C 87 % 11.68 C
3204 28-08-2006 06:19:02 13.9 C 87 % 11.77 C
3205 28-08-2006 06:29:02 13.9 C 86 % 11.6 C
3206 28-08-2006 06:39:02 13.9 C 86 % 11.6 C
3207 28-08-2006 06:49:02 14 C 84 % 11.34 C
3208 28-08-2006 06:59:03 14.2 C 83 % 11.36 C
3209 28-08-2006 07:09:02 14.2 C 82 % 11.17 C
3210 28-08-2006 07:19:01 14.2 C 82 % 11.17 C
3211 28-08-2006 07:29:01 14.4 C 80 % 11 C
3212 28-08-2006 07:39:02 14.5 C 80 % 11.09 C
3213 28-08-2006 07:49:02 14.5 C 80 % 11.09 C
3214 28-08-2006 07:59:02 14.6 C 79 % 11 C
3215 28-08-2006 08:09:02 14.7 C 79 % 11.1 C
3216 28-08-2006 08:19:02 14.7 C 79 % 11.1 C
3217 28-08-2006 08:29:02 14.7 C 79 % 11.1 C
3218 28-08-2006 08:39:01 14.7 C 78 % 10.91 C
3219 28-08-2006 08:49:02 14.7 C 78 % 10.91 C
3220 28-08-2006 08:59:02 14.8 C 78 % 11 C
3221 28-08-2006 09:09:02 15.1 C 76 % 10.9 C
3222 28-08-2006 09:19:02 15.4 C 74 % 10.79 C
3223 28-08-2006 09:29:02 15.3 C 74 % 10.7 C
3224 28-08-2006 09:39:02 15.4 C 74 % 10.79 C
3225 28-08-2006 09:49:02 15.4 C 74 % 10.79 C
Sensor: Nr:Datum:Temp:Feuchte:Taupunkt:
Aussen-T/F 3226 28-08-2006 09:59:02 15 C 76 % 10.81 C
3227 28-08-2006 10:09:02 14.8 C 80 % 11.39 C
3228 28-08-2006 10:19:02 15.2 C 78 % 11.39 C
3229 28-08-2006 10:29:02 15.8 C 74 % 11.18 C
3230 28-08-2006 10:39:02 16.4 C 71 % 11.13 C
3231 28-08-2006 10:49:02 16.4 C 69 % 10.7 C
3232 28-08-2006 10:59:02 16.1 C 72 % 11.06 C
3233 28-08-2006 11:09:01 15.6 C 76 % 11.39 C
3234 28-08-2006 11:19:01 15 C 79 % 11.39 C
3235 28-08-2006 11:29:01 14.7 C 81 % 11.48 C
3236 28-08-2006 11:39:01 14.5 C 83 % 11.65 C
3237 28-08-2006 11:49:01 14.4 C 84 % 11.73 C
3238 28-08-2006 11:59:01 14.3 C 85 % 11.81 C
3239 28-08-2006 12:09:01 14.2 C 85 % 11.72 C
3240 28-08-2006 12:19:01 14.2 C 85 % 11.72 C
3241 28-08-2006 12:29:01 13.9 C 86 % 11.6 C
3242 28-08-2006 12:39:02 13.8 C 85 % 11.32 C
3243 28-08-2006 12:49:03 13.7 C 86 % 11.4 C
3244 28-08-2006 12:59:03 13.5 C 85 % 11.03 C
3245 28-08-2006 13:09:02 13.4 C 85 % 10.93 C
3246 28-08-2006 13:19:02 13.4 C 85 % 10.93 C
3247 28-08-2006 13:29:02 13.5 C 85 % 11.03 C
3248 28-08-2006 13:39:02 13.4 C 85 % 10.93 C
3249 28-08-2006 13:49:02 13.5 C 86 % 11.21 C
3250 28-08-2006 13:59:02 13.7 C 86 % 11.4 C
Sensor: Nr:Datum:Temp:Feuchte:Taupunkt:
Aussen-T/F 3251 28-08-2006 14:09:01 13.7 C 85 % 11.23 C
3252 28-08-2006 14:19:01 14.7 C 86 % 12.38 C
3253 28-08-2006 14:29:01 15.5 C 81 % 12.26 C
3254 28-08-2006 14:39:01 15.2 C 78 % 11.39 C
3255 28-08-2006 14:49:02 14.9 C 78 % 11.1 C
3256 28-08-2006 14:59:02 14.8 C 79 % 11.2 C
3257 28-08-2006 15:09:02 15.1 C 78 % 11.3 C
3258 28-08-2006 15:19:02 15.3 C 77 % 11.3 C
3259 28-08-2006 15:29:02 15.2 C 76 % 11 C
3260 28-08-2006 15:39:02 15.2 C 76 % 11 C
3261 28-08-2006 15:49:02 14.9 C 79 % 11.29 C
3262 28-08-2006 15:59:02 14.7 C 79 % 11.1 C
3263 28-08-2006 16:09:02 15 C 77 % 11 C
3264 28-08-2006 16:19:02 15 C 77 % 11 C
3265 28-08-2006 16:29:02 15.2 C 78 % 11.39 C
3266 28-08-2006 16:39:02 15.4 C 77 % 11.39 C
3267 28-08-2006 16:49:01 15.3 C 77 % 11.3 C
3268 28-08-2006 16:59:02 16 C 74 % 11.37 C
3269 28-08-2006 17:09:02 17 C 71 % 11.71 C
3270 28-08-2006 17:19:02 16.7 C 71 % 11.42 C
3271 28-08-2006 17:29:02 16.7 C 73 % 11.84 C
3272 28-08-2006 17:39:02 16.4 C 70 % 10.92 C
3273 28-08-2006 17:49:03 16 C 68 % 10.1 C
3274 28-08-2006 17:59:03 16 C 69 % 10.32 C
3275 28-08-2006 18:09:03 13.4 C 73 % 8.66 C
Sensor: Nr:Datum:Temp:Feuchte:Taupunkt:
Aussen-T/F 3276 28-08-2006 18:19:03 12.8 C 80 % 9.44 C
3277 28-08-2006 18:29:03 12.4 C 83 % 9.6 C
3278 28-08-2006 18:39:03 12.1 C 85 % 9.66 C
3279 28-08-2006 18:49:02 12 C 86 % 9.73 C
3280 28-08-2006 18:59:02 12.2 C 88 % 10.27 C
3281 28-08-2006 19:09:02 12.2 C 89 % 10.44 C
3282 28-08-2006 19:19:02 12.2 C 88 % 10.27 C
3283 28-08-2006 19:29:02 12.3 C 88 % 10.37 C
3284 28-08-2006 19:39:03 12.4 C 87 % 10.3 C
3285 28-08-2006 19:49:03 12.4 C 86 % 10.13 C
3286 28-08-2006 19:59:03 12.5 C 85 % 10.05 C
3287 28-08-2006 20:09:02 12.6 C 84 % 9.97 C
3288 28-08-2006 20:19:02 12.6 C 85 % 10.15 C
3289 28-08-2006 20:29:02 12.6 C 85 % 10.15 C
3290 28-08-2006 20:39:02 12.6 C 85 % 10.15 C
3291 28-08-2006 20:49:02 12.5 C 85 % 10.05 C
3292 28-08-2006 20:59:02 12.4 C 85 % 9.95 C
3293 28-08-2006 21:09:02 12.3 C 84 % 9.68 C
3294 28-08-2006 21:19:01 12.1 C 84 % 9.48 C
3295 28-08-2006 21:29:01 12.1 C 82 % 9.12 C
3296 28-08-2006 21:39:02 11.9 C 84 % 9.29 C
3297 28-08-2006 21:49:02 11.8 C 84 % 9.19 C
3298 28-08-2006 21:59:02 11.6 C 86 % 9.34 C
3299 28-08-2006 22:09:02 11.5 C 86 % 9.24 C
3300 28-08-2006 22:19:01 11.6 C 84 % 8.99 C
Sensor: Nr:Datum:Temp:Feuchte:Taupunkt:
Aussen-T/F 3301 28-08-2006 22:29:01 11.8 C 82 % 8.83 C
3302 28-08-2006 22:39:02 11.7 C 81 % 8.55 C
3303 28-08-2006 22:49:02 11.8 C 80 % 8.47 C
3304 28-08-2006 22:59:02 11.8 C 79 % 8.28 C
3305 28-08-2006 23:09:02 11.8 C 78 % 8.09 C
3306 28-08-2006 23:19:01 11.8 C 78 % 8.09 C
3307 28-08-2006 23:29:01 11.8 C 78 % 8.09 C
3308 28-08-2006 23:39:02 11.7 C 77 % 7.81 C
3309 28-08-2006 23:49:02 11.5 C 78 % 7.8 C
3310 28-08-2006 23:59:02 11.4 C 79 % 7.89 C
3311 29-08-2006 00:09:01 11.2 C 79 % 7.7 C
3312 29-08-2006 00:19:02 11.1 C 80 % 7.79 C
3313 29-08-2006 00:29:02 10.9 C 81 % 7.77 C
3314 29-08-2006 00:39:02 11 C 81 % 7.87 C
3315 29-08-2006 00:49:02 11 C 81 % 7.87 C
3316 29-08-2006 00:59:02 11 C 81 % 7.87 C
3317 29-08-2006 01:09:02 10.8 C 82 % 7.85 C
3318 29-08-2006 01:19:02 10.8 C 82 % 7.85 C
3319 29-08-2006 01:29:03 10.7 C 83 % 7.93 C
3320 29-08-2006 01:39:02 10.7 C 84 % 8.11 C
3321 29-08-2006 01:49:02 10.6 C 84 % 8.01 C
3322 29-08-2006 01:59:03 10.6 C 84 % 8.01 C
3323 29-08-2006 02:09:02 10.5 C 85 % 8.09 C
3324 29-08-2006 02:19:02 10.5 C 85 % 8.09 C
3325 29-08-2006 02:29:02 10.5 C 85 % 8.09 C
Sensor: Nr:Datum:Temp:Feuchte:Taupunkt:
Aussen-T/F 3326 29-08-2006 02:39:03 10.5 C 85 % 8.09 C
3327 29-08-2006 02:50:04 10.5 C 85 % 8.09 C
3328 29-08-2006 03:00:04 10.5 C 85 % 8.09 C
3329 29-08-2006 03:10:04 10.3 C 85 % 7.89 C
3330 29-08-2006 03:20:04 10.7 C 85 % 8.28 C
3331 29-08-2006 03:30:04 10.8 C 84 % 8.21 C
3332 29-08-2006 03:40:02 10.9 C 83 % 8.13 C
3333 29-08-2006 03:50:02 10.9 C 83 % 8.13 C
3334 29-08-2006 04:00:02 10.8 C 84 % 8.21 C
3335 29-08-2006 04:10:01 10.8 C 84 % 8.21 C
3336 29-08-2006 04:20:02 11 C 83 % 8.23 C
3337 29-08-2006 04:30:02 11.1 C 83 % 8.33 C
3338 29-08-2006 04:40:02 11.1 C 83 % 8.33 C
3339 29-08-2006 04:50:02 11 C 84 % 8.4 C
3340 29-08-2006 05:00:02 10.9 C 85 % 8.48 C
3341 29-08-2006 05:10:03 10.8 C 86 % 8.56 C
3342 29-08-2006 05:20:03 10.7 C 86 % 8.46 C
3343 29-08-2006 05:30:03 10.5 C 86 % 8.26 C
3344 29-08-2006 05:40:03 10.5 C 87 % 8.43 C
3345 29-08-2006 05:50:02 10.4 C 87 % 8.33 C
3346 29-08-2006 06:00:02 10.4 C 87 % 8.33 C
3347 29-08-2006 06:10:02 10.3 C 87 % 8.23 C
3348 29-08-2006 06:20:02 10.2 C 88 % 8.3 C
3349 29-08-2006 06:30:02 10.3 C 88 % 8.4 C
3350 29-08-2006 06:40:01 10.5 C 88 % 8.6 C
Sensor: Nr:Datum:Temp:Feuchte:Taupunkt:
Aussen-T/F 3351 29-08-2006 06:50:02 10.8 C 87 % 8.73 C
3352 29-08-2006 07:00:02 10.8 C 86 % 8.56 C
3353 29-08-2006 07:10:02 10.8 C 85 % 8.38 C
3354 29-08-2006 07:20:01 10.9 C 84 % 8.31 C
3355 29-08-2006 07:30:01 11 C 82 % 8.05 C
3356 29-08-2006 07:40:01 11 C 83 % 8.23 C
3357 29-08-2006 07:50:02 10.7 C 84 % 8.11 C
3358 29-08-2006 08:00:02 10.7 C 85 % 8.28 C
3359 29-08-2006 08:10:02 10.9 C 84 % 8.31 C
3360 29-08-2006 08:20:02 11.2 C 83 % 8.42 C
3361 29-08-2006 08:30:02 11.3 C 82 % 8.34 C
3362 29-08-2006 08:40:02 11.4 C 81 % 8.26 C
3363 29-08-2006 08:50:02 11.7 C 80 % 8.37 C
3364 29-08-2006 09:00:03 12.1 C 78 % 8.38 C
3365 29-08-2006 09:10:01 12.2 C 79 % 8.67 C
3366 29-08-2006 09:20:01 12.5 C 78 % 8.77 C
3367 29-08-2006 09:30:01 12.4 C 78 % 8.68 C
3368 29-08-2006 09:40:01 12.4 C 79 % 8.86 C
3369 29-08-2006 09:50:02 13.1 C 77 % 9.16 C
3370 29-08-2006 10:00:02 13 C 76 % 8.87 C
3371 29-08-2006 10:10:02 13.1 C 76 % 8.97 C
3372 29-08-2006 10:20:02 13.3 C 76 % 9.16 C
3373 29-08-2006 10:30:02 13.6 C 73 % 8.86 C
3374 29-08-2006 10:40:02 14.2 C 72 % 9.23 C
3375 29-08-2006 10:50:01 14.5 C 70 % 9.1 C
Sensor: Nr:Datum:Temp:Feuchte:Taupunkt:
Aussen-T/F 3376 29-08-2006 11:00:01 15.7 C 68 % 9.82 C
3377 29-08-2006 11:10:02 14.7 C 68 % 8.86 C
3378 29-08-2006 11:20:02 14.9 C 67 % 8.83 C
3379 29-08-2006 11:30:02 14.8 C 68 % 8.96 C
3380 29-08-2006 11:40:02 14.8 C 69 % 9.17 C
3381 29-08-2006 11:50:03 15.3 C 65 % 8.77 C
3382 29-08-2006 12:00:03 15 C 64 % 8.25 C
3383 29-08-2006 12:10:02 15.3 C 66 % 8.99 C
3384 29-08-2006 12:20:02 16.3 C 61 % 8.77 C
3385 29-08-2006 12:30:02 16.8 C 58 % 8.5 C
3386 29-08-2006 12:40:02 16.7 C 57 % 8.15 C
3387 29-08-2006 12:50:02 17 C 54 % 7.63 C
3388 29-08-2006 13:00:02 17.4 C 53 % 7.73 C
3389 29-08-2006 13:10:02 17.1 C 50 % 6.6 C
3390 29-08-2006 13:20:01 17.2 C 50 % 6.7 C
3391 29-08-2006 13:30:01 16.7 C 54 % 7.36 C
3392 29-08-2006 13:40:01 15.7 C 61 % 8.21 C
3393 29-08-2006 13:50:02 16.6 C 58 % 8.31 C
3394 29-08-2006 14:00:02 16.9 C 57 % 8.34 C
3395 29-08-2006 14:10:02 16.6 C 57 % 8.06 C
3396 29-08-2006 14:20:01 17.6 C 54 % 8.19 C
3397 29-08-2006 14:30:01 17.4 C 50 % 6.88 C
3398 29-08-2006 14:40:01 18.2 C 50 % 7.62 C
3399 29-08-2006 14:50:02 18.3 C 48 % 7.11 C
3400 29-08-2006 15:00:03 18.5 C 45 % 6.36 C
Sensor: Nr:Datum:Temp:Feuchte:Taupunkt:
Aussen-T/F 3401 29-08-2006 15:10:01 18.6 C 44 % 6.12 C
3402 29-08-2006 15:20:01 18.9 C 44 % 6.39 C
3403 29-08-2006 15:30:01 19.3 C 41 % 5.73 C
3404 29-08-2006 15:40:01 19.2 C 41 % 5.64 C
3405 29-08-2006 15:50:02 17.9 C 48 % 6.75 C
3406 29-08-2006 16:00:02 17.3 C 51 % 7.08 C
3407 29-08-2006 16:10:02 13.3 C 68 % 7.53 C
3408 29-08-2006 16:20:02 13.1 C 76 % 8.97 C
3409 29-08-2006 16:30:02 13.1 C 79 % 9.54 C
3410 29-08-2006 16:40:01 13 C 80 % 9.63 C
3411 29-08-2006 16:50:02 13 C 77 % 9.07 C
3412 29-08-2006 17:00:02 12.7 C 80 % 9.34 C
3413 29-08-2006 17:10:02 12.4 C 82 % 9.42 C
3414 29-08-2006 17:20:02 12.3 C 84 % 9.68 C
3415 29-08-2006 17:30:02 12.1 C 87 % 10 C
3416 29-08-2006 17:40:02 12 C 87 % 9.91 C
3417 29-08-2006 17:50:02 11.9 C 89 % 10.15 C
3418 29-08-2006 18:00:02 11.7 C 89 % 9.95 C
3419 29-08-2006 18:10:02 12 C 89 % 10.25 C
3420 29-08-2006 18:20:02 12 C 89 % 10.25 C
3421 29-08-2006 18:30:02 12.1 C 89 % 10.34 C
3422 29-08-2006 18:40:02 12 C 89 % 10.25 C
3423 29-08-2006 18:50:02 12.1 C 89 % 10.34 C
3424 29-08-2006 19:00:02 12.2 C 89 % 10.44 C
3425 29-08-2006 19:10:02 12.1 C 89 % 10.34 C
Sensor: Nr:Datum:Temp:Feuchte:Taupunkt:
Aussen-T/F 3426 29-08-2006 19:20:02 12.1 C 89 % 10.34 C
3427 29-08-2006 19:30:02 12.1 C 88 % 10.17 C
3428 29-08-2006 19:40:02 12.3 C 88 % 10.37 C
3429 29-08-2006 19:50:02 12.6 C 87 % 10.5 C
3430 29-08-2006 20:00:02 12.8 C 86 % 10.52 C
3431 29-08-2006 20:10:02 12.2 C 87 % 10.1 C
3432 29-08-2006 20:20:02 11.8 C 88 % 9.88 C
3433 29-08-2006 20:30:02 11.4 C 88 % 9.49 C
3434 29-08-2006 20:40:02 11.2 C 88 % 9.29 C
3435 29-08-2006 20:50:02 11.1 C 89 % 9.36 C
3436 29-08-2006 21:00:02 11.1 C 89 % 9.36 C
3437 29-08-2006 21:10:03 11.1 C 89 % 9.36 C
3438 29-08-2006 21:20:02 10.9 C 89 % 9.16 C
3439 29-08-2006 21:30:02 11 C 89 % 9.26 C
3440 29-08-2006 21:40:02 11 C 89 % 9.26 C
3441 29-08-2006 21:50:03 11.1 C 90 % 9.52 C
3442 29-08-2006 22:00:03 11.2 C 91 % 9.79 C
3443 29-08-2006 22:10:03 11.1 C 91 % 9.69 C
3444 29-08-2006 22:20:02 10.8 C 92 % 9.55 C
3445 29-08-2006 22:30:02 10.6 C 92 % 9.36 C
3446 29-08-2006 22:40:02 10.5 C 92 % 9.26 C
3447 29-08-2006 22:50:02 10.4 C 92 % 9.16 C
3448 29-08-2006 23:00:02 10.3 C 92 % 9.06 C
3449 29-08-2006 23:10:02 10.1 C 93 % 9.02 C
3450 29-08-2006 23:20:02 10.2 C 93 % 9.12 C
Sensor: Nr:Datum:Temp:Feuchte:Taupunkt:
Aussen-T/F 3451 29-08-2006 23:30:02 10.2 C 93 % 9.12 C
3452 29-08-2006 23:40:02 10.1 C 93 % 9.02 C
3453 29-08-2006 23:50:02 10.1 C 93 % 9.02 C
3454 30-08-2006 00:00:02 10.2 C 94 % 9.28 C
3455 30-08-2006 00:10:02 10.5 C 94 % 9.58 C
3456 30-08-2006 00:20:03 10.5 C 94 % 9.58 C
3457 30-08-2006 00:30:03 10.6 C 93 % 9.52 C
3458 30-08-2006 00:40:02 10.5 C 92 % 9.26 C
3459 30-08-2006 00:50:02 10.5 C 91 % 9.09 C
3460 30-08-2006 01:00:02 10.4 C 90 % 8.83 C
3461 30-08-2006 01:10:02 10.4 C 90 % 8.83 C
3462 30-08-2006 01:20:02 10.5 C 89 % 8.77 C
3463 30-08-2006 01:30:02 10.6 C 88 % 8.7 C
3464 30-08-2006 01:40:02 10.5 C 88 % 8.6 C
3465 30-08-2006 01:50:03 10.6 C 87 % 8.53 C
3466 30-08-2006 02:00:03 10.6 C 86 % 8.36 C
3467 30-08-2006 02:10:02 10.5 C 86 % 8.26 C
3468 30-08-2006 02:20:02 10.5 C 86 % 8.26 C
3469 30-08-2006 02:30:02 10.7 C 85 % 8.28 C
3470 30-08-2006 02:40:02 10.8 C 84 % 8.21 C
3471 30-08-2006 02:51:04 10.8 C 83 % 8.03 C
3472 30-08-2006 03:01:04 10.7 C 83 % 7.93 C
3473 30-08-2006 03:11:03 10.7 C 84 % 8.11 C
3474 30-08-2006 03:21:03 10.5 C 84 % 7.91 C
3475 30-08-2006 03:31:02 10.5 C 83 % 7.74 C
Sensor: Nr:Datum:Temp:Feuchte:Taupunkt:
Aussen-T/F 3476 30-08-2006 03:41:02 10.5 C 83 % 7.74 C
3477 30-08-2006 03:51:02 10.5 C 83 % 7.74 C
3478 30-08-2006 04:01:02 10.5 C 83 % 7.74 C
3479 30-08-2006 04:11:02 10.5 C 83 % 7.74 C
3480 30-08-2006 04:21:02 10.5 C 83 % 7.74 C
3481 30-08-2006 04:31:02 10.2 C 83 % 7.45 C
3482 30-08-2006 04:41:02 10.3 C 83 % 7.54 C
3483 30-08-2006 04:51:02 10.6 C 83 % 7.84 C
3484 30-08-2006 05:01:02 10.5 C 82 % 7.56 C
3485 30-08-2006 05:11:02 10.5 C 83 % 7.74 C
3486 30-08-2006 05:21:02 10.3 C 83 % 7.54 C
3487 30-08-2006 05:31:02 10.6 C 83 % 7.84 C
3488 30-08-2006 05:41:02 10.5 C 83 % 7.74 C
3489 30-08-2006 05:51:02 10.5 C 83 % 7.74 C
3490 30-08-2006 06:01:02 10.5 C 83 % 7.74 C
3491 30-08-2006 06:11:02 10.6 C 83 % 7.84 C
3492 30-08-2006 06:21:02 10.4 C 84 % 7.82 C
3493 30-08-2006 06:31:03 10.1 C 87 % 8.04 C
3494 30-08-2006 06:41:03 10.1 C 88 % 8.21 C
3495 30-08-2006 06:51:02 9.9 C 90 % 8.34 C
3496 30-08-2006 07:01:02 9.8 C 91 % 8.4 C
3497 30-08-2006 07:11:02 9.8 C 91 % 8.4 C
3498 30-08-2006 07:21:02 9.8 C 91 % 8.4 C
3499 30-08-2006 07:31:02 9.8 C 92 % 8.56 C
3500 30-08-2006 07:41:02 10 C 91 % 8.6 C
Sensor: Nr:Datum:Temp:Feuchte:Taupunkt:
Aussen-T/F 3501 30-08-2006 07:51:01 9.9 C 92 % 8.66 C
3502 30-08-2006 08:01:02 10.1 C 91 % 8.7 C
3503 30-08-2006 08:11:02 10.2 C 91 % 8.8 C
3504 30-08-2006 08:21:02 10.3 C 91 % 8.9 C
3505 30-08-2006 08:31:02 10.6 C 91 % 9.19 C
3506 30-08-2006 08:41:03 10.8 C 91 % 9.39 C
3507 30-08-2006 08:51:02 11.2 C 89 % 9.46 C
3508 30-08-2006 09:01:02 11.4 C 88 % 9.49 C
3509 30-08-2006 09:11:02 11.8 C 86 % 9.54 C
3510 30-08-2006 09:21:02 12 C 84 % 9.38 C
3511 30-08-2006 09:31:02 12.2 C 83 % 9.4 C
3512 30-08-2006 09:41:02 12.5 C 82 % 9.51 C
3513 30-08-2006 09:51:02 12.9 C 80 % 9.54 C
3514 30-08-2006 10:01:02 13.7 C 77 % 9.75 C
3515 30-08-2006 10:11:02 14.2 C 73 % 9.43 C
3516 30-08-2006 10:21:02 13.8 C 75 % 9.45 C
3517 30-08-2006 10:31:02 13.4 C 77 % 9.45 C
3518 30-08-2006 10:41:02 13.4 C 77 % 9.45 C
3519 30-08-2006 10:51:03 14.7 C 74 % 10.12 C
3520 30-08-2006 11:01:03 14.3 C 73 % 9.53 C
3521 30-08-2006 11:11:03 14.4 C 74 % 9.83 C
3522 30-08-2006 11:21:02 14.4 C 72 % 9.42 C
3523 30-08-2006 11:31:02 14.8 C 72 % 9.81 C
3524 30-08-2006 11:41:02 15 C 70 % 9.58 C
3525 30-08-2006 11:51:02 15 C 72 % 10 C
Sensor: Nr:Datum:Temp:Feuchte:Taupunkt:
Aussen-T/F 3526 30-08-2006 12:01:01 15.2 C 70 % 9.77 C
3527 30-08-2006 12:11:01 13.6 C 81 % 10.4 C
3528 30-08-2006 12:21:02 13.5 C 85 % 11.03 C
3529 30-08-2006 12:31:01 13.7 C 85 % 11.23 C
3530 30-08-2006 12:41:01 14.3 C 83 % 11.45 C
3531 30-08-2006 12:51:01 14.6 C 83 % 11.75 C
3532 30-08-2006 13:01:02 14.4 C 81 % 11.18 C
3533 30-08-2006 13:11:02 15.2 C 79 % 11.59 C
3534 30-08-2006 13:21:02 15.5 C 76 % 11.29 C
3535 30-08-2006 13:31:02 16.4 C 74 % 11.76 C
3536 30-08-2006 13:41:02 17.2 C 67 % 11.02 C
3537 30-08-2006 13:51:03 16.5 C 65 % 9.9 C
3538 30-08-2006 14:01:02 16.8 C 68 % 10.87 C
3539 30-08-2006 14:11:02 17.2 C 65 % 10.57 C
3540 30-08-2006 14:21:02 16.5 C 67 % 10.36 C
3541 30-08-2006 14:31:02 16.3 C 63 % 9.25 C
3542 30-08-2006 14:41:02 16.7 C 63 % 9.63 C
3543 30-08-2006 14:51:02 17.8 C 56 % 8.91 C
3544 30-08-2006 15:01:01 18.1 C 52 % 8.1 C
3545 30-08-2006 15:11:01 18.9 C 51 % 8.55 C
3546 30-08-2006 15:21:01 19 C 47 % 7.44 C
3547 30-08-2006 15:31:01 19.9 C 44 % 7.3 C
3548 30-08-2006 15:41:01 19.9 C 41 % 6.27 C
3549 30-08-2006 15:51:02 19.2 C 41 % 5.64 C
3550 30-08-2006 16:01:02 20 C 41 % 6.36 C
Sensor: Nr:Datum:Temp:Feuchte:Taupunkt:
Aussen-T/F 3551 30-08-2006 16:11:02 18.5 C 43 % 5.7 C
3552 30-08-2006 16:21:01 15.8 C 50 % 5.41 C
3553 30-08-2006 16:31:02 14.5 C 76 % 10.32 C
3554 30-08-2006 16:41:02 14.6 C 80 % 11.19 C
3555 30-08-2006 16:51:02 15 C 67 % 8.93 C
3556 30-08-2006 17:01:02 15.2 C 69 % 9.56 C
3557 30-08-2006 17:11:02 15.7 C 74 % 11.08 C
3558 30-08-2006 17:21:01 15.6 C 74 % 10.99 C
3559 30-08-2006 17:31:02 15.4 C 74 % 10.79 C
3560 30-08-2006 17:41:02 15.2 C 73 % 10.4 C
3561 30-08-2006 17:51:02 15.6 C 73 % 10.78 C
3562 30-08-2006 18:01:02 15.9 C 72 % 10.86 C
3563 30-08-2006 18:11:02 15.4 C 69 % 9.75 C
3564 30-08-2006 18:21:02 15 C 71 % 9.79 C
3565 30-08-2006 18:31:02 14.8 C 74 % 10.22 C
3566 30-08-2006 18:41:02 14.8 C 78 % 11 C
3567 30-08-2006 18:51:03 15.2 C 78 % 11.39 C
3568 30-08-2006 19:01:03 15.6 C 71 % 10.37 C
3569 30-08-2006 19:11:03 15.4 C 71 % 10.17 C
3570 30-08-2006 19:21:03 15.1 C 72 % 10.09 C
3571 30-08-2006 19:31:03 14.8 C 74 % 10.22 C
3572 30-08-2006 19:41:03 14.7 C 76 % 10.52 C
3573 30-08-2006 19:51:02 14.6 C 77 % 10.62 C
3574 30-08-2006 20:01:03 14.7 C 76 % 10.52 C
3575 30-08-2006 20:11:03 14.6 C 75 % 10.22 C
Sensor: Nr:Datum:Temp:Feuchte:Taupunkt:
Aussen-T/F 3576 30-08-2006 20:21:03 14.1 C 79 % 10.52 C
3577 30-08-2006 20:31:03 14.1 C 79 % 10.52 C
3578 30-08-2006 20:41:03 14.1 C 80 % 10.71 C
3579 30-08-2006 20:51:03 14.1 C 80 % 10.71 C
3580 30-08-2006 21:01:03 14 C 81 % 10.79 C
3581 30-08-2006 21:11:03 13.6 C 85 % 11.13 C
3582 30-08-2006 21:21:02 13.4 C 86 % 11.11 C
3583 30-08-2006 21:31:02 13.3 C 87 % 11.18 C
3584 30-08-2006 21:41:02 13.1 C 88 % 11.16 C
3585 30-08-2006 21:51:01 13.1 C 89 % 11.33 C
3586 30-08-2006 22:01:02 13 C 89 % 11.23 C
3587 30-08-2006 22:11:02 13 C 90 % 11.4 C
3588 30-08-2006 22:21:02 13 C 90 % 11.4 C
3589 30-08-2006 22:31:02 13 C 89 % 11.23 C
3590 30-08-2006 22:41:03 12.9 C 89 % 11.13 C
3591 30-08-2006 22:51:01 12.8 C 88 % 10.86 C
3592 30-08-2006 23:01:01 12.9 C 89 % 11.13 C
3593 30-08-2006 23:11:01 12.8 C 88 % 10.86 C
3594 30-08-2006 23:21:01 12.7 C 88 % 10.77 C
3595 30-08-2006 23:31:02 12.7 C 88 % 10.77 C
3596 30-08-2006 23:41:02 12.5 C 89 % 10.74 C
3597 30-08-2006 23:51:02 12.5 C 89 % 10.74 C
3598 31-08-2006 00:01:01 12.5 C 90 % 10.91 C
3599 31-08-2006 00:11:01 12.3 C 90 % 10.71 C
3600 31-08-2006 00:21:02 12.2 C 90 % 10.61 C
Sensor: Nr:Datum:Temp:Feuchte:Taupunkt:
Aussen-T/F 3601 31-08-2006 00:31:02 12 C 90 % 10.41 C
3602 31-08-2006 00:41:02 12.3 C 91 % 10.87 C
3603 31-08-2006 00:51:02 12.3 C 92 % 11.04 C
3604 31-08-2006 01:01:03 12.3 C 92 % 11.04 C
3605 31-08-2006 01:11:03 12.2 C 91 % 10.78 C
3606 31-08-2006 01:21:02 11.9 C 91 % 10.48 C
3607 31-08-2006 01:31:02 11.6 C 91 % 10.18 C
3608 31-08-2006 01:41:02 11.5 C 90 % 9.92 C
3609 31-08-2006 01:51:01 11.4 C 88 % 9.49 C
3610 31-08-2006 02:01:01 11.2 C 87 % 9.12 C
3611 31-08-2006 02:11:01 11.1 C 88 % 9.19 C
3612 31-08-2006 02:21:02 10.8 C 88 % 8.89 C
3613 31-08-2006 02:31:01 10.7 C 89 % 8.96 C
3614 31-08-2006 02:41:01 10.7 C 89 % 8.96 C
3615 31-08-2006 02:52:04 10.6 C 89 % 8.86 C
3616 31-08-2006 03:02:04 10.6 C 90 % 9.03 C
3617 31-08-2006 03:12:04 10.5 C 89 % 8.77 C
3618 31-08-2006 03:22:04 10.4 C 89 % 8.67 C
3619 31-08-2006 03:32:03 10.4 C 90 % 8.83 C
3620 31-08-2006 03:42:03 10.4 C 90 % 8.83 C
3621 31-08-2006 03:52:03 10.2 C 90 % 8.64 C
3622 31-08-2006 04:02:02 10.1 C 90 % 8.54 C
3623 31-08-2006 04:12:02 10 C 91 % 8.6 C
3624 31-08-2006 04:22:03 10 C 91 % 8.6 C
3625 31-08-2006 04:32:03 9.9 C 92 % 8.66 C
Sensor: Nr:Datum:Temp:Feuchte:Taupunkt:
Aussen-T/F 3626 31-08-2006 04:42:03 9.7 C 93 % 8.62 C
3627 31-08-2006 04:52:03 9.6 C 93 % 8.53 C
3628 31-08-2006 05:02:02 9.7 C 93 % 8.62 C
3629 31-08-2006 05:12:02 9.5 C 93 % 8.43 C
3630 31-08-2006 05:22:02 9.5 C 93 % 8.43 C
3631 31-08-2006 05:32:02 9.3 C 93 % 8.23 C
3632 31-08-2006 05:42:02 9.4 C 93 % 8.33 C
3633 31-08-2006 05:52:02 9.3 C 93 % 8.23 C
3634 31-08-2006 06:02:02 9.1 C 93 % 8.03 C
3635 31-08-2006 06:12:03 9 C 93 % 7.93 C
3636 31-08-2006 06:22:02 8.8 C 94 % 7.89 C
3637 31-08-2006 06:32:02 9 C 93 % 7.93 C
3638 31-08-2006 06:42:02 9.1 C 93 % 8.03 C
3639 31-08-2006 06:52:02 9 C 93 % 7.93 C
3640 31-08-2006 07:02:03 9 C 93 % 7.93 C
3641 31-08-2006 07:12:03 9 C 93 % 7.93 C
3642 31-08-2006 07:22:02 9 C 93 % 7.93 C
3643 31-08-2006 07:32:02 9 C 93 % 7.93 C
3644 31-08-2006 07:42:02 9.1 C 93 % 8.03 C
3645 31-08-2006 07:52:01 9.1 C 93 % 8.03 C
3646 31-08-2006 08:02:02 9.3 C 94 % 8.39 C
3647 31-08-2006 08:12:02 9.5 C 94 % 8.58 C
3648 31-08-2006 08:22:02 9.6 C 94 % 8.68 C
3649 31-08-2006 08:32:01 9.8 C 94 % 8.88 C
3650 31-08-2006 08:42:02 10.1 C 93 % 9.02 C
Sensor: Nr:Datum:Temp:Feuchte:Taupunkt:
Aussen-T/F 3651 31-08-2006 08:52:02 10.3 C 92 % 9.06 C
3652 31-08-2006 09:02:02 10.7 C 92 % 9.45 C
3653 31-08-2006 09:12:02 11 C 91 % 9.59 C
3654 31-08-2006 09:22:02 11.4 C 90 % 9.82 C
3655 31-08-2006 09:32:02 11.8 C 88 % 9.88 C
3656 31-08-2006 09:42:02 12 C 86 % 9.73 C
3657 31-08-2006 09:52:02 12.5 C 85 % 10.05 C
3658 31-08-2006 10:02:02 12.9 C 82 % 9.9 C
3659 31-08-2006 10:12:02 13.3 C 78 % 9.55 C
3660 31-08-2006 10:22:02 13.6 C 78 % 9.84 C
3661 31-08-2006 10:32:02 13.8 C 78 % 10.03 C
3662 31-08-2006 10:42:02 14.2 C 76 % 10.03 C
3663 31-08-2006 10:52:02 14.8 C 73 % 10.01 C
3664 31-08-2006 11:02:02 15.1 C 64 % 8.35 C
3665 31-08-2006 11:12:02 15.6 C 64 % 8.82 C
3666 31-08-2006 11:22:02 15.8 C 64 % 9.01 C
3667 31-08-2006 11:32:02 16 C 59 % 8 C
3668 31-08-2006 11:42:02 16.3 C 59 % 8.28 C
3669 31-08-2006 11:52:02 16.5 C 58 % 8.22 C
3670 31-08-2006 12:02:02 16.9 C 56 % 8.07 C
3671 31-08-2006 12:12:02 17.2 C 57 % 8.62 C
3672 31-08-2006 12:22:02 17.3 C 54 % 7.91 C
3673 31-08-2006 12:32:02 17.6 C 54 % 8.19 C
3674 31-08-2006 12:42:02 17.8 C 52 % 7.82 C
3675 31-08-2006 12:52:02 17.9 C 52 % 7.91 C
Sensor: Nr:Datum:Temp:Feuchte:Taupunkt:
Aussen-T/F 3676 31-08-2006 13:02:03 18.2 C 51 % 7.91 C
3677 31-08-2006 13:12:03 18.5 C 49 % 7.6 C
3678 31-08-2006 13:22:03 18.7 C 44 % 6.21 C
3679 31-08-2006 13:32:02 19.1 C 45 % 6.9 C
3680 31-08-2006 13:42:02 19.3 C 44 % 6.75 C
3681 31-08-2006 13:52:02 19.8 C 42 % 6.53 C
3682 31-08-2006 14:02:02 20 C 41 % 6.36 C
3683 31-08-2006 14:12:02 20.9 C 38 % 6.06 C
3684 31-08-2006 14:22:02 20.9 C 36 % 5.28 C
3685 31-08-2006 14:32:03 20.8 C 36 % 5.2 C
3686 31-08-2006 14:42:03 20.8 C 36 % 5.2 C
3687 31-08-2006 14:52:02 20.6 C 37 % 5.41 C
3688 31-08-2006 15:02:02 21.2 C 35 % 5.14 C
3689 31-08-2006 15:12:02 21.2 C 36 % 5.55 C
3690 31-08-2006 15:22:02 21.2 C 37 % 5.94 C
3691 31-08-2006 15:32:03 20.8 C 37 % 5.59 C
3692 31-08-2006 15:42:03 20.7 C 38 % 5.89 C
3693 31-08-2006 15:52:02 21.3 C 37 % 6.03 C
3694 31-08-2006 16:02:02 21.3 C 37 % 6.03 C
3695 31-08-2006 16:12:02 21.1 C 37 % 5.86 C
3696 31-08-2006 16:22:02 20.9 C 40 % 6.81 C
3697 31-08-2006 16:32:03 21.2 C 41 % 7.44 C
3698 31-08-2006 16:42:03 20.7 C 41 % 6.99 C
3699 31-08-2006 16:52:02 20.6 C 42 % 7.25 C
3700 31-08-2006 17:02:03 20.4 C 42 % 7.07 C
Sensor: Nr:Datum:Temp:Feuchte:Taupunkt:
Aussen-T/F 3701 31-08-2006 17:12:03 20.5 C 42 % 7.16 C
3702 31-08-2006 17:22:02 20.4 C 42 % 7.07 C
3703 31-08-2006 17:32:02 20.3 C 44 % 7.66 C
3704 31-08-2006 17:42:02 20.3 C 44 % 7.66 C
3705 31-08-2006 17:52:02 20 C 43 % 7.05 C
3706 31-08-2006 18:02:03 19.8 C 45 % 7.53 C
3707 31-08-2006 18:12:03 19.7 C 48 % 8.39 C
3708 31-08-2006 18:22:03 19.6 C 46 % 7.67 C
3709 31-08-2006 18:32:02 19.7 C 48 % 8.39 C
3710 31-08-2006 18:42:02 19.6 C 52 % 9.48 C
3711 31-08-2006 18:52:02 19.4 C 50 % 8.72 C
3712 31-08-2006 19:02:02 19.3 C 50 % 8.63 C
3713 31-08-2006 19:12:02 19.3 C 49 % 8.33 C
3714 31-08-2006 19:22:02 19.1 C 50 % 8.44 C
3715 31-08-2006 19:32:03 18.9 C 51 % 8.55 C
3716 31-08-2006 19:42:03 18.7 C 52 % 8.65 C
3717 31-08-2006 19:52:02 18.6 C 52 % 8.56 C
3718 31-08-2006 20:02:02 18.7 C 51 % 8.37 C
3719 31-08-2006 20:12:02 18.6 C 51 % 8.27 C
3720 31-08-2006 20:22:02 18.5 C 51 % 8.18 C
3721 31-08-2006 20:32:02 18.5 C 52 % 8.47 C
3722 31-08-2006 20:42:02 18.2 C 54 % 8.75 C
3723 31-08-2006 20:52:02 18 C 54 % 8.56 C
3724 31-08-2006 21:02:02 17.7 C 56 % 8.82 C
3725 31-08-2006 21:12:02 17.7 C 56 % 8.82 C
Sensor: Nr:Datum:Temp:Feuchte:Taupunkt:
Aussen-T/F 3726 31-08-2006 21:22:03 17.8 C 56 % 8.91 C
3727 31-08-2006 21:32:03 17.7 C 57 % 9.08 C
3728 31-08-2006 21:42:03 17.8 C 60 % 9.94 C
3729 31-08-2006 21:52:02 17.3 C 60 % 9.47 C
3730 31-08-2006 22:02:02 17.4 C 61 % 9.81 C
3731 31-08-2006 22:12:02 17.4 C 61 % 9.81 C
3732 31-08-2006 22:22:02 17.3 C 60 % 9.47 C
3733 31-08-2006 22:32:02 17.4 C 60 % 9.56 C
3734 31-08-2006 22:42:02 17.4 C 61 % 9.81 C
3735 31-08-2006 22:52:02 17.3 C 62 % 9.96 C
3736 31-08-2006 23:02:02 17.2 C 61 % 9.62 C
3737 31-08-2006 23:12:02 17.1 C 62 % 9.77 C
3738 31-08-2006 23:22:02 17.1 C 62 % 9.77 C
3739 31-08-2006 23:32:03 17.5 C 60 % 9.66 C
3740 31-08-2006 23:42:03 17.6 C 59 % 9.5 C
3741 31-08-2006 23:52:02 17.5 C 60 % 9.66 C
3742 01-09-2006 00:02:03 17.6 C 59 % 9.5 C
3743 01-09-2006 00:12:03 17.7 C 59 % 9.59 C
3744 01-09-2006 00:22:02 17.6 C 59 % 9.5 C
3745 01-09-2006 00:32:02 17.5 C 60 % 9.66 C
3746 01-09-2006 00:42:02 17.4 C 62 % 10.05 C
3747 01-09-2006 00:52:02 17.2 C 63 % 10.1 C
3748 01-09-2006 01:02:02 17.1 C 63 % 10.01 C
3749 01-09-2006 01:12:02 17 C 64 % 10.15 C
3750 01-09-2006 01:22:03 16.8 C 66 % 10.42 C
Sensor: Nr:Datum:Temp:Feuchte:Taupunkt:
Aussen-T/F 3751 01-09-2006 01:32:02 16.8 C 67 % 10.64 C
3752 01-09-2006 01:42:02 16.7 C 67 % 10.55 C
3753 01-09-2006 01:52:02 16.7 C 66 % 10.32 C
3754 01-09-2006 02:02:02 17 C 63 % 9.91 C
3755 01-09-2006 02:12:02 16.9 C 66 % 10.51 C
3756 01-09-2006 02:22:02 16.8 C 67 % 10.64 C
3757 01-09-2006 02:32:02 16.6 C 68 % 10.67 C
3758 01-09-2006 02:42:02 16.6 C 67 % 10.45 C
3759 01-09-2006 02:53:03 16.6 C 66 % 10.23 C
3760 01-09-2006 03:03:03 16.6 C 67 % 10.45 C
3761 01-09-2006 03:13:04 16.5 C 67 % 10.36 C
3762 01-09-2006 03:23:04 16.4 C 67 % 10.26 C
3763 01-09-2006 03:33:02 16.4 C 68 % 10.48 C
3764 01-09-2006 03:43:02 16.4 C 68 % 10.48 C
3765 01-09-2006 03:53:02 16.4 C 68 % 10.48 C
3766 01-09-2006 04:03:02 16.3 C 68 % 10.39 C
3767 01-09-2006 04:13:02 16.2 C 69 % 10.51 C
3768 01-09-2006 04:23:02 16.2 C 69 % 10.51 C
3769 01-09-2006 04:33:01 16.2 C 69 % 10.51 C
3770 01-09-2006 04:43:01 16.2 C 69 % 10.51 C
3771 01-09-2006 04:53:02 16.1 C 70 % 10.63 C
3772 01-09-2006 05:03:02 16 C 70 % 10.54 C
3773 01-09-2006 05:13:02 16 C 70 % 10.54 C
3774 01-09-2006 05:23:02 16 C 70 % 10.54 C
3775 01-09-2006 05:33:03 15.9 C 71 % 10.65 C
Sensor: Nr:Datum:Temp:Feuchte:Taupunkt:
Aussen-T/F 3776 01-09-2006 05:43:03 15.9 C 71 % 10.65 C
3777 01-09-2006 05:53:02 15.8 C 72 % 10.77 C
3778 01-09-2006 06:03:02 15.8 C 72 % 10.77 C
3779 01-09-2006 06:13:02 15.8 C 72 % 10.77 C
3780 01-09-2006 06:23:01 15.8 C 71 % 10.56 C
3781 01-09-2006 06:33:01 15.7 C 72 % 10.67 C
3782 01-09-2006 06:43:01 15.6 C 72 % 10.57 C
3783 01-09-2006 06:53:02 15.6 C 73 % 10.78 C
3784 01-09-2006 07:03:01 15.6 C 72 % 10.57 C
3785 01-09-2006 07:13:01 15.8 C 72 % 10.77 C
3786 01-09-2006 07:23:01 15.8 C 72 % 10.77 C
3787 01-09-2006 07:33:02 15.6 C 73 % 10.78 C
3788 01-09-2006 07:43:02 15.8 C 72 % 10.77 C
3789 01-09-2006 07:53:01 15.8 C 72 % 10.77 C
3790 01-09-2006 08:03:02 15.8 C 72 % 10.77 C
3791 01-09-2006 08:13:02 15.7 C 72 % 10.67 C
3792 01-09-2006 08:23:02 15.8 C 73 % 10.97 C
3793 01-09-2006 08:33:02 16 C 72 % 10.96 C
3794 01-09-2006 08:43:02 16.1 C 71 % 10.84 C
3795 01-09-2006 08:53:02 16.6 C 67 % 10.45 C
3796 01-09-2006 09:03:02 16.9 C 65 % 10.28 C
3797 01-09-2006 09:13:03 17.2 C 63 % 10.1 C
3798 01-09-2006 09:23:02 17.2 C 64 % 10.34 C
3799 01-09-2006 09:33:02 17.2 C 63 % 10.1 C
3800 01-09-2006 09:43:02 17.5 C 64 % 10.62 C
Sensor: Nr:Datum:Temp:Feuchte:Taupunkt:
Aussen-T/F 3801 01-09-2006 09:53:02 18 C 61 % 10.37 C
3802 01-09-2006 10:03:02 18.1 C 60 % 10.22 C
3803 01-09-2006 10:13:02 18.4 C 58 % 9.99 C
3804 01-09-2006 10:23:02 18.7 C 57 % 10.02 C
3805 01-09-2006 10:33:02 19 C 55 % 9.76 C
3806 01-09-2006 10:43:02 19.3 C 55 % 10.04 C
3807 01-09-2006 10:53:01 19.6 C 53 % 9.77 C
3808 01-09-2006 11:03:01 19.7 C 50 % 8.99 C
3809 01-09-2006 11:13:01 20 C 51 % 9.56 C
3810 01-09-2006 11:23:01 20.8 C 49 % 9.7 C
3811 01-09-2006 11:33:02 21.2 C 47 % 9.45 C
3812 01-09-2006 11:43:02 21.1 C 47 % 9.36 C
3813 01-09-2006 11:53:03 21.5 C 47 % 9.72 C
3814 01-09-2006 12:03:02 21.7 C 47 % 9.9 C
3815 01-09-2006 12:13:02 22.1 C 46 % 9.95 C
3816 01-09-2006 12:23:02 22.2 C 46 % 10.04 C
3817 01-09-2006 12:33:02 22.1 C 47 % 10.27 C
3818 01-09-2006 12:43:02 22.3 C 45 % 9.8 C
3819 01-09-2006 12:53:02 22.7 C 44 % 9.83 C
3820 01-09-2006 13:03:01 23.2 C 42 % 9.59 C
3821 01-09-2006 13:13:01 23.5 C 42 % 9.86 C
3822 01-09-2006 13:23:01 23.4 C 41 % 9.41 C
3823 01-09-2006 13:33:01 23.1 C 41 % 9.14 C
3824 01-09-2006 13:43:01 23.5 C 41 % 9.5 C
3825 01-09-2006 13:53:02 23.7 C 39 % 8.93 C
Sensor: Nr:Datum:Temp:Feuchte:Taupunkt:
Aussen-T/F 3826 01-09-2006 14:03:01 24.1 C 38 % 8.9 C
3827 01-09-2006 14:13:01 24.5 C 38 % 9.26 C
3828 01-09-2006 14:23:01 24.9 C 37 % 9.22 C
3829 01-09-2006 14:33:02 24.9 C 37 % 9.22 C
3830 01-09-2006 14:43:02 25.4 C 36 % 9.25 C
3831 01-09-2006 14:53:02 26.1 C 35 % 9.45 C
3832 01-09-2006 15:03:02 25.9 C 34 % 8.85 C
3833 01-09-2006 15:13:02 26.2 C 33 % 8.67 C
3834 01-09-2006 15:23:02 26.1 C 33 % 8.58 C
3835 01-09-2006 15:33:03 27.2 C 32 % 9.08 C
3836 01-09-2006 15:43:03 27.2 C 30 % 8.13 C
3837 01-09-2006 15:53:02 27.3 C 30 % 8.21 C
3838 01-09-2006 16:03:02 26.9 C 31 % 8.35 C
3839 01-09-2006 16:13:02 26.7 C 33 % 9.1 C
3840 01-09-2006 16:23:02 26.9 C 34 % 9.72 C
3841 01-09-2006 16:33:03 27.2 C 30 % 8.13 C
3842 01-09-2006 16:43:03 27 C 31 % 8.44 C
3843 01-09-2006 16:53:02 27.2 C 31 % 8.61 C
3844 01-09-2006 17:03:02 27 C 33 % 9.36 C
3845 01-09-2006 17:13:02 26.4 C 36 % 10.13 C
3846 01-09-2006 17:23:01 26.4 C 38 % 10.94 C
3847 01-09-2006 17:33:02 26.4 C 39 % 11.34 C
3848 01-09-2006 17:43:02 26.1 C 42 % 12.19 C
3849 01-09-2006 17:53:02 25.6 C 45 % 12.79 C
3850 01-09-2006 18:03:02 25.2 C 45 % 12.43 C
Sensor: Nr:Datum:Temp:Feuchte:Taupunkt:
Aussen-T/F 3851 01-09-2006 18:13:02 24.7 C 47 % 12.64 C
3852 01-09-2006 18:23:01 24.4 C 48 % 12.68 C
3853 01-09-2006 18:33:01 24.2 C 49 % 12.81 C
3854 01-09-2006 18:43:01 24.1 C 47 % 12.09 C
3855 01-09-2006 18:53:02 23.9 C 50 % 12.85 C
3856 01-09-2006 19:03:02 23.5 C 51 % 12.78 C
3857 01-09-2006 19:13:02 23.1 C 52 % 12.71 C
3858 01-09-2006 19:23:03 22.7 C 53 % 12.63 C
3859 01-09-2006 19:33:02 22.5 C 54 % 12.73 C
3860 01-09-2006 19:43:02 22.2 C 55 % 12.73 C
3861 01-09-2006 19:53:02 21.9 C 56 % 12.73 C
3862 01-09-2006 20:03:04 21.7 C 58 % 13.08 C
3863 01-09-2006 20:13:05 21.6 C 59 % 13.25 C
3864 01-09-2006 20:23:02 21.6 C 59 % 13.25 C
3865 01-09-2006 20:33:02 21.1 C 61 % 13.29 C
3866 01-09-2006 20:43:02 21 C 61 % 13.2 C
3867 01-09-2006 20:53:02 20.7 C 62 % 13.16 C
3868 01-09-2006 21:03:03 20.6 C 62 % 13.07 C
3869 01-09-2006 21:13:03 20.5 C 62 % 12.97 C
3870 01-09-2006 21:23:02 20.3 C 63 % 13.03 C
3871 01-09-2006 21:33:02 20.2 C 63 % 12.94 C
3872 01-09-2006 21:43:02 20.1 C 63 % 12.84 C
3873 01-09-2006 21:53:02 20.1 C 63 % 12.84 C
3874 01-09-2006 22:03:02 20.1 C 63 % 12.84 C
3875 01-09-2006 22:13:02 20 C 62 % 12.5 C
Sensor: Nr:Datum:Temp:Feuchte:Taupunkt:
Aussen-T/F 3876 01-09-2006 22:23:02 20 C 63 % 12.75 C
3877 01-09-2006 22:33:02 19.9 C 63 % 12.65 C
3878 01-09-2006 22:43:02 19.7 C 64 % 12.7 C
3879 01-09-2006 22:53:03 19.6 C 64 % 12.61 C
3880 01-09-2006 23:03:03 19.5 C 65 % 12.75 C
3881 01-09-2006 23:13:03 19.4 C 66 % 12.89 C
3882 01-09-2006 23:23:02 19.4 C 67 % 13.12 C
3883 01-09-2006 23:33:02